Darstellungsparameter: Aktuell verwendete Einstellungen:
Skalierung der Graphiken ... ?
xyx+y,   Skalierungsfaktor:      Skalierung: Modus: x, Faktor: 1
Darstellungszeitraum ... ?
Vom - - bis: - -   Zeitraum: 25.03.2020 - 24.04.2020
Min/Max/Avg-Anzeige ... ?
Zeige MMA aktuell
Zeige MMA Monat
Zeige MMA alles
Zeige --A aktuell
Zeige --A Monat
Zeige --A alles
Keine MMA-Anzeige
MMA:
Average (ber die Originaldaten)
MMA-Basis: 25.03.2020 - 24.04.2020
Quicknavigation für Darstellung... ?
Tage:      1T, 2T, 3T, 5T -1T -2T -3T -5T +1T +2T +3T +5T
Wochen: 1W, 2W, 3W -1W -2W -3W +1W +2W +3W
Monate: 1M, 3M, 6M -1M -3M -6M +1M +3M +6M
Jahre:    1J, 3J, 5J, 10J -1J -3J -5J -10J +1J +3J +5J +10J
Nutze für die Darstellung ... ?
Originaldaten oder Mittelwerte auf ...
Stundenbasis Tagesbasis Wochenbasis
Monatsbasis Jahresbasis      Datenbasis: Original-Daten
Darstellen als:
Statistik (Auto) Statistik J:M      Darstellung:
Zur Graphik,    zurück zur Übersicht aller Sensoren.
 
Tabellarische Datenbersicht: ?
 
Sensor: Nr:Datum:Temp:Feuchte:
Aussen-T/F 1 25-03-2020 00:00:17 -1.6 C 30 %
2 25-03-2020 00:10:17 -1.6 C 31 %
3 25-03-2020 00:20:17 -1.8 C 32 %
4 25-03-2020 00:30:17 -1.8 C 30 %
5 25-03-2020 00:40:18 -1.9 C 31 %
6 25-03-2020 00:50:17 -1.8 C 32 %
7 25-03-2020 01:00:17 -1.6 C 32 %
8 25-03-2020 01:10:18 -1.3 C 31 %
9 25-03-2020 01:20:17 -1.1 C 30 %
10 25-03-2020 01:30:18 -1.1 C 29 %
11 25-03-2020 01:40:18 -0.9 C 28 %
12 25-03-2020 01:50:17 -1.1 C 28 %
13 25-03-2020 02:00:17 -1.1 C 28 %
14 25-03-2020 02:10:18 -1.3 C 27 %
15 25-03-2020 02:20:18 -1.4 C 29 %
16 25-03-2020 02:30:18 -1.6 C 27 %
17 25-03-2020 02:40:18 -1.5 C 27 %
18 25-03-2020 02:50:18 -1.4 C 27 %
19 25-03-2020 03:00:18 -1.4 C 26 %
20 25-03-2020 03:10:18 -1.4 C 26 %
21 25-03-2020 03:20:17 -1.5 C 27 %
22 25-03-2020 03:30:17 -2.3 C 30 %
23 25-03-2020 03:40:17 -2.6 C 31 %
24 25-03-2020 03:50:17 -2.8 C 32 %
25 25-03-2020 04:00:17 -3.1 C 33 %
Sensor: Nr:Datum:Temp:Feuchte:
Aussen-T/F 26 25-03-2020 04:10:17 -3.2 C 34 %
27 25-03-2020 04:20:17 -3.3 C 34 %
28 25-03-2020 04:30:18 -3.3 C 34 %
29 25-03-2020 04:40:18 -3 C 33 %
30 25-03-2020 04:50:17 -3.2 C 33 %
31 25-03-2020 05:00:18 -3 C 32 %
32 25-03-2020 05:10:18 -2.6 C 32 %
33 25-03-2020 05:20:17 -2.3 C 30 %
34 25-03-2020 05:30:17 -2.5 C 30 %
35 25-03-2020 05:40:17 -3.4 C 33 %
36 25-03-2020 05:50:17 -4 C 35 %
37 25-03-2020 06:00:17 -4.4 C 36 %
38 25-03-2020 06:10:17 -4.2 C 36 %
39 25-03-2020 06:20:17 -4.2 C 36 %
40 25-03-2020 06:30:17 -4.4 C 36 %
41 25-03-2020 06:40:17 -4.3 C 36 %
42 25-03-2020 06:50:17 -4.3 C 36 %
43 25-03-2020 07:00:17 -4.3 C 37 %
44 25-03-2020 07:10:17 -4.3 C 37 %
45 25-03-2020 07:20:17 -4.1 C 37 %
46 25-03-2020 07:30:17 -4 C 37 %
47 25-03-2020 07:40:17 -3.8 C 37 %
48 25-03-2020 07:50:17 -3.2 C 36 %
49 25-03-2020 08:00:17 -2.6 C 35 %
50 25-03-2020 08:10:17 -2 C 32 %
Sensor: Nr:Datum:Temp:Feuchte:
Aussen-T/F 51 25-03-2020 08:20:17 -2.7 C 35 %
52 25-03-2020 08:30:17 -2 C 34 %
53 25-03-2020 08:40:17 -1.9 C 34 %
54 25-03-2020 08:50:17 -1.6 C 34 %
55 25-03-2020 09:00:17 -1.5 C 34 %
56 25-03-2020 09:10:17 -1.3 C 35 %
57 25-03-2020 09:20:17 -1 C 35 %
58 25-03-2020 09:30:17 -0.2 C 32 %
59 25-03-2020 09:40:18 0.7 C 29 %
60 25-03-2020 09:50:17 2.1 C 20 %
61 25-03-2020 10:00:18 2.8 C 20 %
62 25-03-2020 10:10:18 3.2 C 20 %
63 25-03-2020 10:20:17 3.6 C 20 %
64 25-03-2020 10:30:17 4.1 C 20 %
65 25-03-2020 10:40:17 4.7 C 20 %
66 25-03-2020 10:50:17 5.1 C 20 %
67 25-03-2020 11:00:17 5.3 C 20 %
68 25-03-2020 11:10:17 5.7 C 20 %
69 25-03-2020 11:20:17 7.2 C 20 %
70 25-03-2020 11:30:18 7.7 C 20 %
71 25-03-2020 11:40:18 7.3 C 20 %
72 25-03-2020 11:50:17 6.8 C 20 %
73 25-03-2020 12:00:17 7.8 C 20 %
74 25-03-2020 12:10:17 8.3 C 20 %
75 25-03-2020 12:20:17 8.4 C 20 %
Sensor: Nr:Datum:Temp:Feuchte:
Aussen-T/F 76 25-03-2020 12:30:17 8.4 C 20 %
77 25-03-2020 12:40:17 8.6 C 20 %
78 25-03-2020 12:50:17 10.3 C 20 %
79 25-03-2020 13:00:17 11.2 C 20 %
80 25-03-2020 13:10:17 12.2 C 20 %
81 25-03-2020 13:20:18 13.8 C 20 %
82 25-03-2020 13:30:18 14.5 C 20 %
83 25-03-2020 13:40:18 12.4 C 20 %
84 25-03-2020 13:50:18 12 C 20 %
85 25-03-2020 14:00:18 11.3 C 20 %
86 25-03-2020 14:10:18 11.1 C 20 %
87 25-03-2020 14:20:17 13.2 C 20 %
88 25-03-2020 14:30:17 13.5 C 20 %
89 25-03-2020 14:40:17 12.7 C 20 %
90 25-03-2020 14:50:17 13.5 C 20 %
91 25-03-2020 15:00:17 13.8 C 20 %
92 25-03-2020 15:10:17 14.1 C 20 %
93 25-03-2020 15:20:18 14.9 C 20 %
94 25-03-2020 15:30:18 14.4 C 20 %
95 25-03-2020 15:40:18 14.4 C 20 %
96 25-03-2020 15:50:17 15 C 20 %
97 25-03-2020 16:00:18 15.3 C 20 %
98 25-03-2020 16:10:18 14.5 C 20 %
99 25-03-2020 16:20:17 15.7 C 20 %
100 25-03-2020 16:30:17 13.8 C 20 %
Sensor: Nr:Datum:Temp:Feuchte:
Aussen-T/F 101 25-03-2020 16:40:17 12.9 C 20 %
102 25-03-2020 16:50:18 12.2 C 20 %
103 25-03-2020 17:00:18 11.9 C 20 %
104 25-03-2020 17:10:18 11.5 C 20 %
105 25-03-2020 17:20:17 11.1 C 20 %
106 25-03-2020 17:30:17 11 C 20 %
107 25-03-2020 17:40:17 10.7 C 20 %
108 25-03-2020 17:50:17 10.5 C 20 %
109 25-03-2020 18:00:18 10.5 C 20 %
110 25-03-2020 18:10:18 10.1 C 20 %
111 25-03-2020 18:20:17 9.6 C 20 %
112 25-03-2020 18:30:18 8.8 C 20 %
113 25-03-2020 18:40:18 7.7 C 20 %
114 25-03-2020 18:50:18 7 C 20 %
115 25-03-2020 19:00:18 6.3 C 20 %
116 25-03-2020 19:10:18 6.1 C 20 %
117 25-03-2020 19:20:17 5.4 C 20 %
118 25-03-2020 19:30:18 5.8 C 20 %
119 25-03-2020 19:40:18 5.1 C 20 %
120 25-03-2020 19:50:17 4.6 C 20 %
121 25-03-2020 20:00:17 4.5 C 20 %
122 25-03-2020 20:10:17 4.1 C 20 %
123 25-03-2020 20:20:17 4 C 20 %
124 25-03-2020 20:30:18 4.7 C 20 %
125 25-03-2020 20:40:18 4.3 C 20 %
Sensor: Nr:Datum:Temp:Feuchte:
Aussen-T/F 126 25-03-2020 20:50:17 3.8 C 20 %
127 25-03-2020 21:00:18 4.6 C 20 %
128 25-03-2020 21:10:18 4.6 C 20 %
129 25-03-2020 21:20:17 4.3 C 20 %
130 25-03-2020 21:30:17 4.3 C 20 %
131 25-03-2020 21:40:17 4 C 20 %
132 25-03-2020 21:50:17 3.6 C 20 %
133 25-03-2020 22:00:17 2.8 C 20 %
134 25-03-2020 22:10:17 2.6 C 20 %
135 25-03-2020 22:20:17 2.6 C 20 %
136 25-03-2020 22:30:18 2.1 C 20 %
137 25-03-2020 22:40:18 2.3 C 20 %
138 25-03-2020 22:50:18 2.1 C 20 %
139 25-03-2020 23:00:18 1.7 C 20 %
140 25-03-2020 23:10:18 1.7 C 23 %
141 25-03-2020 23:20:17 1.6 C 23 %
142 25-03-2020 23:30:18 1.5 C 21 %
143 25-03-2020 23:40:18 1.8 C 20 %
144 25-03-2020 23:50:18 1.8 C 20 %
145 26-03-2020 00:00:18 1.4 C 21 %
146 26-03-2020 00:10:18 1.2 C 21 %
147 26-03-2020 00:20:18 1.3 C 21 %
148 26-03-2020 00:30:18 0.9 C 23 %
149 26-03-2020 00:40:18 0.9 C 25 %
150 26-03-2020 00:50:18 1 C 23 %
Sensor: Nr:Datum:Temp:Feuchte:
Aussen-T/F 151 26-03-2020 01:00:18 0.7 C 25 %
152 26-03-2020 01:10:18 0.4 C 25 %
153 26-03-2020 01:20:17 0.5 C 25 %
154 26-03-2020 01:30:17 0.7 C 25 %
155 26-03-2020 01:40:17 0.7 C 23 %
156 26-03-2020 01:50:17 0.7 C 21 %
157 26-03-2020 02:00:17 0.6 C 23 %
158 26-03-2020 02:10:17 0.7 C 21 %
159 26-03-2020 02:20:17 0.7 C 21 %
160 26-03-2020 02:30:17 0.6 C 21 %
161 26-03-2020 02:40:18 0.4 C 21 %
162 26-03-2020 02:50:17 0.3 C 23 %
163 26-03-2020 03:00:17 0 C 23 %
164 26-03-2020 03:10:18 0.1 C 23 %
165 26-03-2020 03:20:18 0 C 23 %
166 26-03-2020 03:30:18 -0.3 C 25 %
167 26-03-2020 03:40:18 -0.3 C 27 %
168 26-03-2020 03:50:17 -0.4 C 27 %
169 26-03-2020 04:00:17 -0.1 C 26 %
170 26-03-2020 04:10:17 -0.3 C 25 %
171 26-03-2020 04:20:17 -0.3 C 26 %
172 26-03-2020 04:30:18 -0.4 C 26 %
173 26-03-2020 04:40:18 -0.4 C 26 %
174 26-03-2020 04:50:17 -0.5 C 26 %
175 26-03-2020 05:00:18 -0.5 C 27 %
Sensor: Nr:Datum:Temp:Feuchte:
Aussen-T/F 176 26-03-2020 05:10:18 -0.6 C 27 %
177 26-03-2020 05:20:17 -0.6 C 28 %
178 26-03-2020 05:30:17 -0.7 C 28 %
179 26-03-2020 05:40:18 -0.5 C 28 %
180 26-03-2020 05:50:17 -0.6 C 28 %
181 26-03-2020 06:00:18 -0.7 C 29 %
182 26-03-2020 06:10:18 -0.8 C 28 %
183 26-03-2020 06:20:18 -0.9 C 28 %
184 26-03-2020 06:30:18 -1 C 28 %
185 26-03-2020 06:40:18 -0.9 C 30 %
186 26-03-2020 06:50:18 -1.1 C 30 %
187 26-03-2020 07:00:18 -0.8 C 30 %
188 26-03-2020 07:10:18 -1.1 C 30 %
189 26-03-2020 07:20:18 -0.6 C 30 %
190 26-03-2020 07:30:18 -0.4 C 30 %
191 26-03-2020 07:40:18 0.2 C 27 %
192 26-03-2020 07:50:17 0.5 C 25 %
193 26-03-2020 08:00:18 0.3 C 28 %
194 26-03-2020 08:10:18 0.4 C 28 %
195 26-03-2020 08:20:18 0.7 C 26 %
196 26-03-2020 08:30:18 1.4 C 21 %
197 26-03-2020 08:40:18 1.7 C 21 %
198 26-03-2020 08:50:17 2.2 C 20 %
199 26-03-2020 09:00:18 2.3 C 20 %
200 26-03-2020 09:10:18 2.3 C 20 %
Sensor: Nr:Datum:Temp:Feuchte:
Aussen-T/F 201 26-03-2020 09:20:18 2.7 C 20 %
202 26-03-2020 09:30:18 3.2 C 20 %
203 26-03-2020 09:40:18 3.5 C 20 %
204 26-03-2020 09:50:18 4.1 C 20 %
205 26-03-2020 10:00:18 4.4 C 20 %
206 26-03-2020 10:10:18 4.9 C 20 %
207 26-03-2020 10:20:18 5 C 20 %
208 26-03-2020 10:30:18 5.4 C 20 %
209 26-03-2020 10:40:18 5.9 C 20 %
210 26-03-2020 10:50:17 6 C 20 %
211 26-03-2020 11:00:18 6.6 C 20 %
212 26-03-2020 11:10:18 6.9 C 20 %
213 26-03-2020 11:20:18 7.3 C 20 %
214 26-03-2020 11:30:18 8.5 C 20 %
215 26-03-2020 11:40:18 8.3 C 20 %
216 26-03-2020 11:50:18 7.3 C 20 %
217 26-03-2020 12:00:18 8 C 20 %
218 26-03-2020 12:10:18 9.1 C 20 %
219 26-03-2020 12:20:17 9.6 C 20 %
220 26-03-2020 12:30:17 9.6 C 20 %
221 26-03-2020 12:40:17 9.6 C 20 %
222 26-03-2020 12:50:17 9.7 C 20 %
223 26-03-2020 13:00:17 10.4 C 20 %
224 26-03-2020 13:10:17 10.8 C 20 %
225 26-03-2020 13:20:18 11.5 C 20 %
Sensor: Nr:Datum:Temp:Feuchte:
Aussen-T/F 226 26-03-2020 13:30:18 11.5 C 20 %
227 26-03-2020 13:40:18 12.1 C 20 %
228 26-03-2020 13:50:18 13 C 20 %
229 26-03-2020 14:00:18 12 C 20 %
230 26-03-2020 14:10:18 12.2 C 20 %
231 26-03-2020 14:20:18 11.9 C 20 %
232 26-03-2020 14:30:18 14.3 C 20 %
233 26-03-2020 14:40:18 14.2 C 20 %
234 26-03-2020 14:50:17 14 C 20 %
235 26-03-2020 15:00:17 15.3 C 20 %
236 26-03-2020 15:10:18 14.2 C 20 %
237 26-03-2020 15:20:18 14 C 20 %
238 26-03-2020 15:30:18 15.6 C 20 %
239 26-03-2020 15:40:18 15.6 C 20 %
240 26-03-2020 15:50:18 16.5 C 20 %
241 26-03-2020 16:00:18 15.6 C 20 %
242 26-03-2020 16:10:18 15.3 C 20 %
243 26-03-2020 16:20:18 12.5 C 20 %
244 26-03-2020 16:30:18 12.3 C 20 %
245 26-03-2020 16:40:18 13.9 C 20 %
246 26-03-2020 16:50:18 12.8 C 20 %
247 26-03-2020 17:00:18 11.4 C 20 %
248 26-03-2020 17:10:18 11 C 20 %
249 26-03-2020 17:20:17 10.9 C 20 %
250 26-03-2020 17:30:17 11 C 20 %
Sensor: Nr:Datum:Temp:Feuchte:
Aussen-T/F 251 26-03-2020 17:40:17 11.1 C 20 %
252 26-03-2020 17:50:17 10.7 C 20 %
253 26-03-2020 18:00:17 10.5 C 20 %
254 26-03-2020 18:10:17 10.3 C 20 %
255 26-03-2020 18:20:18 10.1 C 20 %
256 26-03-2020 18:30:18 9.8 C 20 %
257 26-03-2020 18:40:18 9.4 C 20 %
258 26-03-2020 18:50:17 8.6 C 20 %
259 26-03-2020 19:00:17 8 C 20 %
260 26-03-2020 19:10:17 7.4 C 20 %
261 26-03-2020 19:20:17 6.9 C 21 %
262 26-03-2020 19:30:17 6.7 C 21 %
263 26-03-2020 19:40:17 6.4 C 21 %
264 26-03-2020 19:50:17 6.5 C 21 %
265 26-03-2020 20:00:17 6.2 C 23 %
266 26-03-2020 20:10:18 6 C 23 %
267 26-03-2020 20:20:18 5.7 C 25 %
268 26-03-2020 20:30:17 5.4 C 26 %
269 26-03-2020 20:40:17 4.9 C 28 %
270 26-03-2020 20:50:17 4.9 C 28 %
271 26-03-2020 21:00:17 4.7 C 29 %
272 26-03-2020 21:10:17 4.5 C 29 %
273 26-03-2020 21:20:17 4.5 C 30 %
274 26-03-2020 21:30:18 4.1 C 30 %
275 26-03-2020 21:40:18 4.6 C 30 %
Sensor: Nr:Datum:Temp:Feuchte:
Aussen-T/F 276 26-03-2020 21:50:18 4.6 C 30 %
277 26-03-2020 22:00:18 4.6 C 30 %
278 26-03-2020 22:10:18 4.6 C 30 %
279 26-03-2020 22:20:17 4.5 C 30 %
280 26-03-2020 22:30:17 4.5 C 30 %
281 26-03-2020 22:40:17 4.5 C 30 %
282 26-03-2020 22:50:17 4.4 C 30 %
283 26-03-2020 23:00:18 4.5 C 30 %
284 26-03-2020 23:10:18 4.2 C 30 %
285 26-03-2020 23:20:17 4.2 C 30 %
286 26-03-2020 23:30:18 3.9 C 31 %
287 26-03-2020 23:40:18 4 C 30 %
288 26-03-2020 23:50:18 3.9 C 31 %
289 27-03-2020 00:00:18 4 C 30 %
290 27-03-2020 00:10:18 3.9 C 31 %
291 27-03-2020 00:20:17 4 C 30 %
292 27-03-2020 00:30:17 4 C 30 %
293 27-03-2020 00:40:17 3.7 C 32 %
294 27-03-2020 00:50:18 3.6 C 32 %
295 27-03-2020 01:00:18 2.7 C 35 %
296 27-03-2020 01:10:18 2.5 C 36 %
297 27-03-2020 01:20:17 3 C 35 %
298 27-03-2020 01:30:18 3.1 C 35 %
299 27-03-2020 01:40:18 2.7 C 36 %
300 27-03-2020 01:50:18 3 C 35 %
Sensor: Nr:Datum:Temp:Feuchte:
Aussen-T/F 301 27-03-2020 02:00:18 2.9 C 35 %
302 27-03-2020 02:10:18 2.8 C 35 %
303 27-03-2020 02:20:17 2.7 C 35 %
304 27-03-2020 02:30:17 2.5 C 36 %
305 27-03-2020 02:40:17 2.5 C 36 %
306 27-03-2020 02:50:17 2.6 C 35 %
307 27-03-2020 03:00:17 2.6 C 35 %
308 27-03-2020 03:10:17 2.2 C 36 %
309 27-03-2020 03:20:17 2.5 C 35 %
310 27-03-2020 03:30:17 2.4 C 35 %
311 27-03-2020 03:40:17 2.6 C 35 %
312 27-03-2020 03:50:17 2.4 C 36 %
313 27-03-2020 04:00:18 2.4 C 35 %
314 27-03-2020 04:10:18 2.4 C 35 %
315 27-03-2020 04:20:18 1.4 C 38 %
316 27-03-2020 04:30:18 1.3 C 38 %
317 27-03-2020 04:40:18 1.6 C 38 %
318 27-03-2020 04:50:17 1.8 C 37 %
319 27-03-2020 05:00:18 1.5 C 38 %
320 27-03-2020 05:10:18 0.7 C 40 %
321 27-03-2020 05:20:18 0.4 C 40 %
322 27-03-2020 05:30:18 0 C 41 %
323 27-03-2020 05:40:18 0 C 42 %
324 27-03-2020 05:50:18 -0.1 C 42 %
325 27-03-2020 06:00:18 -0.5 C 42 %
Sensor: Nr:Datum:Temp:Feuchte:
Aussen-T/F 326 27-03-2020 06:10:18 -0.6 C 43 %
327 27-03-2020 06:20:18 -0.4 C 43 %
328 27-03-2020 06:30:18 -0.4 C 43 %
329 27-03-2020 06:40:18 -0.3 C 43 %
330 27-03-2020 06:50:17 -0.3 C 43 %
331 27-03-2020 07:00:18 -0.2 C 43 %
332 27-03-2020 07:10:18 -0.1 C 43 %
333 27-03-2020 07:20:18 0.1 C 43 %
334 27-03-2020 07:30:18 0.3 C 43 %
335 27-03-2020 07:40:18 0.8 C 43 %
336 27-03-2020 07:50:17 1.2 C 41 %
337 27-03-2020 08:00:17 1.1 C 41 %
338 27-03-2020 08:10:18 1.9 C 40 %
339 27-03-2020 08:20:18 1.7 C 40 %
340 27-03-2020 08:30:18 1.6 C 41 %
341 27-03-2020 08:40:18 1.9 C 41 %
342 27-03-2020 08:50:17 2.6 C 39 %
343 27-03-2020 09:00:18 3 C 38 %
344 27-03-2020 09:10:18 3.3 C 37 %
345 27-03-2020 09:20:17 3.6 C 37 %
346 27-03-2020 09:30:18 4.1 C 36 %
347 27-03-2020 09:40:18 4.5 C 35 %
348 27-03-2020 09:50:18 5.3 C 35 %
349 27-03-2020 10:00:18 5.8 C 34 %
350 27-03-2020 10:10:18 6.5 C 32 %
Sensor: Nr:Datum:Temp:Feuchte:
Aussen-T/F 351 27-03-2020 10:20:17 7.6 C 30 %
352 27-03-2020 10:30:17 8.1 C 28 %
353 27-03-2020 10:40:17 9.1 C 25 %
354 27-03-2020 10:50:17 9.3 C 25 %
355 27-03-2020 11:00:17 10.2 C 20 %
356 27-03-2020 11:10:17 11 C 20 %
357 27-03-2020 11:20:17 12.4 C 20 %
358 27-03-2020 11:30:17 14.5 C 20 %
359 27-03-2020 11:40:17 14.2 C 20 %
360 27-03-2020 11:50:17 12.5 C 20 %
361 27-03-2020 12:00:17 13.4 C 20 %
362 27-03-2020 12:10:17 13.7 C 20 %
363 27-03-2020 12:20:17 14.4 C 20 %
364 27-03-2020 12:30:17 14.1 C 20 %
365 27-03-2020 12:40:18 14.2 C 20 %
366 27-03-2020 12:50:18 14.6 C 20 %
367 27-03-2020 13:00:18 16.6 C 20 %
368 27-03-2020 13:10:18 15.8 C 20 %
369 27-03-2020 13:20:17 17.6 C 20 %
370 27-03-2020 13:30:18 18.8 C 20 %
371 27-03-2020 13:40:18 16.8 C 20 %
372 27-03-2020 13:50:18 17.3 C 20 %
373 27-03-2020 14:00:18 16.9 C 20 %
374 27-03-2020 14:10:18 17.6 C 20 %
375 27-03-2020 14:20:18 17.7 C 20 %
Sensor: Nr:Datum:Temp:Feuchte:
Aussen-T/F 376 27-03-2020 14:30:17 20.4 C 20 %
377 27-03-2020 14:40:17 18.1 C 20 %
378 27-03-2020 14:50:17 18.4 C 20 %
379 27-03-2020 15:00:17 18.5 C 20 %
380 27-03-2020 15:10:17 18.7 C 20 %
381 27-03-2020 15:20:17 18.9 C 20 %
382 27-03-2020 15:30:18 19.4 C 20 %
383 27-03-2020 15:40:18 18.3 C 20 %
384 27-03-2020 15:50:17 19.5 C 20 %
385 27-03-2020 16:00:17 18.5 C 20 %
386 27-03-2020 16:10:17 18.2 C 20 %
387 27-03-2020 16:20:17 19.2 C 20 %
388 27-03-2020 16:30:17 18.3 C 20 %
389 27-03-2020 16:40:17 18 C 20 %
390 27-03-2020 16:50:17 17 C 20 %
391 27-03-2020 17:00:18 16.4 C 20 %
392 27-03-2020 17:10:18 16.3 C 20 %
393 27-03-2020 17:20:18 16.1 C 20 %
394 27-03-2020 17:30:18 16 C 20 %
395 27-03-2020 17:40:18 15.8 C 20 %
396 27-03-2020 17:50:18 15.7 C 20 %
397 27-03-2020 18:00:17 15.4 C 20 %
398 27-03-2020 18:10:17 15 C 20 %
399 27-03-2020 18:20:17 14.1 C 20 %
400 27-03-2020 18:30:18 13.5 C 20 %
Sensor: Nr:Datum:Temp:Feuchte:
Aussen-T/F 401 27-03-2020 18:40:18 12.9 C 20 %
402 27-03-2020 18:50:18 12.3 C 20 %
403 27-03-2020 19:00:18 11.8 C 20 %
404 27-03-2020 19:10:18 11.5 C 20 %
405 27-03-2020 19:20:17 11.4 C 20 %
406 27-03-2020 19:30:17 10.7 C 20 %
407 27-03-2020 19:40:17 10.7 C 21 %
408 27-03-2020 19:50:17 10.4 C 23 %
409 27-03-2020 20:00:18 10.4 C 22 %
410 27-03-2020 20:10:18 9.2 C 26 %
411 27-03-2020 20:20:17 8.9 C 28 %
412 27-03-2020 20:30:17 8.4 C 30 %
413 27-03-2020 20:40:17 8.1 C 30 %
414 27-03-2020 20:50:18 7.8 C 31 %
415 27-03-2020 21:00:17 7.4 C 31 %
416 27-03-2020 21:10:17 7.3 C 32 %
417 27-03-2020 21:20:17 7.1 C 32 %
418 27-03-2020 21:30:17 7 C 32 %
419 27-03-2020 21:40:17 6.6 C 33 %
420 27-03-2020 21:50:17 6.6 C 34 %
421 27-03-2020 22:00:17 6.4 C 34 %
422 27-03-2020 22:10:17 6.3 C 34 %
423 27-03-2020 22:20:17 6 C 35 %
424 27-03-2020 22:30:18 5.8 C 35 %
425 27-03-2020 22:40:18 5.6 C 35 %
Sensor: Nr:Datum:Temp:Feuchte:
Aussen-T/F 426 27-03-2020 22:50:18 5.5 C 36 %
427 27-03-2020 23:00:18 5.6 C 36 %
428 27-03-2020 23:10:18 5.6 C 36 %
429 27-03-2020 23:20:17 5.3 C 36 %
430 27-03-2020 23:30:17 5.2 C 36 %
431 27-03-2020 23:40:17 5.1 C 36 %
432 27-03-2020 23:50:17 4.8 C 37 %
433 28-03-2020 00:00:17 4.8 C 38 %
434 28-03-2020 00:10:17 4.8 C 39 %
435 28-03-2020 00:20:17 5 C 37 %
436 28-03-2020 00:30:18 4.9 C 38 %
437 28-03-2020 00:40:18 4.7 C 38 %
438 28-03-2020 00:50:17 4.7 C 38 %
439 28-03-2020 01:00:17 4.6 C 38 %
440 28-03-2020 01:10:17 4.4 C 39 %
441 28-03-2020 01:20:17 4.3 C 39 %
442 28-03-2020 01:30:17 4.1 C 39 %
443 28-03-2020 01:40:18 3.9 C 40 %
444 28-03-2020 01:50:17 3.7 C 41 %
445 28-03-2020 02:00:18 3.6 C 41 %
446 28-03-2020 02:10:18 3.3 C 41 %
447 28-03-2020 02:20:18 3.1 C 41 %
448 28-03-2020 02:30:17 3.7 C 42 %
449 28-03-2020 02:40:17 3.7 C 41 %
450 28-03-2020 02:50:18 3.4 C 41 %
Sensor: Nr:Datum:Temp:Feuchte:
Aussen-T/F 451 28-03-2020 03:00:18 3.1 C 41 %
452 28-03-2020 03:10:18 2.9 C 42 %
453 28-03-2020 03:20:17 2.8 C 43 %
454 28-03-2020 03:30:18 2.6 C 43 %
455 28-03-2020 03:40:18 2.1 C 43 %
456 28-03-2020 03:50:17 2.1 C 44 %
457 28-03-2020 04:00:18 2.2 C 44 %
458 28-03-2020 04:10:18 2.1 C 44 %
459 28-03-2020 04:20:18 1.9 C 45 %
460 28-03-2020 04:30:18 1.7 C 45 %
461 28-03-2020 04:40:18 1.8 C 46 %
462 28-03-2020 04:50:17 1.8 C 46 %
463 28-03-2020 05:00:18 1.7 C 45 %
464 28-03-2020 05:10:18 1.6 C 45 %
465 28-03-2020 05:20:17 1.5 C 45 %
466 28-03-2020 05:30:18 1.3 C 46 %
467 28-03-2020 05:40:18 1.2 C 46 %
468 28-03-2020 05:50:18 1.2 C 46 %
469 28-03-2020 06:00:18 1.2 C 46 %
470 28-03-2020 06:10:18 1.3 C 46 %
471 28-03-2020 06:20:17 1.1 C 46 %
472 28-03-2020 06:30:17 1.1 C 46 %
473 28-03-2020 06:40:17 1 C 46 %
474 28-03-2020 06:50:17 1.2 C 47 %
475 28-03-2020 07:00:17 1.5 C 47 %
Sensor: Nr:Datum:Temp:Feuchte:
Aussen-T/F 476 28-03-2020 07:10:17 1.7 C 47 %
477 28-03-2020 07:20:17 1.9 C 47 %
478 28-03-2020 07:30:18 1.9 C 46 %
479 28-03-2020 07:40:18 1.9 C 46 %
480 28-03-2020 07:50:17 2 C 45 %
481 28-03-2020 08:00:17 2.2 C 45 %
482 28-03-2020 08:10:18 2.5 C 45 %
483 28-03-2020 08:20:18 2.8 C 46 %
484 28-03-2020 08:30:17 3.2 C 45 %
485 28-03-2020 08:40:17 3.7 C 44 %
486 28-03-2020 08:50:18 4 C 43 %
487 28-03-2020 09:00:18 4.6 C 43 %
488 28-03-2020 09:10:18 5.1 C 41 %
489 28-03-2020 09:20:17 5.7 C 41 %
490 28-03-2020 09:30:18 6.3 C 40 %
491 28-03-2020 09:40:18 6.9 C 40 %
492 28-03-2020 09:50:18 7.8 C 38 %
493 28-03-2020 10:00:18 8.4 C 37 %
494 28-03-2020 10:10:18 9.5 C 35 %
495 28-03-2020 10:20:17 10.2 C 32 %
496 28-03-2020 10:30:17 10.9 C 31 %
497 28-03-2020 10:40:17 11.6 C 30 %
498 28-03-2020 10:50:18 12.2 C 29 %
499 28-03-2020 11:00:18 13.4 C 26 %
500 28-03-2020 11:10:18 13.6 C 25 %
Sensor: Nr:Datum:Temp:Feuchte:
Aussen-T/F 501 28-03-2020 11:20:17 15.8 C 20 %
502 28-03-2020 11:30:17 16.7 C 20 %
503 28-03-2020 11:40:17 16.4 C 20 %
504 28-03-2020 11:50:18 15.9 C 20 %
505 28-03-2020 12:00:17 16.6 C 20 %
506 28-03-2020 12:10:17 17 C 20 %
507 28-03-2020 12:20:17 17.7 C 20 %
508 28-03-2020 12:30:17 17.8 C 20 %
509 28-03-2020 12:40:17 18.1 C 20 %
510 28-03-2020 12:50:18 18 C 20 %
511 28-03-2020 13:00:18 18.6 C 20 %
512 28-03-2020 13:10:18 19.6 C 20 %
513 28-03-2020 13:20:18 21.7 C 20 %
514 28-03-2020 13:30:17 21.1 C 20 %
515 28-03-2020 13:40:17 20.7 C 20 %
516 28-03-2020 13:50:18 20.6 C 20 %
517 28-03-2020 14:00:17 21.1 C 20 %
518 28-03-2020 14:10:17 21.3 C 20 %
519 28-03-2020 14:20:17 21.9 C 20 %
520 28-03-2020 14:30:17 23.7 C 20 %
521 28-03-2020 14:40:17 24.3 C 20 %
522 28-03-2020 14:50:17 23.2 C 20 %
523 28-03-2020 15:00:18 22.4 C 20 %
524 28-03-2020 15:10:18 19.9 C 20 %
525 28-03-2020 15:20:18 18.6 C 20 %
Sensor: Nr:Datum:Temp:Feuchte:
Aussen-T/F 526 28-03-2020 15:30:18 19.6 C 20 %
527 28-03-2020 15:40:18 22.1 C 20 %
528 28-03-2020 15:50:18 20.5 C 20 %
529 28-03-2020 16:00:18 21.1 C 20 %
530 28-03-2020 16:10:18 21.1 C 20 %
531 28-03-2020 16:20:18 19.9 C 20 %
532 28-03-2020 16:30:18 19.6 C 20 %
533 28-03-2020 16:40:18 19.6 C 20 %
534 28-03-2020 16:50:18 18.5 C 20 %
535 28-03-2020 17:00:18 17.9 C 20 %
536 28-03-2020 17:10:18 17 C 20 %
537 28-03-2020 17:20:18 16.6 C 20 %
538 28-03-2020 17:30:18 16.2 C 20 %
539 28-03-2020 17:40:18 16.2 C 20 %
540 28-03-2020 17:50:17 15.4 C 20 %
541 28-03-2020 18:00:18 14.9 C 20 %
542 28-03-2020 18:10:18 14.6 C 20 %
543 28-03-2020 18:20:17 14 C 20 %
544 28-03-2020 18:30:17 13.5 C 20 %
545 28-03-2020 18:40:17 13.1 C 20 %
546 28-03-2020 18:50:18 12.6 C 20 %
547 28-03-2020 19:00:18 12.3 C 20 %
548 28-03-2020 19:10:18 11.7 C 20 %
549 28-03-2020 19:20:18 11.7 C 20 %
550 28-03-2020 19:30:18 11.4 C 20 %
Sensor: Nr:Datum:Temp:Feuchte:
Aussen-T/F 551 28-03-2020 19:40:18 11.2 C 20 %
552 28-03-2020 19:50:17 10.8 C 20 %
553 28-03-2020 20:00:18 10.3 C 20 %
554 28-03-2020 20:10:18 10.7 C 20 %
555 28-03-2020 20:20:17 10.5 C 20 %
556 28-03-2020 20:30:18 10 C 20 %
557 28-03-2020 20:40:18 9.2 C 20 %
558 28-03-2020 20:50:17 8.7 C 20 %
559 28-03-2020 21:00:17 8.8 C 20 %
560 28-03-2020 21:10:17 9.2 C 20 %
561 28-03-2020 21:20:17 8.7 C 23 %
562 28-03-2020 21:30:17 8.1 C 25 %
563 28-03-2020 21:40:17 8.4 C 23 %
564 28-03-2020 21:50:17 7.6 C 25 %
565 28-03-2020 22:00:17 8.3 C 25 %
566 28-03-2020 22:10:17 8.5 C 21 %
567 28-03-2020 22:20:17 8.4 C 25 %
568 28-03-2020 22:30:17 8.3 C 26 %
569 28-03-2020 22:40:17 7.9 C 26 %
570 28-03-2020 22:50:17 7.4 C 28 %
571 28-03-2020 23:00:17 7.3 C 30 %
572 28-03-2020 23:10:17 7.2 C 30 %
573 28-03-2020 23:20:18 7.1 C 30 %
574 28-03-2020 23:30:18 7.1 C 31 %
575 28-03-2020 23:40:18 6.8 C 32 %
Sensor: Nr:Datum:Temp:Feuchte:
Aussen-T/F 576 28-03-2020 23:50:17 6.7 C 33 %
577 29-03-2020 00:00:18 6.5 C 33 %
578 29-03-2020 00:10:18 6.4 C 33 %
579 29-03-2020 00:20:17 6.2 C 33 %
580 29-03-2020 00:30:17 6.5 C 33 %
581 29-03-2020 00:40:17 6.6 C 33 %
582 29-03-2020 00:50:18 6.5 C 32 %
583 29-03-2020 01:00:18 6.3 C 32 %
584 29-03-2020 01:10:18 6.3 C 32 %
585 29-03-2020 01:20:17 6.2 C 32 %
586 29-03-2020 01:30:17 6.1 C 32 %
587 29-03-2020 01:40:17 6 C 31 %
588 29-03-2020 01:50:17 6 C 31 %
589 29-03-2020 02:00:17 5.8 C 31 %
590 29-03-2020 02:10:17 5.7 C 31 %
591 29-03-2020 02:20:18 5.4 C 31 %
592 29-03-2020 02:30:18 5 C 31 %
593 29-03-2020 02:40:18 4.7 C 32 %
594 29-03-2020 02:50:18 4.7 C 32 %
595 29-03-2020 04:00:18 4.6 C 31 %
596 29-03-2020 04:10:18 4.2 C 32 %
597 29-03-2020 04:20:17 4.1 C 31 %
598 29-03-2020 04:30:17 4.3 C 31 %
599 29-03-2020 04:40:17 4.4 C 31 %
600 29-03-2020 04:50:18 4.3 C 31 %
Sensor: Nr:Datum:Temp:Feuchte:
Aussen-T/F 601 29-03-2020 05:00:17 4.4 C 32 %
602 29-03-2020 05:10:17 4.3 C 32 %
603 29-03-2020 05:20:17 4.2 C 31 %
604 29-03-2020 05:30:17 4 C 31 %
605 29-03-2020 05:40:17 3.8 C 32 %
606 29-03-2020 05:50:18 3.5 C 32 %
607 29-03-2020 06:00:18 3.1 C 32 %
608 29-03-2020 06:10:18 2.8 C 33 %
609 29-03-2020 06:20:17 2.5 C 33 %
610 29-03-2020 06:30:18 2.9 C 33 %
611 29-03-2020 06:40:18 3.2 C 32 %
612 29-03-2020 06:50:17 3.3 C 33 %
613 29-03-2020 07:00:18 3.4 C 33 %
614 29-03-2020 07:10:18 3.5 C 34 %
615 29-03-2020 07:20:17 3.5 C 35 %
616 29-03-2020 07:30:17 3.6 C 35 %
617 29-03-2020 07:40:17 3.7 C 35 %
618 29-03-2020 07:50:17 3.7 C 35 %
619 29-03-2020 08:00:18 3.8 C 35 %
620 29-03-2020 08:10:18 3.8 C 35 %
621 29-03-2020 08:20:17 4.1 C 33 %
622 29-03-2020 08:30:17 4.1 C 33 %
623 29-03-2020 08:40:17 4.3 C 33 %
624 29-03-2020 08:50:17 4 C 33 %
625 29-03-2020 09:00:17 4.3 C 33 %
Sensor: Nr:Datum:Temp:Feuchte:
Aussen-T/F 626 29-03-2020 09:10:17 4.2 C 32 %
627 29-03-2020 09:20:17 4.1 C 33 %
628 29-03-2020 09:30:17 4.2 C 33 %
629 29-03-2020 09:40:17 4.5 C 32 %
630 29-03-2020 09:50:17 4.8 C 32 %
631 29-03-2020 10:00:17 5 C 31 %
632 29-03-2020 10:10:17 5.3 C 31 %
633 29-03-2020 10:20:17 5.8 C 30 %
634 29-03-2020 10:30:18 5.6 C 30 %
635 29-03-2020 10:40:18 6.2 C 30 %
636 29-03-2020 10:50:17 6.2 C 28 %
637 29-03-2020 11:00:18 6.5 C 25 %
638 29-03-2020 11:10:18 6.5 C 25 %
639 29-03-2020 11:20:18 6 C 25 %
640 29-03-2020 11:30:18 6.1 C 25 %
641 29-03-2020 11:40:18 6.2 C 25 %
642 29-03-2020 11:50:17 6.3 C 25 %
643 29-03-2020 12:00:17 6.2 C 25 %
644 29-03-2020 12:10:17 5.6 C 27 %
645 29-03-2020 12:20:17 5.5 C 27 %
646 29-03-2020 12:30:17 5.7 C 27 %
647 29-03-2020 12:40:17 5.8 C 26 %
648 29-03-2020 12:50:18 6.4 C 26 %
649 29-03-2020 13:00:18 6.3 C 25 %
650 29-03-2020 13:10:18 6.1 C 25 %
Sensor: Nr:Datum:Temp:Feuchte:
Aussen-T/F 651 29-03-2020 13:20:17 6.6 C 23 %
652 29-03-2020 13:30:17 6.8 C 20 %
653 29-03-2020 13:40:18 8.1 C 20 %
654 29-03-2020 13:50:17 8.4 C 20 %
655 29-03-2020 14:00:18 7.6 C 20 %
656 29-03-2020 14:10:18 7.5 C 20 %
657 29-03-2020 14:20:17 7 C 20 %
658 29-03-2020 14:30:17 6.7 C 20 %
659 29-03-2020 14:40:17 6.5 C 20 %
660 29-03-2020 14:50:17 6.7 C 20 %
661 29-03-2020 15:00:17 7.2 C 20 %
662 29-03-2020 15:10:17 7.4 C 20 %
663 29-03-2020 15:20:17 7.4 C 20 %
664 29-03-2020 15:30:18 7.6 C 20 %
665 29-03-2020 15:40:18 7.6 C 20 %
666 29-03-2020 15:50:17 8 C 20 %
667 29-03-2020 16:00:18 7.4 C 20 %
668 29-03-2020 16:10:18 7 C 20 %
669 29-03-2020 16:20:17 6.7 C 20 %
670 29-03-2020 16:30:18 6.5 C 20 %
671 29-03-2020 16:40:18 6.6 C 20 %
672 29-03-2020 16:50:18 6.8 C 20 %
673 29-03-2020 17:00:18 7 C 20 %
674 29-03-2020 17:10:18 6.8 C 20 %
675 29-03-2020 17:20:17 7.4 C 20 %
Sensor: Nr:Datum:Temp:Feuchte:
Aussen-T/F 676 29-03-2020 17:30:17 7 C 20 %
677 29-03-2020 17:40:17 7 C 20 %
678 29-03-2020 17:50:18 6.8 C 25 %
679 29-03-2020 18:00:18 7.1 C 23 %
680 29-03-2020 18:10:18 6.5 C 25 %
681 29-03-2020 18:20:18 6.2 C 25 %
682 29-03-2020 18:30:18 5.3 C 29 %
683 29-03-2020 18:40:18 4.4 C 35 %
684 29-03-2020 18:50:18 4.1 C 36 %
685 29-03-2020 19:00:18 4 C 36 %
686 29-03-2020 19:10:18 3.6 C 39 %
687 29-03-2020 19:20:17 3.6 C 40 %
688 29-03-2020 19:30:17 3.4 C 40 %
689 29-03-2020 19:40:17 3.2 C 41 %
690 29-03-2020 19:50:17 3.1 C 41 %
691 29-03-2020 20:00:17 3 C 41 %
692 29-03-2020 20:10:17 3 C 41 %
693 29-03-2020 20:20:18 2.9 C 42 %
694 29-03-2020 20:30:18 3 C 41 %
695 29-03-2020 20:40:18 3.3 C 40 %
696 29-03-2020 20:50:18 3.5 C 40 %
697 29-03-2020 21:00:18 3.6 C 39 %
698 29-03-2020 21:10:18 3.7 C 39 %
699 29-03-2020 21:20:18 3.7 C 38 %
700 29-03-2020 21:30:17 3.7 C 37 %
Sensor: Nr:Datum:Temp:Feuchte:
Aussen-T/F 701 29-03-2020 21:40:17 3.8 C 37 %
702 29-03-2020 21:50:17 3.8 C 37 %
703 29-03-2020 22:00:17 3.7 C 37 %
704 29-03-2020 22:10:17 3.7 C 36 %
705 29-03-2020 22:20:18 3.7 C 36 %
706 29-03-2020 22:30:18 3.6 C 36 %
707 29-03-2020 22:40:18 3.6 C 36 %
708 29-03-2020 22:50:18 3.6 C 35 %
709 29-03-2020 23:00:18 3.6 C 35 %
710 29-03-2020 23:10:18 3.5 C 35 %
711 29-03-2020 23:20:17 3.4 C 34 %
712 29-03-2020 23:30:17 3.3 C 33 %
713 29-03-2020 23:40:17 3.1 C 33 %
714 29-03-2020 23:50:17 2.9 C 33 %
715 30-03-2020 00:00:18 2.5 C 34 %
716 30-03-2020 00:10:18 2.4 C 33 %
717 30-03-2020 00:20:17 2.4 C 33 %
718 30-03-2020 00:30:17 1.7 C 35 %
719 30-03-2020 00:40:17 1 C 36 %
720 30-03-2020 00:50:17 0.3 C 38 %
721 30-03-2020 01:00:18 0.2 C 38 %
722 30-03-2020 01:10:18 0.3 C 38 %
723 30-03-2020 01:20:17 0.3 C 37 %
724 30-03-2020 01:30:18 0.5 C 36 %
725 30-03-2020 01:40:18 -0.1 C 37 %
Sensor: Nr:Datum:Temp:Feuchte:
Aussen-T/F 726 30-03-2020 01:50:17 -0.3 C 37 %
727 30-03-2020 02:00:17 -0.8 C 38 %
728 30-03-2020 02:10:17 -0.9 C 38 %
729 30-03-2020 02:20:17 -1.5 C 39 %
730 30-03-2020 02:30:18 -1.7 C 39 %
731 30-03-2020 02:40:18 -1.6 C 40 %
732 30-03-2020 02:50:17 -1.6 C 39 %
733 30-03-2020 03:00:18 -1.7 C 39 %
734 30-03-2020 03:10:18 -1.3 C 38 %
735 30-03-2020 03:20:18 -1.7 C 39 %
736 30-03-2020 03:30:18 -2.2 C 40 %
737 30-03-2020 03:40:18 -2.1 C 40 %
738 30-03-2020 03:50:17 -2.1 C 40 %
739 30-03-2020 04:00:18 -1.9 C 39 %
740 30-03-2020 04:10:18 -2.2 C 39 %
741 30-03-2020 04:20:17 -2 C 39 %
742 30-03-2020 04:30:17 -2.4 C 39 %
743 30-03-2020 04:40:17 -2.6 C 39 %
744 30-03-2020 04:50:17 -2.4 C 39 %
745 30-03-2020 05:00:17 -2.4 C 38 %
746 30-03-2020 05:10:17 -2.5 C 38 %
747 30-03-2020 05:20:17 -2.7 C 38 %
748 30-03-2020 05:30:18 -3 C 39 %
749 30-03-2020 05:40:18 -3 C 38 %
750 30-03-2020 05:50:17 -3 C 38 %
Sensor: Nr:Datum:Temp:Feuchte:
Aussen-T/F 751 30-03-2020 06:00:18 -3 C 38 %
752 30-03-2020 06:10:18 -3.4 C 38 %
753 30-03-2020 06:20:17 -3.7 C 39 %
754 30-03-2020 06:30:17 -3.9 C 40 %
755 30-03-2020 06:40:17 -4.1 C 40 %
756 30-03-2020 06:50:17 -3.3 C 39 %
757 30-03-2020 07:00:17 -3.7 C 40 %
758 30-03-2020 07:10:17 -3.2 C 39 %
759 30-03-2020 07:20:17 -3.8 C 39 %
760 30-03-2020 07:30:18 -4.3 C 40 %
761 30-03-2020 07:40:18 -4.5 C 40 %
762 30-03-2020 07:50:17 -4.5 C 40 %
763 30-03-2020 08:00:18 -3.8 C 40 %
764 30-03-2020 08:10:18 -3.9 C 40 %
765 30-03-2020 08:20:18 -4.1 C 40 %
766 30-03-2020 08:30:18 -3.7 C 39 %
767 30-03-2020 08:40:18 -3.3 C 39 %
768 30-03-2020 08:50:17 -3.2 C 38 %
769 30-03-2020 09:00:18 -3.1 C 38 %
770 30-03-2020 09:10:18 -2.7 C 37 %
771 30-03-2020 09:20:18 -2.6 C 37 %
772 30-03-2020 09:30:18 -2.5 C 37 %
773 30-03-2020 09:40:18 -2.1 C 37 %
774 30-03-2020 09:50:18 -2.1 C 37 %
775 30-03-2020 10:00:18 -1.6 C 36 %
Sensor: Nr:Datum:Temp:Feuchte:
Aussen-T/F 776 30-03-2020 10:10:18 -1.7 C 37 %
777 30-03-2020 10:20:17 -1.5 C 37 %
778 30-03-2020 10:30:17 -1.3 C 36 %
779 30-03-2020 10:40:17 0.1 C 31 %
780 30-03-2020 10:50:17 1 C 21 %
781 30-03-2020 11:00:17 1.1 C 23 %
782 30-03-2020 11:10:18 2 C 20 %
783 30-03-2020 11:20:18 2.4 C 20 %
784 30-03-2020 11:30:18 2.8 C 20 %
785 30-03-2020 11:40:18 2.9 C 20 %
786 30-03-2020 11:50:18 3.2 C 20 %
787 30-03-2020 12:00:18 3.7 C 20 %
788 30-03-2020 12:10:18 4 C 20 %
789 30-03-2020 12:20:18 6.4 C 20 %
790 30-03-2020 12:30:18 7.6 C 20 %
791 30-03-2020 12:40:18 6.3 C 20 %
792 30-03-2020 12:50:18 5.1 C 20 %
793 30-03-2020 13:00:18 6.6 C 20 %
794 30-03-2020 13:10:18 6.5 C 20 %
795 30-03-2020 13:20:18 5.6 C 20 %
796 30-03-2020 13:30:17 5.9 C 20 %
797 30-03-2020 13:40:17 7 C 20 %
798 30-03-2020 13:50:17 6.4 C 20 %
799 30-03-2020 14:00:17 7.1 C 20 %
800 30-03-2020 14:10:17 8.4 C 20 %
Sensor: Nr:Datum:Temp:Feuchte:
Aussen-T/F 801 30-03-2020 14:20:18 8.9 C 20 %
802 30-03-2020 14:30:18 9.5 C 20 %
803 30-03-2020 14:40:18 9.7 C 20 %
804 30-03-2020 14:50:18 10.8 C 20 %
805 30-03-2020 15:00:18 11.3 C 20 %
806 30-03-2020 15:10:18 11.7 C 20 %
807 30-03-2020 15:20:17 11.6 C 20 %
808 30-03-2020 15:30:18 13.5 C 20 %
809 30-03-2020 15:40:18 13.6 C 20 %
810 30-03-2020 15:50:18 11.9 C 20 %
811 30-03-2020 16:00:18 12.9 C 20 %
812 30-03-2020 16:10:18 13.6 C 20 %
813 30-03-2020 16:20:17 15.2 C 20 %
814 30-03-2020 16:30:18 9.9 C 20 %
815 30-03-2020 16:40:18 13.9 C 20 %
816 30-03-2020 16:50:18 13.6 C 20 %
817 30-03-2020 17:00:17 10.1 C 20 %
818 30-03-2020 17:10:17 13.4 C 20 %
819 30-03-2020 17:20:18 12.5 C 20 %
820 30-03-2020 17:30:18 12.6 C 20 %
821 30-03-2020 17:40:18 11.6 C 20 %
822 30-03-2020 17:50:18 10.2 C 20 %
823 30-03-2020 18:00:18 8.7 C 20 %
824 30-03-2020 18:10:18 7.6 C 20 %
825 30-03-2020 18:20:18 7.9 C 20 %
Sensor: Nr:Datum:Temp:Feuchte:
Aussen-T/F 826 30-03-2020 18:30:18 8.2 C 20 %
827 30-03-2020 18:40:18 7.7 C 20 %
828 30-03-2020 18:50:18 7.8 C 20 %
829 30-03-2020 19:00:18 7.3 C 20 %
830 30-03-2020 19:10:18 7.1 C 20 %
831 30-03-2020 19:20:17 6.5 C 20 %
832 30-03-2020 19:30:18 6.3 C 20 %
833 30-03-2020 19:40:18 5.8 C 20 %
834 30-03-2020 19:50:17 5 C 20 %
835 30-03-2020 20:00:18 3.8 C 27 %
836 30-03-2020 20:10:18 3 C 30 %
837 30-03-2020 20:20:17 2.8 C 30 %
838 30-03-2020 20:30:18 3.3 C 31 %
839 30-03-2020 20:40:18 3.2 C 30 %
840 30-03-2020 20:50:18 3.3 C 31 %
841 30-03-2020 21:00:18 4 C 29 %
842 30-03-2020 21:10:18 4.1 C 29 %
843 30-03-2020 21:20:18 4.2 C 30 %
844 30-03-2020 21:30:18 4.3 C 30 %
845 30-03-2020 21:40:18 4.2 C 30 %
846 30-03-2020 21:50:18 4.1 C 30 %
847 30-03-2020 22:00:18 3.7 C 32 %
848 30-03-2020 22:10:18 3.7 C 33 %
849 30-03-2020 22:20:17 3.9 C 32 %
850 30-03-2020 22:30:18 4 C 31 %
Sensor: Nr:Datum:Temp:Feuchte:
Aussen-T/F 851 30-03-2020 22:40:18 4.1 C 31 %
852 30-03-2020 22:50:18 4.2 C 31 %
853 30-03-2020 23:00:18 4.1 C 31 %
854 30-03-2020 23:10:18 4.2 C 30 %
855 30-03-2020 23:20:18 4.2 C 31 %
856 30-03-2020 23:30:18 4.1 C 31 %
857 30-03-2020 23:40:18 4.2 C 31 %
858 30-03-2020 23:50:17 4.2 C 31 %
859 31-03-2020 00:00:18 4.3 C 30 %
860 31-03-2020 00:10:18 4.3 C 30 %
861 31-03-2020 00:20:18 4.2 C 31 %
862 31-03-2020 00:30:18 4.2 C 31 %
863 31-03-2020 00:40:18 4.2 C 31 %
864 31-03-2020 00:50:18 4.3 C 31 %
865 31-03-2020 01:00:18 4.4 C 32 %
866 31-03-2020 01:10:18 4 C 34 %
867 31-03-2020 01:20:18 3.8 C 36 %
868 31-03-2020 01:30:18 3.8 C 36 %
869 31-03-2020 01:40:18 3.7 C 37 %
870 31-03-2020 01:50:18 4 C 37 %
871 31-03-2020 02:00:18 3.9 C 38 %
872 31-03-2020 02:10:18 3.4 C 39 %
873 31-03-2020 02:20:17 3.5 C 39 %
874 31-03-2020 02:30:18 3.7 C 39 %
875 31-03-2020 02:40:18 3.3 C 40 %
Sensor: Nr:Datum:Temp:Feuchte:
Aussen-T/F 876 31-03-2020 02:50:18 2.8 C 41 %
877 31-03-2020 03:00:18 2.5 C 41 %
878 31-03-2020 03:10:18 2.2 C 42 %
879 31-03-2020 03:20:17 2.4 C 42 %
880 31-03-2020 03:30:18 2.3 C 42 %
881 31-03-2020 03:40:18 2.3 C 43 %
882 31-03-2020 03:50:18 2.7 C 43 %
883 31-03-2020 04:00:18 2.9 C 42 %
884 31-03-2020 04:10:18 3 C 42 %
885 31-03-2020 04:20:18 3.1 C 42 %
886 31-03-2020 04:30:17 3.2 C 42 %
887 31-03-2020 04:40:18 3.2 C 41 %
888 31-03-2020 04:50:17 3.5 C 41 %
889 31-03-2020 05:00:18 3.4 C 41 %
890 31-03-2020 05:10:18 3 C 41 %
891 31-03-2020 05:20:17 2.8 C 43 %
892 31-03-2020 05:30:18 2.5 C 43 %
893 31-03-2020 05:40:18 2.3 C 43 %
894 31-03-2020 05:50:18 1.9 C 44 %
895 31-03-2020 06:00:18 1.7 C 44 %
896 31-03-2020 06:10:18 1.6 C 45 %
897 31-03-2020 06:20:18 1.5 C 45 %
898 31-03-2020 06:30:18 1.7 C 45 %
899 31-03-2020 06:40:18 2 C 45 %
900 31-03-2020 06:50:18 2.1 C 45 %
Sensor: Nr:Datum:Temp:Feuchte:
Aussen-T/F 901 31-03-2020 07:00:18 2.2 C 45 %
902 31-03-2020 07:10:18 2.3 C 45 %
903 31-03-2020 07:20:18 2.2 C 44 %
904 31-03-2020 07:30:18 2.1 C 44 %
905 31-03-2020 07:40:18 1.7 C 45 %
906 31-03-2020 07:50:17 2 C 45 %
907 31-03-2020 08:00:18 2.5 C 45 %
908 31-03-2020 08:10:18 3.1 C 43 %
909 31-03-2020 08:20:18 3.3 C 42 %
910 31-03-2020 08:30:18 3.5 C 41 %
911 31-03-2020 08:40:18 3.7 C 40 %
912 31-03-2020 08:50:17 4 C 38 %
913 31-03-2020 09:00:18 3.9 C 38 %
914 31-03-2020 09:10:18 3.9 C 37 %
915 31-03-2020 09:20:18 4 C 36 %
916 31-03-2020 09:30:17 4 C 36 %
917 31-03-2020 09:40:17 4.1 C 35 %
918 31-03-2020 09:50:18 4.3 C 35 %
919 31-03-2020 10:00:18 4.8 C 34 %
920 31-03-2020 10:10:18 4.7 C 34 %
921 31-03-2020 10:20:18 4.5 C 34 %
922 31-03-2020 10:30:18 4.4 C 34 %
923 31-03-2020 10:40:18 4.3 C 34 %
924 31-03-2020 10:50:17 4.3 C 33 %
925 31-03-2020 11:00:17 4.3 C 33 %
Sensor: Nr:Datum:Temp:Feuchte:
Aussen-T/F 926 31-03-2020 11:10:17 4.4 C 32 %
927 31-03-2020 11:20:18 4.7 C 31 %
928 31-03-2020 11:30:18 5.4 C 30 %
929 31-03-2020 11:40:18 5.3 C 30 %
930 31-03-2020 11:50:17 5.3 C 29 %
931 31-03-2020 12:00:18 5.6 C 27 %
932 31-03-2020 12:10:18 6.3 C 25 %
933 31-03-2020 12:20:17 6.4 C 20 %
934 31-03-2020 12:30:18 9.2 C 20 %
935 31-03-2020 12:40:18 8.4 C 20 %
936 31-03-2020 12:50:18 7 C 20 %
937 31-03-2020 13:00:17 7.5 C 20 %
938 31-03-2020 13:10:17 7.1 C 20 %
939 31-03-2020 13:20:17 7.3 C 20 %
940 31-03-2020 13:30:17 7 C 20 %
941 31-03-2020 13:40:17 8.1 C 20 %
942 31-03-2020 13:51:17 8.4 C 20 %
943 31-03-2020 14:00:17 8.5 C 20 %
944 31-03-2020 14:10:17 9.7 C 20 %
945 31-03-2020 14:20:17 11.2 C 20 %
946 31-03-2020 14:30:17 12.6 C 20 %
947 31-03-2020 14:40:17 11.7 C 20 %
948 31-03-2020 14:51:17 12 C 20 %
949 31-03-2020 15:00:17 12 C 20 %
950 31-03-2020 15:10:18 13.1 C 20 %
Sensor: Nr:Datum:Temp:Feuchte:
Aussen-T/F 951 31-03-2020 15:20:17 13.2 C 20 %
952 31-03-2020 15:30:17 13.5 C 20 %
953 31-03-2020 15:40:17 14.6 C 20 %
954 31-03-2020 15:50:18 13.9 C 20 %
955 31-03-2020 16:00:17 16.8 C 20 %
956 31-03-2020 16:10:17 14.8 C 20 %
957 31-03-2020 16:20:17 15.8 C 20 %
958 31-03-2020 16:31:17 15.1 C 20 %
959 31-03-2020 16:40:17 14 C 20 %
960 31-03-2020 16:50:17 13.3 C 20 %
961 31-03-2020 17:00:17 14.4 C 20 %
962 31-03-2020 17:10:17 16.2 C 20 %
963 31-03-2020 17:21:17 15.3 C 20 %
964 31-03-2020 17:31:17 14.7 C 20 %
965 31-03-2020 17:40:17 15.5 C 20 %
966 31-03-2020 17:51:17 10.6 C 20 %
967 31-03-2020 18:01:17 10.5 C 20 %
968 31-03-2020 18:11:17 10.2 C 20 %
969 31-03-2020 18:21:17 9.8 C 20 %
970 31-03-2020 18:31:17 9.6 C 20 %
971 31-03-2020 18:40:17 9.4 C 20 %
972 31-03-2020 18:51:17 9.1 C 20 %
973 31-03-2020 19:00:17 9.1 C 20 %
974 31-03-2020 19:10:17 8.8 C 20 %
975 31-03-2020 19:20:17 8.7 C 20 %
Sensor: Nr:Datum:Temp:Feuchte:
Aussen-T/F 976 31-03-2020 19:31:17 8.2 C 20 %
977 31-03-2020 19:41:17 7.7 C 20 %
978 31-03-2020 19:50:17 6.6 C 20 %
979 31-03-2020 20:01:17 5.6 C 20 %
980 31-03-2020 20:11:17 5.5 C 20 %
981 31-03-2020 20:21:17 5.3 C 20 %
982 31-03-2020 20:31:17 4.7 C 20 %
983 31-03-2020 20:41:17 4.4 C 20 %
984 31-03-2020 20:51:17 4 C 20 %
985 31-03-2020 21:00:17 3.7 C 20 %
986 31-03-2020 21:10:18 3.9 C 20 %
987 31-03-2020 21:21:17 3.7 C 20 %
988 31-03-2020 21:31:17 3.5 C 20 %
989 31-03-2020 21:41:17 3.2 C 23 %
990 31-03-2020 21:51:17 3.2 C 23 %
991 31-03-2020 22:00:18 3 C 23 %
992 31-03-2020 22:10:18 2.7 C 25 %
993 31-03-2020 22:21:17 2.7 C 25 %
994 31-03-2020 22:31:17 2.6 C 25 %
995 31-03-2020 22:41:17 1.8 C 30 %
996 31-03-2020 22:50:18 1.6 C 30 %
997 31-03-2020 23:01:17 1.6 C 30 %
998 31-03-2020 23:11:17 1.7 C 30 %
999 31-03-2020 23:21:17 1.4 C 31 %
1000 31-03-2020 23:30:17 1.3 C 31 %
Sensor: Nr:Datum:Temp:Feuchte:
Aussen-T/F 1001 31-03-2020 23:40:18 1.6 C 31 %
1002 31-03-2020 23:51:17 0.9 C 32 %
1003 01-04-2020 00:01:17 1.2 C 31 %
1004 01-04-2020 00:11:17 0 C 35 %
1005 01-04-2020 00:21:17 0.8 C 33 %
1006 01-04-2020 00:31:17 0.6 C 32 %
1007 01-04-2020 00:41:17 0.5 C 33 %
1008 01-04-2020 00:51:17 -0.3 C 35 %
1009 01-04-2020 01:01:17 -0.1 C 36 %
1010 01-04-2020 01:11:17 -0.3 C 35 %
1011 01-04-2020 01:21:17 -1 C 37 %
1012 01-04-2020 01:30:18 -1.4 C 38 %
1013 01-04-2020 01:40:18 -1.7 C 38 %
1014 01-04-2020 01:51:17 -1.9 C 38 %
1015 01-04-2020 02:01:17 -1.9 C 38 %
1016 01-04-2020 02:11:17 -2 C 38 %
1017 01-04-2020 02:21:17 -2.1 C 38 %
1018 01-04-2020 02:31:17 -2.3 C 39 %
1019 01-04-2020 02:41:17 -2.4 C 38 %
1020 01-04-2020 02:50:18 -2.4 C 39 %
1021 01-04-2020 03:01:17 -2.5 C 38 %
1022 01-04-2020 03:11:17 -2.6 C 38 %
1023 01-04-2020 03:21:17 -2.8 C 39 %
1024 01-04-2020 03:31:17 -2.7 C 38 %
1025 01-04-2020 03:41:18 -3 C 38 %
Sensor: Nr:Datum:Temp:Feuchte:
Aussen-T/F 1026 01-04-2020 03:51:17 -3 C 39 %
1027 01-04-2020 04:01:17 -2.8 C 39 %
1028 01-04-2020 04:11:17 -3.1 C 38 %
1029 01-04-2020 04:21:17 -3.2 C 39 %
1030 01-04-2020 04:31:18 -3.5 C 38 %
1031 01-04-2020 04:41:19 -3.4 C 39 %
1032 01-04-2020 04:51:17 -3.5 C 39 %
1033 01-04-2020 05:01:18 -3.6 C 39 %
1034 01-04-2020 05:11:19 -3.8 C 40 %
1035 01-04-2020 05:21:17 -3.8 C 40 %
1036 01-04-2020 05:31:18 -3.8 C 40 %
1037 01-04-2020 05:41:18 -4 C 40 %
1038 01-04-2020 05:51:17 -4.2 C 40 %
1039 01-04-2020 06:01:18 -4.2 C 40 %
1040 01-04-2020 06:11:18 -4 C 40 %
1041 01-04-2020 06:21:17 -4.2 C 40 %
1042 01-04-2020 06:31:17 -4.2 C 41 %
1043 01-04-2020 06:41:17 -4.3 C 41 %
1044 01-04-2020 06:51:17 -4.5 C 41 %
1045 01-04-2020 07:01:18 -4.6 C 41 %
1046 01-04-2020 07:11:19 -4.7 C 41 %
1047 01-04-2020 07:21:17 -4.5 C 41 %
1048 01-04-2020 07:31:18 -4.4 C 41 %
1049 01-04-2020 07:41:18 -4.5 C 41 %
1050 01-04-2020 07:51:17 -4.3 C 41 %
Sensor: Nr:Datum:Temp:Feuchte:
Aussen-T/F 1051 01-04-2020 08:01:17 -4.2 C 41 %
1052 01-04-2020 08:11:17 -4.2 C 41 %
1053 01-04-2020 08:21:17 -3.7 C 41 %
1054 01-04-2020 08:31:17 -3.8 C 41 %
1055 01-04-2020 08:41:17 -3.7 C 41 %
1056 01-04-2020 08:51:17 -3.4 C 40 %
1057 01-04-2020 09:01:17 -3.4 C 40 %
1058 01-04-2020 09:11:17 -2.7 C 40 %
1059 01-04-2020 09:21:17 -2.6 C 40 %
1060 01-04-2020 09:31:17 -2.5 C 40 %
1061 01-04-2020 09:41:17 -2.1 C 40 %
1062 01-04-2020 09:51:17 -1.5 C 39 %
1063 01-04-2020 10:01:17 -1 C 39 %
1064 01-04-2020 10:11:17 -0.9 C 40 %
1065 01-04-2020 10:21:17 -0.4 C 40 %
1066 01-04-2020 10:31:18 0.5 C 39 %
1067 01-04-2020 10:41:18 1 C 37 %
1068 01-04-2020 10:51:17 1.6 C 36 %
1069 01-04-2020 11:01:17 2.4 C 35 %
1070 01-04-2020 11:11:17 3.2 C 33 %
1071 01-04-2020 11:21:17 4.2 C 29 %
1072 01-04-2020 11:31:17 4.8 C 20 %
1073 01-04-2020 11:41:17 5.3 C 20 %
1074 01-04-2020 11:51:17 6 C 20 %
1075 01-04-2020 12:01:17 6.6 C 20 %
Sensor: Nr:Datum:Temp:Feuchte:
Aussen-T/F 1076 01-04-2020 12:11:18 7.1 C 20 %
1077 01-04-2020 12:21:17 8.9 C 20 %
1078 01-04-2020 12:31:17 10.3 C 20 %
1079 01-04-2020 12:41:17 9.2 C 20 %
1080 01-04-2020 12:51:17 8 C 20 %
1081 01-04-2020 13:01:17 9.3 C 20 %
1082 01-04-2020 13:11:17 9.3 C 20 %
1083 01-04-2020 13:21:16 8.6 C 20 %
1084 01-04-2020 13:31:17 9.2 C 20 %
1085 01-04-2020 13:41:17 9.6 C 20 %
1086 01-04-2020 13:51:17 10 C 20 %
1087 01-04-2020 14:01:17 10.3 C 20 %
1088 01-04-2020 14:11:17 10.7 C 20 %
1089 01-04-2020 14:21:17 13.2 C 20 %
1090 01-04-2020 14:31:16 15.9 C 20 %
1091 01-04-2020 14:41:16 16.3 C 20 %
1092 01-04-2020 14:51:17 13.7 C 20 %
1093 01-04-2020 15:01:17 14.2 C 20 %
1094 01-04-2020 15:11:17 17.2 C 20 %
1095 01-04-2020 15:21:17 16.8 C 20 %
1096 01-04-2020 15:31:16 16.3 C 20 %
1097 01-04-2020 15:41:16 18.2 C 20 %
1098 01-04-2020 15:51:17 19.5 C 20 %
1099 01-04-2020 16:01:16 18.7 C 20 %
1100 01-04-2020 16:11:16 18.7 C 20 %
Sensor: Nr:Datum:Temp:Feuchte:
Aussen-T/F 1101 01-04-2020 16:21:16 19.7 C 20 %
1102 01-04-2020 16:31:17 21.3 C 20 %
1103 01-04-2020 16:41:17 15.5 C 20 %
1104 01-04-2020 16:51:16 18.4 C 20 %
1105 01-04-2020 17:01:16 17.2 C 20 %
1106 01-04-2020 17:11:16 17.4 C 20 %
1107 01-04-2020 17:21:17 17.7 C 20 %
1108 01-04-2020 17:31:17 18.5 C 20 %
1109 01-04-2020 17:41:17 16.8 C 20 %
1110 01-04-2020 17:51:17 15.8 C 20 %
1111 01-04-2020 18:01:17 12.6 C 20 %
1112 01-04-2020 18:11:17 12 C 20 %
1113 01-04-2020 18:21:16 12.1 C 20 %
1114 01-04-2020 18:31:17 11.7 C 20 %
1115 01-04-2020 18:41:17 11.8 C 20 %
1116 01-04-2020 18:51:16 11.6 C 20 %
1117 01-04-2020 19:01:17 11 C 20 %
1118 01-04-2020 19:11:17 10.7 C 20 %
1119 01-04-2020 19:21:17 10.4 C 20 %
1120 01-04-2020 19:31:17 9.9 C 20 %
1121 01-04-2020 19:41:17 9.6 C 20 %
1122 01-04-2020 19:51:16 8.9 C 20 %
1123 01-04-2020 20:01:17 8.1 C 20 %
1124 01-04-2020 20:11:17 7.8 C 20 %
1125 01-04-2020 20:21:16 8.1 C 20 %
Sensor: Nr:Datum:Temp:Feuchte:
Aussen-T/F 1126 01-04-2020 20:31:16 7.1 C 20 %
1127 01-04-2020 20:41:16 6.2 C 20 %
1128 01-04-2020 20:51:16 5.9 C 20 %
1129 01-04-2020 21:01:16 6 C 20 %
1130 01-04-2020 21:11:16 6 C 20 %
1131 01-04-2020 21:21:16 5.7 C 20 %
1132 01-04-2020 21:31:16 5.7 C 20 %
1133 01-04-2020 21:41:16 5.4 C 20 %
1134 01-04-2020 21:51:16 4 C 21 %
1135 01-04-2020 22:01:16 4.2 C 21 %
1136 01-04-2020 22:11:16 3.7 C 26 %
1137 01-04-2020 22:21:16 3.2 C 26 %
1138 01-04-2020 22:31:16 2.5 C 29 %
1139 01-04-2020 22:41:16 2.6 C 28 %
1140 01-04-2020 22:51:16 2 C 30 %
1141 01-04-2020 23:01:17 1.7 C 33 %
1142 01-04-2020 23:11:17 1.7 C 32 %
1143 01-04-2020 23:21:16 1.4 C 34 %
1144 01-04-2020 23:31:16 1.2 C 34 %
1145 01-04-2020 23:41:16 1 C 35 %
1146 01-04-2020 23:51:16 1.1 C 34 %
1147 02-04-2020 00:01:17 1 C 35 %
1148 02-04-2020 00:11:17 0.4 C 36 %
1149 02-04-2020 00:21:16 0.4 C 36 %
1150 02-04-2020 00:31:17 0.2 C 36 %
Sensor: Nr:Datum:Temp:Feuchte:
Aussen-T/F 1151 02-04-2020 00:41:17 0.3 C 37 %
1152 02-04-2020 00:51:16 0.3 C 36 %
1153 02-04-2020 01:01:17 0 C 37 %
1154 02-04-2020 01:11:17 -0.4 C 38 %
1155 02-04-2020 01:21:16 -0.6 C 38 %
1156 02-04-2020 01:31:17 -0.7 C 38 %
1157 02-04-2020 01:41:17 -0.7 C 38 %
1158 02-04-2020 01:51:16 -0.9 C 39 %
1159 02-04-2020 02:01:16 -1 C 39 %
1160 02-04-2020 02:11:16 -1 C 39 %
1161 02-04-2020 02:21:16 -1.2 C 39 %
1162 02-04-2020 02:31:17 -1.3 C 40 %
1163 02-04-2020 02:41:17 -1.6 C 40 %
1164 02-04-2020 02:51:17 -1.5 C 40 %
1165 02-04-2020 03:01:17 -1.5 C 40 %
1166 02-04-2020 03:11:17 -1.5 C 40 %
1167 02-04-2020 03:21:17 -1.3 C 40 %
1168 02-04-2020 03:31:17 -1.4 C 40 %
1169 02-04-2020 03:41:17 -1.6 C 40 %
1170 02-04-2020 03:51:18 -1.7 C 40 %
1171 02-04-2020 04:01:18 -2.1 C 40 %
1172 02-04-2020 04:11:18 -1.7 C 41 %
1173 02-04-2020 04:21:18 -1.6 C 40 %
1174 02-04-2020 04:31:17 -2 C 40 %
1175 02-04-2020 04:41:17 -2.4 C 41 %
Sensor: Nr:Datum:Temp:Feuchte:
Aussen-T/F 1176 02-04-2020 04:51:17 -2.7 C 41 %
1177 02-04-2020 05:01:18 -2.6 C 41 %
1178 02-04-2020 05:11:18 -2.6 C 41 %
1179 02-04-2020 05:21:17 -2.6 C 41 %
1180 02-04-2020 05:31:18 -2.7 C 41 %
1181 02-04-2020 05:41:18 -2.6 C 41 %
1182 02-04-2020 05:51:17 -2.5 C 41 %
1183 02-04-2020 06:01:17 -2.6 C 41 %
1184 02-04-2020 06:11:17 -3 C 41 %
1185 02-04-2020 06:21:17 -3 C 42 %
1186 02-04-2020 06:31:17 -2.6 C 43 %
1187 02-04-2020 06:41:17 -3.1 C 42 %
1188 02-04-2020 06:51:17 -2.9 C 42 %
1189 02-04-2020 07:01:17 -3.3 C 42 %
1190 02-04-2020 07:11:17 -3 C 42 %
1191 02-04-2020 07:21:17 -3.1 C 42 %
1192 02-04-2020 07:31:17 -3 C 43 %
1193 02-04-2020 07:41:18 -2.9 C 42 %
1194 02-04-2020 07:51:17 -3 C 43 %
1195 02-04-2020 08:01:17 -2.7 C 43 %
1196 02-04-2020 08:11:18 -2.5 C 43 %
1197 02-04-2020 08:21:17 -2.2 C 42 %
1198 02-04-2020 08:31:17 -2.2 C 42 %
1199 02-04-2020 08:41:17 -2 C 42 %
1200 02-04-2020 08:51:17 -1.8 C 42 %
Sensor: Nr:Datum:Temp:Feuchte:
Aussen-T/F 1201 02-04-2020 09:01:17 -1.7 C 42 %
1202 02-04-2020 09:11:17 -1.5 C 41 %
1203 02-04-2020 09:21:17 -1.3 C 41 %
1204 02-04-2020 09:31:17 -1 C 41 %
1205 02-04-2020 09:41:17 -0.6 C 41 %
1206 02-04-2020 09:51:18 -0.3 C 41 %
1207 02-04-2020 10:01:18 0.1 C 41 %
1208 02-04-2020 10:11:18 0.6 C 41 %
1209 02-04-2020 10:21:17 0.8 C 41 %
1210 02-04-2020 10:31:17 1.7 C 40 %
1211 02-04-2020 10:41:17 2.2 C 39 %
1212 02-04-2020 10:51:17 3.1 C 37 %
1213 02-04-2020 11:01:17 3.6 C 37 %
1214 02-04-2020 11:11:17 4.6 C 35 %
1215 02-04-2020 11:21:17 5.7 C 30 %
1216 02-04-2020 11:31:18 6.5 C 30 %
1217 02-04-2020 11:41:18 6.9 C 29 %
1218 02-04-2020 11:51:17 7.4 C 27 %
1219 02-04-2020 12:01:17 8.1 C 27 %
1220 02-04-2020 12:11:17 8.5 C 25 %
1221 02-04-2020 12:21:17 10.5 C 20 %
1222 02-04-2020 12:31:18 12.2 C 20 %
1223 02-04-2020 12:41:18 10.8 C 20 %
1224 02-04-2020 12:51:17 10.3 C 20 %
1225 02-04-2020 13:01:17 11 C 20 %
Sensor: Nr:Datum:Temp:Feuchte:
Aussen-T/F 1226 02-04-2020 13:11:18 11.5 C 20 %
1227 02-04-2020 13:21:17 11.6 C 20 %
1228 02-04-2020 13:31:17 11.4 C 20 %
1229 02-04-2020 13:41:17 12.3 C 20 %
1230 02-04-2020 13:51:17 12.5 C 20 %
1231 02-04-2020 14:01:17 11.8 C 20 %
1232 02-04-2020 14:11:17 12.6 C 20 %
1233 02-04-2020 14:21:17 15.5 C 20 %
1234 02-04-2020 14:31:18 18.1 C 20 %
1235 02-04-2020 14:41:18 18.3 C 20 %
1236 02-04-2020 14:51:17 18.3 C 20 %
1237 02-04-2020 15:01:18 19.7 C 20 %
1238 02-04-2020 15:11:18 17.5 C 20 %
1239 02-04-2020 15:21:17 19.2 C 20 %
1240 02-04-2020 15:31:18 19.8 C 20 %
1241 02-04-2020 15:41:18 19.3 C 20 %
1242 02-04-2020 15:51:17 19.4 C 20 %
1243 02-04-2020 16:01:17 21.3 C 20 %
1244 02-04-2020 16:11:17 19.9 C 20 %
1245 02-04-2020 16:21:17 16.6 C 20 %
1246 02-04-2020 16:31:18 18 C 20 %
1247 02-04-2020 16:41:18 17.6 C 20 %
1248 02-04-2020 16:51:17 17.8 C 20 %
1249 02-04-2020 17:01:17 17.3 C 20 %
1250 02-04-2020 17:11:17 16.6 C 20 %
Sensor: Nr:Datum:Temp:Feuchte:
Aussen-T/F 1251 02-04-2020 17:21:17 15.8 C 20 %
1252 02-04-2020 17:31:18 15.5 C 20 %
1253 02-04-2020 17:41:18 14.7 C 20 %
1254 02-04-2020 17:51:17 14.8 C 20 %
1255 02-04-2020 18:01:17 12.8 C 20 %
1256 02-04-2020 18:11:17 12.2 C 20 %
1257 02-04-2020 18:21:17 12.3 C 20 %
1258 02-04-2020 18:31:17 11.8 C 20 %
1259 02-04-2020 18:41:17 11.3 C 20 %
1260 02-04-2020 18:51:17 11.1 C 20 %
1261 02-04-2020 19:01:17 10.7 C 20 %
1262 02-04-2020 19:11:17 10.2 C 20 %
1263 02-04-2020 19:21:17 10 C 20 %
1264 02-04-2020 19:31:17 9.6 C 20 %
1265 02-04-2020 19:41:17 9.5 C 20 %
1266 02-04-2020 19:51:17 8.7 C 20 %
1267 02-04-2020 20:01:17 8.5 C 20 %
1268 02-04-2020 20:11:17 8.5 C 20 %
1269 02-04-2020 20:21:17 7.9 C 20 %
1270 02-04-2020 20:31:17 7.8 C 20 %
1271 02-04-2020 20:41:17 7.2 C 21 %
1272 02-04-2020 20:51:17 6.9 C 25 %
1273 02-04-2020 21:01:17 6.4 C 26 %
1274 02-04-2020 21:11:17 6.3 C 27 %
1275 02-04-2020 21:21:17 5.9 C 28 %
Sensor: Nr:Datum:Temp:Feuchte:
Aussen-T/F 1276 02-04-2020 21:31:18 5.7 C 29 %
1277 02-04-2020 21:41:18 5.6 C 30 %
1278 02-04-2020 21:51:17 5.3 C 30 %
1279 02-04-2020 22:01:17 5.2 C 30 %
1280 02-04-2020 22:11:17 5.5 C 30 %
1281 02-04-2020 22:21:17 5 C 30 %
1282 02-04-2020 22:31:18 5.3 C 31 %
1283 02-04-2020 22:41:18 5.2 C 31 %
1284 02-04-2020 22:51:17 5.1 C 31 %
1285 02-04-2020 23:01:17 4.8 C 32 %
1286 02-04-2020 23:11:17 5 C 31 %
1287 02-04-2020 23:21:17 5 C 31 %
1288 02-04-2020 23:31:18 4.7 C 33 %
1289 02-04-2020 23:41:18 3.9 C 35 %
1290 02-04-2020 23:51:17 3.1 C 36 %
1291 03-04-2020 00:01:18 2.7 C 38 %
1292 03-04-2020 00:11:18 2.3 C 39 %
1293 03-04-2020 00:21:17 2.6 C 40 %
1294 03-04-2020 00:31:17 2.6 C 39 %
1295 03-04-2020 00:41:17 3.2 C 38 %
1296 03-04-2020 00:51:17 2.4 C 39 %
1297 03-04-2020 01:01:18 2.4 C 39 %
1298 03-04-2020 01:11:18 2.4 C 39 %
1299 03-04-2020 01:21:17 2.6 C 39 %
1300 03-04-2020 01:31:18 2.7 C 39 %
Sensor: Nr:Datum:Temp:Feuchte:
Aussen-T/F 1301 03-04-2020 01:41:18 2.5 C 39 %
1302 03-04-2020 01:51:17 2.3 C 39 %
1303 03-04-2020 02:01:18 2.2 C 39 %
1304 03-04-2020 02:11:18 2.3 C 39 %
1305 03-04-2020 02:21:18 3.1 C 38 %
1306 03-04-2020 02:31:18 3.2 C 38 %
1307 03-04-2020 02:41:18 2.6 C 39 %
1308 03-04-2020 02:51:17 2.8 C 39 %
1309 03-04-2020 03:01:18 3 C 38 %
1310 03-04-2020 03:11:18 3.6 C 38 %
1311 03-04-2020 03:21:17 3.9 C 38 %
1312 03-04-2020 03:31:17 4.4 C 36 %
1313 03-04-2020 03:41:17 4.7 C 36 %
1314 03-04-2020 03:51:17 4.6 C 36 %
1315 03-04-2020 04:01:17 5 C 35 %
1316 03-04-2020 04:11:17 5.6 C 35 %
1317 03-04-2020 04:21:17 4.9 C 35 %
1318 03-04-2020 04:31:18 4.7 C 36 %
1319 03-04-2020 04:41:18 4.6 C 36 %
1320 03-04-2020 04:51:18 4.4 C 36 %
1321 03-04-2020 05:01:18 4.3 C 36 %
1322 03-04-2020 05:11:18 4.5 C 36 %
1323 03-04-2020 05:21:17 4.8 C 36 %
1324 03-04-2020 05:31:17 4.8 C 36 %
1325 03-04-2020 05:41:17 5.2 C 35 %
Sensor: Nr:Datum:Temp:Feuchte:
Aussen-T/F 1326 03-04-2020 05:51:17 5.3 C 35 %
1327 03-04-2020 06:01:18 5.4 C 35 %
1328 03-04-2020 06:11:18 5.4 C 35 %
1329 03-04-2020 06:21:17 5.1 C 35 %
1330 03-04-2020 06:31:17 5.1 C 36 %
1331 03-04-2020 06:41:17 5.1 C 35 %
1332 03-04-2020 06:51:17 5.2 C 35 %
1333 03-04-2020 07:01:17 5.7 C 35 %
1334 03-04-2020 07:11:17 5.6 C 35 %
1335 03-04-2020 07:21:18 5.5 C 35 %
1336 03-04-2020 07:31:17 5.7 C 35 %
1337 03-04-2020 07:41:17 5.6 C 35 %
1338 03-04-2020 07:51:17 5.6 C 35 %
1339 03-04-2020 08:01:17 5.7 C 35 %
1340 03-04-2020 08:11:17 5.9 C 35 %
1341 03-04-2020 08:21:18 5.9 C 35 %
1342 03-04-2020 08:31:17 5.9 C 35 %
1343 03-04-2020 08:41:17 6.1 C 35 %
1344 03-04-2020 08:51:18 6.6 C 35 %
1345 03-04-2020 09:01:17 7 C 34 %
1346 03-04-2020 09:11:17 7.1 C 34 %
1347 03-04-2020 09:21:18 7.6 C 34 %
1348 03-04-2020 09:31:18 7.7 C 34 %
1349 03-04-2020 09:41:18 8 C 33 %
1350 03-04-2020 09:51:17 8.4 C 33 %
Sensor: Nr:Datum:Temp:Feuchte:
Aussen-T/F 1351 03-04-2020 10:01:18 8.6 C 32 %
1352 03-04-2020 10:11:18 8.6 C 32 %
1353 03-04-2020 10:21:17 9 C 32 %
1354 03-04-2020 10:31:18 9.4 C 32 %
1355 03-04-2020 10:41:18 9.2 C 32 %
1356 03-04-2020 10:51:17 9.6 C 32 %
1357 03-04-2020 11:01:17 10.6 C 31 %
1358 03-04-2020 11:11:17 11.2 C 29 %
1359 03-04-2020 11:21:17 10.9 C 29 %
1360 03-04-2020 11:31:17 11.1 C 28 %
1361 03-04-2020 11:41:17 11.5 C 26 %
1362 03-04-2020 11:51:17 11.4 C 26 %
1363 03-04-2020 12:01:17 11.1 C 26 %
1364 03-04-2020 12:11:17 11.2 C 26 %
1365 03-04-2020 12:21:17 11.4 C 26 %
1366 03-04-2020 12:31:17 11.6 C 25 %
1367 03-04-2020 12:41:18 11.1 C 25 %
1368 03-04-2020 12:51:17 11.1 C 25 %
1369 03-04-2020 13:01:18 11.2 C 25 %
1370 03-04-2020 13:11:18 11.7 C 25 %
1371 03-04-2020 13:21:17 12.2 C 22 %
1372 03-04-2020 13:31:17 11.8 C 22 %
1373 03-04-2020 13:41:17 11.8 C 23 %
1374 03-04-2020 13:51:17 12.2 C 22 %
1375 03-04-2020 14:01:18 12.3 C 20 %
Sensor: Nr:Datum:Temp:Feuchte:
Aussen-T/F 1376 03-04-2020 14:11:18 11.6 C 21 %
1377 03-04-2020 14:21:17 11.7 C 21 %
1378 03-04-2020 14:31:17 11.6 C 21 %
1379 03-04-2020 14:41:18 11.4 C 23 %
1380 03-04-2020 14:51:17 11.7 C 21 %
1381 03-04-2020 15:01:17 11.8 C 20 %
1382 03-04-2020 15:11:17 11.7 C 20 %
1383 03-04-2020 15:21:18 11.8 C 20 %
1384 03-04-2020 15:31:17 12.1 C 20 %
1385 03-04-2020 15:41:17 12.5 C 20 %
1386 03-04-2020 15:51:17 13.1 C 20 %
1387 03-04-2020 16:01:17 12.6 C 20 %
1388 03-04-2020 16:11:17 12.4 C 20 %
1389 03-04-2020 16:21:17 12.4 C 20 %
1390 03-04-2020 16:31:17 12.3 C 20 %
1391 03-04-2020 16:41:17 12.4 C 20 %
1392 03-04-2020 16:51:17 12.4 C 20 %
1393 03-04-2020 17:01:17 12.2 C 20 %
1394 03-04-2020 17:11:17 12.2 C 20 %
1395 03-04-2020 17:21:17 12.2 C 20 %
1396 03-04-2020 17:31:17 12.2 C 20 %
1397 03-04-2020 17:41:17 12.4 C 20 %
1398 03-04-2020 17:51:17 11.9 C 20 %
1399 03-04-2020 18:01:17 11.5 C 20 %
1400 03-04-2020 18:11:17 11.7 C 20 %
Sensor: Nr:Datum:Temp:Feuchte:
Aussen-T/F 1401 03-04-2020 18:21:17 11.5 C 20 %
1402 03-04-2020 18:31:18 11.4 C 20 %
1403 03-04-2020 18:41:18 11 C 20 %
1404 03-04-2020 18:51:17 11 C 20 %
1405 03-04-2020 19:01:18 10.8 C 20 %
1406 03-04-2020 19:11:18 10.7 C 20 %
1407 03-04-2020 19:21:17 10.5 C 20 %
1408 03-04-2020 19:31:17 10.2 C 20 %
1409 03-04-2020 19:41:17 10.3 C 20 %
1410 03-04-2020 19:51:17 9.9 C 20 %
1411 03-04-2020 20:01:17 9.8 C 20 %
1412 03-04-2020 20:11:17 9.5 C 20 %
1413 03-04-2020 20:21:17 9.1 C 20 %
1414 03-04-2020 20:31:18 9.5 C 20 %
1415 03-04-2020 20:41:18 9.2 C 20 %
1416 03-04-2020 20:51:18 9.1 C 20 %
1417 03-04-2020 21:01:17 9.2 C 20 %
1418 03-04-2020 21:11:17 9.1 C 20 %
1419 03-04-2020 21:21:17 8.9 C 20 %
1420 03-04-2020 21:31:17 8.7 C 20 %
1421 03-04-2020 21:41:17 8.6 C 20 %
1422 03-04-2020 21:51:17 8.3 C 20 %
1423 03-04-2020 22:01:17 8.1 C 20 %
1424 03-04-2020 22:11:17 7.9 C 20 %
1425 03-04-2020 22:21:17 7.2 C 23 %
Sensor: Nr:Datum:Temp:Feuchte:
Aussen-T/F 1426 03-04-2020 22:31:18 6.8 C 25 %
1427 03-04-2020 22:41:18 6.5 C 26 %
1428 03-04-2020 22:51:17 6.3 C 26 %
1429 03-04-2020 23:01:17 6.4 C 26 %
1430 03-04-2020 23:11:18 6.4 C 25 %
1431 03-04-2020 23:21:18 6.2 C 26 %
1432 03-04-2020 23:31:17 5.2 C 28 %
1433 03-04-2020 23:41:18 5 C 29 %
1434 03-04-2020 23:51:17 4.7 C 30 %
1435 04-04-2020 00:01:17 4.8 C 30 %
1436 04-04-2020 00:11:18 4.8 C 30 %
1437 04-04-2020 00:21:17 4.7 C 30 %
1438 04-04-2020 00:31:17 5.2 C 28 %
1439 04-04-2020 00:41:17 4.5 C 29 %
1440 04-04-2020 00:51:17 4 C 30 %
1441 04-04-2020 01:01:17 4.6 C 30 %
1442 04-04-2020 01:11:17 4.3 C 30 %
1443 04-04-2020 01:21:18 3.9 C 31 %
1444 04-04-2020 01:31:17 4 C 32 %
1445 04-04-2020 01:41:17 3.1 C 35 %
1446 04-04-2020 01:51:17 2.2 C 37 %
1447 04-04-2020 02:01:18 1.7 C 39 %
1448 04-04-2020 02:11:18 1.4 C 40 %
1449 04-04-2020 02:21:17 1.2 C 40 %
1450 04-04-2020 02:31:17 0.9 C 41 %
Sensor: Nr:Datum:Temp:Feuchte:
Aussen-T/F 1451 04-04-2020 02:41:17 0.8 C 41 %
1452 04-04-2020 02:51:17 0.8 C 42 %
1453 04-04-2020 03:01:18 0.6 C 42 %
1454 04-04-2020 03:11:18 0.4 C 42 %
1455 04-04-2020 03:21:17 0.3 C 43 %
1456 04-04-2020 03:31:18 0.6 C 43 %
1457 04-04-2020 03:41:18 0.5 C 42 %
1458 04-04-2020 03:51:17 -0.1 C 43 %
1459 04-04-2020 04:01:17 -0.4 C 43 %
1460 04-04-2020 04:11:17 -0.6 C 43 %
1461 04-04-2020 04:21:17 -0.7 C 44 %
1462 04-04-2020 04:31:17 -0.6 C 44 %
1463 04-04-2020 04:41:17 -0.9 C 44 %
1464 04-04-2020 04:51:17 -0.9 C 45 %
1465 04-04-2020 05:01:18 -0.9 C 45 %
1466 04-04-2020 05:11:18 -1.2 C 45 %
1467 04-04-2020 05:21:18 -1.2 C 45 %
1468 04-04-2020 05:31:17 -1 C 45 %
1469 04-04-2020 05:41:17 -1.2 C 45 %
1470 04-04-2020 05:51:17 -1.2 C 45 %
1471 04-04-2020 06:01:18 -1.5 C 45 %
1472 04-04-2020 06:11:18 -1.5 C 45 %
1473 04-04-2020 06:21:17 -1.5 C 45 %
1474 04-04-2020 06:31:17 -1.8 C 45 %
1475 04-04-2020 06:41:17 -1.4 C 46 %
Sensor: Nr:Datum:Temp:Feuchte:
Aussen-T/F 1476 04-04-2020 06:51:17 -1.5 C 45 %
1477 04-04-2020 07:01:18 -1.6 C 45 %
1478 04-04-2020 07:11:18 -1.8 C 45 %
1479 04-04-2020 07:21:17 -1.5 C 46 %
1480 04-04-2020 07:31:18 -1.8 C 45 %
1481 04-04-2020 07:41:18 -1.7 C 46 %
1482 04-04-2020 07:51:17 -1.8 C 45 %
1483 04-04-2020 08:01:17 -1.8 C 46 %
1484 04-04-2020 08:11:18 -1.7 C 46 %
1485 04-04-2020 08:21:17 -1.5 C 46 %
1486 04-04-2020 08:31:17 -1.1 C 46 %
1487 04-04-2020 08:41:18 -1 C 46 %
1488 04-04-2020 08:51:17 -0.7 C 45 %
1489 04-04-2020 09:01:17 -0.3 C 45 %
1490 04-04-2020 09:11:17 0 C 45 %
1491 04-04-2020 09:21:17 -0.2 C 45 %
1492 04-04-2020 09:31:18 0.2 C 45 %
1493 04-04-2020 09:41:18 0.8 C 44 %
1494 04-04-2020 09:51:17 1.1 C 43 %
1495 04-04-2020 10:01:17 1.5 C 43 %
1496 04-04-2020 10:11:18 1.8 C 43 %
1497 04-04-2020 10:21:17 2.2 C 41 %
1498 04-04-2020 10:31:17 2.9 C 41 %
1499 04-04-2020 10:41:17 3.5 C 40 %
1500 04-04-2020 10:51:17 4.5 C 37 %
Sensor: Nr:Datum:Temp:Feuchte:
Aussen-T/F 1501 04-04-2020 11:01:17 5.3 C 36 %
1502 04-04-2020 11:11:17 6.4 C 35 %
1503 04-04-2020 11:21:18 7.1 C 32 %
1504 04-04-2020 11:31:18 7.9 C 32 %
1505 04-04-2020 11:41:18 8.4 C 29 %
1506 04-04-2020 11:51:18 8.7 C 29 %
1507 04-04-2020 12:01:18 9.7 C 26 %
1508 04-04-2020 12:11:18 9.7 C 26 %
1509 04-04-2020 12:21:17 10.6 C 22 %
1510 04-04-2020 12:31:17 10.9 C 20 %
1511 04-04-2020 12:41:17 11.4 C 20 %
1512 04-04-2020 12:51:17 10.8 C 20 %
1513 04-04-2020 13:01:17 11.1 C 20 %
1514 04-04-2020 13:11:17 12.1 C 20 %
1515 04-04-2020 13:21:17 11.6 C 20 %
1516 04-04-2020 13:31:17 11.4 C 20 %
1517 04-04-2020 13:41:17 12.2 C 20 %
1518 04-04-2020 13:51:18 12.5 C 20 %
1519 04-04-2020 14:01:17 12.1 C 20 %
1520 04-04-2020 14:11:17 13.7 C 20 %
1521 04-04-2020 14:21:17 14.6 C 20 %
1522 04-04-2020 14:31:17 16.6 C 20 %
1523 04-04-2020 14:41:17 17 C 20 %
1524 04-04-2020 14:51:17 16.3 C 20 %
1525 04-04-2020 15:01:18 18.1 C 20 %
Sensor: Nr:Datum:Temp:Feuchte:
Aussen-T/F 1526 04-04-2020 15:11:18 18.9 C 20 %
1527 04-04-2020 15:21:17 16.9 C 20 %
1528 04-04-2020 15:31:17 19.1 C 20 %
1529 04-04-2020 15:41:17 19.8 C 20 %
1530 04-04-2020 15:51:17 17.4 C 20 %
1531 04-04-2020 16:01:17 19.9 C 20 %
1532 04-04-2020 16:11:17 19.3 C 20 %
1533 04-04-2020 16:21:17 18.7 C 20 %
1534 04-04-2020 16:31:17 19.3 C 20 %
1535 04-04-2020 16:41:17 20.5 C 20 %
1536 04-04-2020 16:51:17 20.4 C 20 %
1537 04-04-2020 17:01:17 20.3 C 20 %
1538 04-04-2020 17:11:17 20.1 C 20 %
1539 04-04-2020 17:21:17 20.5 C 20 %
1540 04-04-2020 17:31:17 19.2 C 20 %
1541 04-04-2020 17:41:17 18.7 C 20 %
1542 04-04-2020 17:51:18 17.8 C 20 %
1543 04-04-2020 18:01:17 16.8 C 20 %
1544 04-04-2020 18:11:17 16.2 C 20 %
1545 04-04-2020 18:21:17 15.4 C 20 %
1546 04-04-2020 18:31:17 15.4 C 20 %
1547 04-04-2020 18:41:17 15.6 C 20 %
1548 04-04-2020 18:51:17 15.1 C 20 %
1549 04-04-2020 19:01:17 14.9 C 20 %
1550 04-04-2020 19:11:17 14.4 C 20 %
Sensor: Nr:Datum:Temp:Feuchte:
Aussen-T/F 1551 04-04-2020 19:21:17 14 C 20 %
1552 04-04-2020 19:31:17 13.9 C 20 %
1553 04-04-2020 19:41:17 12.6 C 20 %
1554 04-04-2020 19:51:17 11.5 C 20 %
1555 04-04-2020 20:01:17 11.3 C 20 %
1556 04-04-2020 20:11:17 10.7 C 20 %
1557 04-04-2020 20:21:17 10.3 C 21 %
1558 04-04-2020 20:31:17 9.8 C 25 %
1559 04-04-2020 20:41:17 9.5 C 23 %
1560 04-04-2020 20:51:17 9.2 C 25 %
1561 04-04-2020 21:01:17 9.2 C 21 %
1562 04-04-2020 21:11:17 8.7 C 25 %
1563 04-04-2020 21:21:17 8.8 C 25 %
1564 04-04-2020 21:31:17 8.5 C 25 %
1565 04-04-2020 21:41:17 8.2 C 25 %
1566 04-04-2020 21:51:17 7.1 C 28 %
1567 04-04-2020 22:01:18 5.8 C 31 %
1568 04-04-2020 22:11:18 5.5 C 32 %
1569 04-04-2020 22:21:18 5.1 C 32 %
1570 04-04-2020 22:31:17 4.8 C 35 %
1571 04-04-2020 22:41:17 4.7 C 34 %
1572 04-04-2020 22:51:17 4.6 C 34 %
1573 04-04-2020 23:01:17 4.4 C 34 %
1574 04-04-2020 23:11:17 4.1 C 34 %
1575 04-04-2020 23:21:17 3.9 C 35 %
Sensor: Nr:Datum:Temp:Feuchte:
Aussen-T/F 1576 04-04-2020 23:31:17 3.6 C 36 %
1577 04-04-2020 23:41:17 3.5 C 36 %
1578 04-04-2020 23:51:17 3.4 C 37 %
1579 05-04-2020 00:01:17 3 C 37 %
1580 05-04-2020 00:11:17 2.9 C 38 %
1581 05-04-2020 00:21:17 2.8 C 39 %
1582 05-04-2020 00:31:17 2.5 C 39 %
1583 05-04-2020 00:41:17 2.5 C 40 %
1584 05-04-2020 00:51:18 2.4 C 40 %
1585 05-04-2020 01:01:18 2.3 C 40 %
1586 05-04-2020 01:11:18 2.3 C 40 %
1587 05-04-2020 01:21:17 2.2 C 40 %
1588 05-04-2020 01:31:18 2.1 C 41 %
1589 05-04-2020 01:41:18 1.9 C 42 %
1590 05-04-2020 01:51:17 1.8 C 42 %
1591 05-04-2020 02:01:18 1.6 C 42 %
1592 05-04-2020 02:11:18 1.3 C 42 %
1593 05-04-2020 02:21:17 1.4 C 43 %
1594 05-04-2020 02:31:18 1.4 C 43 %
1595 05-04-2020 02:41:18 1.1 C 43 %
1596 05-04-2020 02:51:17 1.1 C 43 %
1597 05-04-2020 03:01:18 1.3 C 43 %
1598 05-04-2020 03:11:18 1.1 C 43 %
1599 05-04-2020 03:21:17 1 C 43 %
1600 05-04-2020 03:31:17 0.7 C 45 %
Sensor: Nr:Datum:Temp:Feuchte:
Aussen-T/F 1601 05-04-2020 03:41:17 0.5 C 45 %
1602 05-04-2020 03:51:17 0.7 C 45 %
1603 05-04-2020 04:01:17 0.6 C 45 %
1604 05-04-2020 04:11:17 0.4 C 45 %
1605 05-04-2020 04:21:17 0.4 C 46 %
1606 05-04-2020 04:31:17 0.2 C 46 %
1607 05-04-2020 04:41:17 0.2 C 46 %
1608 05-04-2020 04:51:17 0.2 C 46 %
1609 05-04-2020 05:01:17 0 C 46 %
1610 05-04-2020 05:11:17 -0.3 C 46 %
1611 05-04-2020 05:21:17 -0.2 C 47 %
1612 05-04-2020 05:31:17 -0.3 C 46 %
1613 05-04-2020 05:41:17 -0.4 C 47 %
1614 05-04-2020 05:51:17 -0.5 C 47 %
1615 05-04-2020 06:01:17 -0.4 C 47 %
1616 05-04-2020 06:11:17 -0.5 C 47 %
1617 05-04-2020 06:21:17 -0.6 C 47 %
1618 05-04-2020 06:31:18 -0.8 C 48 %
1619 05-04-2020 06:41:18 -0.8 C 47 %
1620 05-04-2020 06:51:17 -0.8 C 47 %
1621 05-04-2020 07:01:18 -0.9 C 47 %
1622 05-04-2020 07:11:18 -0.7 C 48 %
1623 05-04-2020 07:21:18 -0.6 C 48 %
1624 05-04-2020 07:31:17 -0.5 C 48 %
1625 05-04-2020 07:41:17 -0.5 C 48 %
Sensor: Nr:Datum:Temp:Feuchte:
Aussen-T/F 1626 05-04-2020 07:51:17 -0.4 C 48 %
1627 05-04-2020 08:01:17 -0.3 C 48 %
1628 05-04-2020 08:11:17 0 C 49 %
1629 05-04-2020 08:21:17 0.1 C 48 %
1630 05-04-2020 08:31:17 0.4 C 48 %
1631 05-04-2020 08:41:17 0.5 C 49 %
1632 05-04-2020 08:51:18 0.8 C 49 %
1633 05-04-2020 09:01:17 1.1 C 47 %
1634 05-04-2020 09:11:17 1.4 C 47 %
1635 05-04-2020 09:21:17 1.8 C 47 %
1636 05-04-2020 09:31:17 2.4 C 46 %
1637 05-04-2020 09:41:17 2.8 C 46 %
1638 05-04-2020 09:51:18 3.4 C 44 %
1639 05-04-2020 10:01:18 3.9 C 43 %
1640 05-04-2020 10:11:18 4.5 C 41 %
1641 05-04-2020 10:21:17 5.4 C 40 %
1642 05-04-2020 10:31:17 5.9 C 40 %
1643 05-04-2020 10:41:17 7 C 38 %
1644 05-04-2020 10:51:17 7.9 C 37 %
1645 05-04-2020 11:01:17 8.6 C 36 %
1646 05-04-2020 11:11:17 10.7 C 32 %
1647 05-04-2020 11:21:17 11.2 C 30 %
1648 05-04-2020 11:31:17 13.1 C 21 %
1649 05-04-2020 11:41:17 13.9 C 20 %
1650 05-04-2020 11:51:17 14.8 C 20 %
Sensor: Nr:Datum:Temp:Feuchte:
Aussen-T/F 1651 05-04-2020 12:01:17 15.6 C 20 %
1652 05-04-2020 12:11:17 15.9 C 20 %
1653 05-04-2020 12:21:17 16.7 C 20 %
1654 05-04-2020 12:31:18 17.6 C 20 %
1655 05-04-2020 12:41:18 17.4 C 20 %
1656 05-04-2020 12:51:17 17.4 C 20 %
1657 05-04-2020 13:01:17 17.2 C 20 %
1658 05-04-2020 13:11:17 18.4 C 20 %
1659 05-04-2020 13:21:17 17.5 C 20 %
1660 05-04-2020 13:31:17 17.1 C 20 %
1661 05-04-2020 13:41:17 17.9 C 20 %
1662 05-04-2020 13:51:17 17.7 C 20 %
1663 05-04-2020 14:01:17 17.9 C 20 %
1664 05-04-2020 14:11:17 19 C 20 %
1665 05-04-2020 14:21:17 19.8 C 20 %
1666 05-04-2020 14:31:18 21.7 C 20 %
1667 05-04-2020 14:41:18 23.4 C 20 %
1668 05-04-2020 14:51:18 23.3 C 20 %
1669 05-04-2020 15:01:17 24.7 C 20 %
1670 05-04-2020 15:11:18 26.9 C 20 %
1671 05-04-2020 15:21:17 24.5 C 20 %
1672 05-04-2020 15:31:17 24.8 C 20 %
1673 05-04-2020 15:41:17 25.1 C 20 %
1674 05-04-2020 15:51:18 26.6 C 20 %
1675 05-04-2020 16:01:17 25 C 20 %
Sensor: Nr:Datum:Temp:Feuchte:
Aussen-T/F 1676 05-04-2020 16:11:17 23.3 C 20 %
1677 05-04-2020 16:21:17 25.5 C 20 %
1678 05-04-2020 16:31:17 24.8 C 20 %
1679 05-04-2020 16:41:17 23.1 C 20 %
1680 05-04-2020 16:51:17 23.4 C 20 %
1681 05-04-2020 17:01:17 23.5 C 20 %
1682 05-04-2020 17:11:17 26.4 C 20 %
1683 05-04-2020 17:21:17 25.9 C 20 %
1684 05-04-2020 17:31:17 24.4 C 20 %
1685 05-04-2020 17:41:17 24.2 C 20 %
1686 05-04-2020 17:51:17 23.6 C 20 %
1687 05-04-2020 18:01:17 20.8 C 20 %
1688 05-04-2020 18:11:17 19.7 C 20 %
1689 05-04-2020 18:21:17 20 C 20 %
1690 05-04-2020 18:31:17 19.7 C 20 %
1691 05-04-2020 18:41:17 19.4 C 20 %
1692 05-04-2020 18:51:17 18.9 C 20 %
1693 05-04-2020 19:01:17 18.8 C 20 %
1694 05-04-2020 19:11:17 18.4 C 20 %
1695 05-04-2020 19:21:17 18 C 20 %
1696 05-04-2020 19:31:18 17.5 C 20 %
1697 05-04-2020 19:41:18 16.3 C 20 %
1698 05-04-2020 19:51:17 15 C 20 %
1699 05-04-2020 20:01:18 14.3 C 20 %
1700 05-04-2020 20:11:18 14.1 C 20 %
Sensor: Nr:Datum:Temp:Feuchte:
Aussen-T/F 1701 05-04-2020 20:21:17 13.5 C 20 %
1702 05-04-2020 20:31:17 13.3 C 20 %
1703 05-04-2020 20:41:17 13 C 20 %
1704 05-04-2020 20:51:17 12.7 C 20 %
1705 05-04-2020 21:01:18 12.3 C 20 %
1706 05-04-2020 21:11:18 12 C 20 %
1707 05-04-2020 21:21:17 12.1 C 20 %
1708 05-04-2020 21:31:17 11.7 C 20 %
1709 05-04-2020 21:41:17 11.5 C 20 %
1710 05-04-2020 21:51:17 10.3 C 20 %
1711 05-04-2020 22:01:17 10.5 C 20 %
1712 05-04-2020 22:11:17 9.2 C 25 %
1713 05-04-2020 22:21:17 8.9 C 26 %
1714 05-04-2020 22:31:17 8.8 C 26 %
1715 05-04-2020 22:41:17 8.4 C 27 %
1716 05-04-2020 22:51:17 8.2 C 27 %
1717 05-04-2020 23:01:17 8 C 28 %
1718 05-04-2020 23:11:17 7.4 C 30 %
1719 05-04-2020 23:21:17 7.4 C 29 %
1720 05-04-2020 23:31:17 7 C 30 %
1721 05-04-2020 23:41:17 6.7 C 31 %
1722 05-04-2020 23:51:17 6.3 C 31 %
1723 06-04-2020 00:01:17 6.2 C 32 %
1724 06-04-2020 00:11:17 6.3 C 32 %
1725 06-04-2020 00:21:17 6.3 C 32 %
Sensor: Nr:Datum:Temp:Feuchte:
Aussen-T/F 1726 06-04-2020 00:31:18 6 C 32 %
1727 06-04-2020 00:41:18 5.6 C 33 %
1728 06-04-2020 00:51:17 5.6 C 34 %
1729 06-04-2020 01:01:18 5.4 C 35 %
1730 06-04-2020 01:11:18 5.3 C 35 %
1731 06-04-2020 01:21:17 5.1 C 35 %
1732 06-04-2020 01:31:17 4.8 C 36 %
1733 06-04-2020 01:41:17 4.7 C 36 %
1734 06-04-2020 01:51:17 4.6 C 36 %
1735 06-04-2020 02:01:17 4.5 C 37 %
1736 06-04-2020 02:11:17 4.1 C 37 %
1737 06-04-2020 02:21:17 4.2 C 37 %
1738 06-04-2020 02:31:17 4 C 37 %
1739 06-04-2020 02:41:17 4.1 C 37 %
1740 06-04-2020 02:51:17 3.8 C 38 %
1741 06-04-2020 03:01:17 3.9 C 39 %
1742 06-04-2020 03:11:17 3.6 C 39 %
1743 06-04-2020 03:21:17 3.3 C 39 %
1744 06-04-2020 03:31:18 3.3 C 40 %
1745 06-04-2020 03:41:18 3.2 C 40 %
1746 06-04-2020 03:51:17 3.3 C 40 %
1747 06-04-2020 04:01:17 3.2 C 40 %
1748 06-04-2020 04:11:17 3.3 C 40 %
1749 06-04-2020 04:21:17 3.1 C 40 %
1750 06-04-2020 04:31:17 2.8 C 40 %
Sensor: Nr:Datum:Temp:Feuchte:
Aussen-T/F 1751 06-04-2020 04:41:17 2.6 C 41 %
1752 06-04-2020 04:51:17 2.5 C 41 %
1753 06-04-2020 05:01:17 2.4 C 41 %
1754 06-04-2020 05:11:17 2.3 C 41 %
1755 06-04-2020 05:21:18 2.2 C 41 %
1756 06-04-2020 05:31:17 1.9 C 42 %
1757 06-04-2020 05:41:17 1.8 C 43 %
1758 06-04-2020 05:51:17 1.7 C 43 %
1759 06-04-2020 06:01:17 1.6 C 44 %
1760 06-04-2020 06:11:17 1.5 C 44 %
1761 06-04-2020 06:21:18 1.3 C 45 %
1762 06-04-2020 06:31:17 1.2 C 45 %
1763 06-04-2020 06:41:18 1.3 C 45 %
1764 06-04-2020 06:51:17 1.3 C 45 %
1765 06-04-2020 07:01:17 1.4 C 45 %
1766 06-04-2020 07:11:17 1.5 C 45 %
1767 06-04-2020 07:21:17 1.6 C 45 %
1768 06-04-2020 07:31:18 1.5 C 45 %
1769 06-04-2020 07:41:18 1.6 C 45 %
1770 06-04-2020 07:51:17 2 C 45 %
1771 06-04-2020 08:01:17 1.9 C 45 %
1772 06-04-2020 08:11:17 2.2 C 44 %
1773 06-04-2020 08:21:17 2.5 C 44 %
1774 06-04-2020 08:31:17 3 C 42 %
1775 06-04-2020 08:41:17 3.2 C 42 %
Sensor: Nr:Datum:Temp:Feuchte:
Aussen-T/F 1776 06-04-2020 08:51:17 3.4 C 41 %
1777 06-04-2020 09:01:18 3.5 C 41 %
1778 06-04-2020 09:11:18 3.4 C 41 %
1779 06-04-2020 09:21:17 3.9 C 41 %
1780 06-04-2020 09:31:17 4.3 C 40 %
1781 06-04-2020 09:41:17 4.8 C 40 %
1782 06-04-2020 09:51:18 5.2 C 40 %
1783 06-04-2020 10:01:18 6 C 38 %
1784 06-04-2020 10:11:18 6.5 C 37 %
1785 06-04-2020 10:21:17 7.2 C 36 %
1786 06-04-2020 10:31:17 7.9 C 36 %
1787 06-04-2020 10:41:17 8.8 C 35 %
1788 06-04-2020 10:51:17 9.8 C 34 %
1789 06-04-2020 11:01:17 11.1 C 31 %
1790 06-04-2020 11:11:18 12.2 C 29 %
1791 06-04-2020 11:21:17 13.3 C 26 %
1792 06-04-2020 11:31:17 16 C 20 %
1793 06-04-2020 11:41:17 17.1 C 20 %
1794 06-04-2020 11:51:18 17.6 C 20 %
1795 06-04-2020 12:01:18 18.1 C 20 %
1796 06-04-2020 12:11:18 18.6 C 20 %
1797 06-04-2020 12:21:17 20.3 C 20 %
1798 06-04-2020 12:31:17 21 C 20 %
1799 06-04-2020 12:41:17 19.4 C 20 %
1800 06-04-2020 12:51:17 20.2 C 20 %
Sensor: Nr:Datum:Temp:Feuchte:
Aussen-T/F 1801 06-04-2020 13:01:17 20.6 C 20 %
1802 06-04-2020 13:11:17 20.8 C 20 %
1803 06-04-2020 13:21:17 20.4 C 20 %
1804 06-04-2020 13:31:18 20.3 C 20 %
1805 06-04-2020 13:41:18 21.2 C 20 %
1806 06-04-2020 13:51:17 21.3 C 20 %
1807 06-04-2020 14:01:18 22.3 C 20 %
1808 06-04-2020 14:11:18 22.3 C 20 %
1809 06-04-2020 14:21:17 23.7 C 20 %
1810 06-04-2020 14:31:17 26.8 C 20 %
1811 06-04-2020 14:41:17 27.4 C 20 %
1812 06-04-2020 14:51:18 28.3 C 20 %
1813 06-04-2020 15:01:17 28 C 20 %
1814 06-04-2020 15:11:17 26.6 C 20 %
1815 06-04-2020 15:21:17 27.1 C 20 %
1816 06-04-2020 15:31:17 25.8 C 20 %
1817 06-04-2020 15:41:17 26.9 C 20 %
1818 06-04-2020 15:51:17 27.9 C 20 %
1819 06-04-2020 16:01:17 29.7 C 20 %
1820 06-04-2020 16:11:17 27.4 C 20 %
1821 06-04-2020 16:21:18 27.4 C 20 %
1822 06-04-2020 16:31:18 28.3 C 20 %
1823 06-04-2020 16:41:18 28.5 C 20 %
1824 06-04-2020 16:51:17 27.1 C 20 %
1825 06-04-2020 17:01:17 27.6 C 20 %
Sensor: Nr:Datum:Temp:Feuchte:
Aussen-T/F 1826 06-04-2020 17:11:17 26 C 20 %
1827 06-04-2020 17:21:17 26.7 C 20 %
1828 06-04-2020 17:31:17 25.7 C 20 %
1829 06-04-2020 17:41:17 25.5 C 20 %
1830 06-04-2020 17:51:17 24.2 C 20 %
1831 06-04-2020 18:01:17 23.3 C 20 %
1832 06-04-2020 18:11:17 23.1 C 20 %
1833 06-04-2020 18:21:17 22.6 C 20 %
1834 06-04-2020 18:31:18 22.6 C 20 %
1835 06-04-2020 18:41:18 22.3 C 20 %
1836 06-04-2020 18:51:17 22 C 20 %
1837 06-04-2020 19:01:17 21.7 C 20 %
1838 06-04-2020 19:11:17 21.1 C 20 %
1839 06-04-2020 19:21:17 20.5 C 20 %
1840 06-04-2020 19:31:17 20.2 C 20 %
1841 06-04-2020 19:41:17 19.1 C 20 %
1842 06-04-2020 19:51:17 18.3 C 20 %
1843 06-04-2020 20:01:18 16.4 C 20 %
1844 06-04-2020 20:11:18 16.3 C 20 %
1845 06-04-2020 20:21:17 15.8 C 20 %
1846 06-04-2020 20:31:17 15.3 C 20 %
1847 06-04-2020 20:41:18 15.1 C 20 %
1848 06-04-2020 20:51:17 13.7 C 20 %
1849 06-04-2020 21:01:18 13.2 C 20 %
1850 06-04-2020 21:11:18 12.9 C 20 %
Sensor: Nr:Datum:Temp:Feuchte:
Aussen-T/F 1851 06-04-2020 21:21:17 12 C 20 %
1852 06-04-2020 21:31:18 11.8 C 22 %
1853 06-04-2020 21:41:18 11.6 C 22 %
1854 06-04-2020 21:51:17 11.1 C 22 %
1855 06-04-2020 22:01:17 10.8 C 25 %
1856 06-04-2020 22:11:17 10.6 C 25 %
1857 06-04-2020 22:21:17 10.2 C 25 %
1858 06-04-2020 22:31:17 10 C 26 %
1859 06-04-2020 22:41:17 10 C 26 %
1860 06-04-2020 22:51:17 9.9 C 26 %
1861 06-04-2020 23:01:18 9.8 C 26 %
1862 06-04-2020 23:11:18 9.6 C 26 %
1863 06-04-2020 23:21:17 9.5 C 27 %
1864 06-04-2020 23:31:17 9.4 C 27 %
1865 06-04-2020 23:41:17 9.2 C 27 %
1866 06-04-2020 23:51:17 9.5 C 29 %
1867 07-04-2020 00:01:17 10.2 C 26 %
1868 07-04-2020 00:11:17 9.1 C 29 %
1869 07-04-2020 00:21:18 8.7 C 30 %
1870 07-04-2020 00:31:17 8.8 C 30 %
1871 07-04-2020 00:41:17 9 C 30 %
1872 07-04-2020 00:51:17 8.6 C 30 %
1873 07-04-2020 01:01:17 8.7 C 30 %
1874 07-04-2020 01:11:17 9.1 C 30 %
1875 07-04-2020 01:21:17 9.4 C 30 %
Sensor: Nr:Datum:Temp:Feuchte:
Aussen-T/F 1876 07-04-2020 01:31:17 9.8 C 30 %
1877 07-04-2020 01:41:17 10.1 C 30 %
1878 07-04-2020 01:51:18 10 C 29 %
1879 07-04-2020 02:01:18 9.2 C 30 %
1880 07-04-2020 02:11:18 8.8 C 31 %
1881 07-04-2020 02:21:17 8.2 C 33 %
1882 07-04-2020 02:31:17 7.9 C 34 %
1883 07-04-2020 02:41:17 7.5 C 34 %
1884 07-04-2020 02:51:17 7.2 C 35 %
1885 07-04-2020 03:01:17 7.3 C 35 %
1886 07-04-2020 03:11:17 7.6 C 35 %
1887 07-04-2020 03:21:17 7.9 C 35 %
1888 07-04-2020 03:31:17 8 C 35 %
1889 07-04-2020 03:41:17 7.7 C 36 %
1890 07-04-2020 03:51:17 7.8 C 35 %
1891 07-04-2020 04:01:17 7.8 C 36 %
1892 07-04-2020 04:11:17 7.6 C 36 %
1893 07-04-2020 04:21:17 7.4 C 36 %
1894 07-04-2020 04:31:17 7.2 C 36 %
1895 07-04-2020 04:41:18 6.9 C 37 %
1896 07-04-2020 04:51:17 6.8 C 37 %
1897 07-04-2020 05:01:17 6.3 C 38 %
1898 07-04-2020 05:11:17 6.1 C 38 %
1899 07-04-2020 05:21:18 5.9 C 40 %
1900 07-04-2020 05:31:17 5.8 C 40 %
Sensor: Nr:Datum:Temp:Feuchte:
Aussen-T/F 1901 07-04-2020 05:41:17 5.7 C 40 %
1902 07-04-2020 05:51:17 5.6 C 41 %
1903 07-04-2020 06:01:17 5.6 C 41 %
1904 07-04-2020 06:11:17 5.2 C 40 %
1905 07-04-2020 06:21:17 5.3 C 41 %
1906 07-04-2020 06:31:17 5.2 C 41 %
1907 07-04-2020 06:41:17 5 C 41 %
1908 07-04-2020 06:51:17 4.8 C 42 %
1909 07-04-2020 07:01:18 4.8 C 43 %
1910 07-04-2020 07:11:18 4.7 C 43 %
1911 07-04-2020 07:21:18 4.8 C 44 %
1912 07-04-2020 07:31:17 5 C 43 %
1913 07-04-2020 07:41:18 5.7 C 43 %
1914 07-04-2020 07:51:17 5.8 C 42 %
1915 07-04-2020 08:01:17 5.7 C 41 %
1916 07-04-2020 08:11:18 5.8 C 41 %
1917 07-04-2020 08:21:17 6 C 41 %
1918 07-04-2020 08:31:17 6 C 41 %
1919 07-04-2020 08:41:17 6.3 C 41 %
1920 07-04-2020 08:51:17 6.6 C 41 %
1921 07-04-2020 09:01:17 7.1 C 40 %
1922 07-04-2020 09:11:17 7.3 C 40 %
1923 07-04-2020 09:21:17 7.5 C 40 %
1924 07-04-2020 09:31:17 8 C 39 %
1925 07-04-2020 09:41:18 8.9 C 39 %
Sensor: Nr:Datum:Temp:Feuchte:
Aussen-T/F 1926 07-04-2020 09:51:17 9.3 C 37 %
1927 07-04-2020 10:01:17 9.4 C 38 %
1928 07-04-2020 10:11:18 10 C 37 %
1929 07-04-2020 10:21:17 10.7 C 37 %
1930 07-04-2020 10:31:18 11.4 C 36 %
1931 07-04-2020 10:41:18 12.3 C 35 %
1932 07-04-2020 10:51:17 13.1 C 33 %
1933 07-04-2020 11:01:17 14 C 31 %
1934 07-04-2020 11:11:17 14.6 C 31 %
1935 07-04-2020 11:21:17 15.2 C 30 %
1936 07-04-2020 11:31:17 16 C 28 %
1937 07-04-2020 11:41:17 16.5 C 27 %
1938 07-04-2020 11:51:17 16.9 C 27 %
1939 07-04-2020 12:01:17 17.2 C 26 %
1940 07-04-2020 12:11:17 17.7 C 25 %
1941 07-04-2020 12:21:18 18.7 C 23 %
1942 07-04-2020 12:31:17 20.9 C 21 %
1943 07-04-2020 12:41:17 19.6 C 20 %
1944 07-04-2020 12:51:18 19.6 C 20 %
1945 07-04-2020 13:01:17 20.7 C 20 %
1946 07-04-2020 13:11:17 21.3 C 20 %
1947 07-04-2020 13:21:17 20.8 C 20 %
1948 07-04-2020 13:31:17 19.8 C 20 %
1949 07-04-2020 13:41:17 20.4 C 20 %
1950 07-04-2020 13:51:18 20.6 C 20 %
Sensor: Nr:Datum:Temp:Feuchte:
Aussen-T/F 1951 07-04-2020 14:01:17 21.1 C 20 %
1952 07-04-2020 14:11:17 22 C 20 %
1953 07-04-2020 14:21:17 23.6 C 20 %
1954 07-04-2020 14:31:17 26.2 C 20 %
1955 07-04-2020 14:41:17 22.9 C 20 %
1956 07-04-2020 14:51:17 26.7 C 20 %
1957 07-04-2020 15:01:17 26.4 C 20 %
1958 07-04-2020 15:11:17 27.1 C 20 %
1959 07-04-2020 15:21:17 30.1 C 20 %
1960 07-04-2020 15:31:17 28.4 C 20 %
1961 07-04-2020 15:41:18 27.2 C 20 %
1962 07-04-2020 15:51:17 26.6 C 20 %
1963 07-04-2020 16:01:17 27.4 C 20 %
1964 07-04-2020 16:11:17 25.1 C 20 %
1965 07-04-2020 16:21:17 27.8 C 20 %
1966 07-04-2020 16:31:17 23.9 C 20 %
1967 07-04-2020 16:41:18 24.3 C 20 %
1968 07-04-2020 16:51:18 29.2 C 20 %
1969 07-04-2020 17:01:17 31 C 20 %
1970 07-04-2020 17:11:17 25 C 20 %
1971 07-04-2020 17:21:17 24.2 C 20 %
1972 07-04-2020 17:31:18 24.2 C 20 %
1973 07-04-2020 17:41:18 26.9 C 20 %
1974 07-04-2020 17:51:18 24.6 C 20 %
1975 07-04-2020 18:01:17 23.7 C 20 %
Sensor: Nr:Datum:Temp:Feuchte:
Aussen-T/F 1976 07-04-2020 18:11:17 23.7 C 20 %
1977 07-04-2020 18:21:17 22.9 C 20 %
1978 07-04-2020 18:31:17 22.7 C 20 %
1979 07-04-2020 18:41:17 22.3 C 20 %
1980 07-04-2020 18:51:17 22 C 20 %
1981 07-04-2020 19:01:17 21.8 C 20 %
1982 07-04-2020 19:11:18 21 C 20 %
1983 07-04-2020 19:21:17 20 C 20 %
1984 07-04-2020 19:31:17 19.1 C 20 %
1985 07-04-2020 19:41:17 18.4 C 20 %
1986 07-04-2020 19:51:17 18.3 C 20 %
1987 07-04-2020 20:01:18 17.6 C 20 %
1988 07-04-2020 20:11:18 17.3 C 20 %
1989 07-04-2020 20:21:17 17.1 C 20 %
1990 07-04-2020 20:31:17 16.8 C 20 %
1991 07-04-2020 20:41:17 16.5 C 20 %
1992 07-04-2020 20:51:17 16.3 C 20 %
1993 07-04-2020 21:01:17 16.1 C 20 %
1994 07-04-2020 21:11:17 15.9 C 20 %
1995 07-04-2020 21:21:18 15.8 C 20 %
1996 07-04-2020 21:31:17 15.4 C 21 %
1997 07-04-2020 21:41:17 15.2 C 21 %
1998 07-04-2020 21:51:17 15.1 C 22 %
1999 07-04-2020 22:01:18 14.6 C 25 %
2000 07-04-2020 22:11:18 13.1 C 27 %
Sensor: Nr:Datum:Temp:Feuchte:
Aussen-T/F 2001 07-04-2020 22:21:17 12.9 C 29 %
2002 07-04-2020 22:31:17 12.7 C 30 %
2003 07-04-2020 22:41:17 12.7 C 30 %
2004 07-04-2020 22:51:18 12.7 C 30 %
2005 07-04-2020 23:01:18 12.7 C 30 %
2006 07-04-2020 23:11:18 12.6 C 30 %
2007 07-04-2020 23:21:17 13.1 C 29 %
2008 07-04-2020 23:31:17 12.8 C 30 %
2009 07-04-2020 23:41:17 12.8 C 30 %
2010 07-04-2020 23:51:17 12.3 C 31 %
2011 08-04-2020 00:01:17 11.7 C 33 %
2012 08-04-2020 00:11:17 11.7 C 33 %
2013 08-04-2020 00:21:17 11.5 C 33 %
2014 08-04-2020 00:31:17 11.5 C 33 %
2015 08-04-2020 00:41:17 11.2 C 34 %
2016 08-04-2020 00:51:18 10.8 C 35 %
2017 08-04-2020 01:01:17 10.8 C 36 %
2018 08-04-2020 01:11:17 10.9 C 35 %
2019 08-04-2020 01:21:17 10.4 C 36 %
2020 08-04-2020 01:31:18 10.2 C 36 %
2021 08-04-2020 01:41:18 9.9 C 37 %
2022 08-04-2020 01:51:17 9.6 C 38 %
2023 08-04-2020 02:01:18 9.2 C 38 %
2024 08-04-2020 02:11:18 8.7 C 39 %
2025 08-04-2020 02:21:17 8.5 C 40 %
Sensor: Nr:Datum:Temp:Feuchte:
Aussen-T/F 2026 08-04-2020 02:31:17 8.2 C 40 %
2027 08-04-2020 02:41:18 8 C 40 %
2028 08-04-2020 02:51:17 7.7 C 41 %
2029 08-04-2020 03:01:18 7.4 C 41 %
2030 08-04-2020 03:11:18 7.1 C 41 %
2031 08-04-2020 03:21:17 7.1 C 42 %
2032 08-04-2020 03:31:17 7.1 C 42 %
2033 08-04-2020 03:41:17 6.8 C 43 %
2034 08-04-2020 03:51:17 6.7 C 43 %
2035 08-04-2020 04:01:17 6.6 C 44 %
2036 08-04-2020 04:11:18 6.7 C 44 %
2037 08-04-2020 04:21:17 6.3 C 44 %
2038 08-04-2020 04:31:17 6.3 C 45 %
2039 08-04-2020 04:41:17 6.4 C 45 %
2040 08-04-2020 04:51:17 6.3 C 45 %
2041 08-04-2020 05:01:18 6.1 C 44 %
2042 08-04-2020 05:11:18 5.9 C 45 %
2043 08-04-2020 05:21:17 5.6 C 45 %
2044 08-04-2020 05:31:17 5.4 C 45 %
2045 08-04-2020 05:41:18 5.4 C 45 %
2046 08-04-2020 05:51:17 5.4 C 46 %
2047 08-04-2020 06:01:17 5.3 C 46 %
2048 08-04-2020 06:11:17 5.4 C 46 %
2049 08-04-2020 06:21:17 5.3 C 46 %
2050 08-04-2020 06:31:17 5.3 C 46 %
Sensor: Nr:Datum:Temp:Feuchte:
Aussen-T/F 2051 08-04-2020 06:41:17 5.1 C 46 %
2052 08-04-2020 06:51:18 5 C 46 %
2053 08-04-2020 07:01:18 5 C 46 %
2054 08-04-2020 07:11:18 5.1 C 46 %
2055 08-04-2020 07:21:17 5.2 C 46 %
2056 08-04-2020 07:31:17 5.3 C 46 %
2057 08-04-2020 07:41:17 5.4 C 46 %
2058 08-04-2020 07:51:17 5.8 C 46 %
2059 08-04-2020 08:01:17 5.7 C 46 %
2060 08-04-2020 08:11:17 6 C 46 %
2061 08-04-2020 08:21:17 6.3 C 46 %
2062 08-04-2020 08:31:18 6.3 C 46 %
2063 08-04-2020 08:41:18 6.5 C 46 %
2064 08-04-2020 08:51:18 6.7 C 46 %
2065 08-04-2020 09:01:18 7 C 45 %
2066 08-04-2020 09:11:18 7.1 C 45 %
2067 08-04-2020 09:21:17 7.6 C 45 %
2068 08-04-2020 09:31:17 7.9 C 45 %
2069 08-04-2020 09:41:17 8.3 C 45 %
2070 08-04-2020 09:51:17 8.7 C 44 %
2071 08-04-2020 10:01:17 9.1 C 43 %
2072 08-04-2020 10:11:17 9.7 C 43 %
2073 08-04-2020 10:21:17 10.2 C 41 %
2074 08-04-2020 10:31:18 11 C 40 %
2075 08-04-2020 10:41:18 11.8 C 39 %
Sensor: Nr:Datum:Temp:Feuchte:
Aussen-T/F 2076 08-04-2020 10:51:18 12.6 C 38 %
2077 08-04-2020 11:01:18 13.7 C 36 %
2078 08-04-2020 11:11:18 14.5 C 35 %
2079 08-04-2020 11:21:17 15.5 C 34 %
2080 08-04-2020 11:31:18 16.2 C 32 %
2081 08-04-2020 11:41:18 17.6 C 27 %
2082 08-04-2020 11:51:17 18.6 C 25 %
2083 08-04-2020 12:01:18 19.2 C 22 %
2084 08-04-2020 12:11:18 20.1 C 21 %
2085 08-04-2020 12:21:17 21.2 C 20 %
2086 08-04-2020 12:31:17 22.4 C 20 %
2087 08-04-2020 12:41:17 22.9 C 20 %
2088 08-04-2020 12:51:17 21.8 C 20 %
2089 08-04-2020 13:01:18 22.9 C 20 %
2090 08-04-2020 13:11:18 22.4 C 20 %
2091 08-04-2020 13:21:17 22.1 C 20 %
2092 08-04-2020 13:31:18 22.3 C 20 %
2093 08-04-2020 13:41:18 23.3 C 20 %
2094 08-04-2020 13:51:17 22.6 C 20 %
2095 08-04-2020 14:01:18 23 C 20 %
2096 08-04-2020 14:11:18 23.7 C 20 %
2097 08-04-2020 14:21:17 24.8 C 20 %
2098 08-04-2020 14:31:18 28.3 C 20 %
2099 08-04-2020 14:41:18 28.9 C 20 %
2100 08-04-2020 14:51:17 28.7 C 20 %
Sensor: Nr:Datum:Temp:Feuchte:
Aussen-T/F 2101 08-04-2020 15:01:17 28.7 C 20 %
2102 08-04-2020 15:11:17 30.1 C 20 %
2103 08-04-2020 15:21:18 29.3 C 20 %
2104 08-04-2020 15:31:17 29.5 C 20 %
2105 08-04-2020 15:41:17 29.1 C 20 %
2106 08-04-2020 15:51:17 32.2 C 20 %
2107 08-04-2020 16:01:17 31.1 C 20 %
2108 08-04-2020 16:11:17 29.7 C 20 %
2109 08-04-2020 16:21:18 30.7 C 20 %
2110 08-04-2020 16:31:17 29 C 20 %
2111 08-04-2020 16:41:17 32.6 C 20 %
2112 08-04-2020 16:51:17 29.7 C 20 %
2113 08-04-2020 17:01:17 29.4 C 20 %
2114 08-04-2020 17:11:17 29.7 C 20 %
2115 08-04-2020 17:21:17 30.1 C 20 %
2116 08-04-2020 17:31:17 30.1 C 20 %
2117 08-04-2020 17:41:17 29 C 20 %
2118 08-04-2020 17:51:17 28.1 C 20 %
2119 08-04-2020 18:01:17 26.6 C 20 %
2120 08-04-2020 18:11:17 25.2 C 20 %
2121 08-04-2020 18:21:17 24.7 C 20 %
2122 08-04-2020 18:31:18 24.3 C 20 %
2123 08-04-2020 18:41:18 24.1 C 20 %
2124 08-04-2020 18:51:17 23.8 C 20 %
2125 08-04-2020 19:01:17 23.2 C 20 %
Sensor: Nr:Datum:Temp:Feuchte:
Aussen-T/F 2126 08-04-2020 19:11:17 22.6 C 20 %
2127 08-04-2020 19:21:17 21.4 C 20 %
2128 08-04-2020 19:31:17 20.1 C 20 %
2129 08-04-2020 19:41:17 19.7 C 20 %
2130 08-04-2020 19:51:17 19.2 C 20 %
2131 08-04-2020 20:01:17 18.5 C 20 %
2132 08-04-2020 20:11:17 18 C 20 %
2133 08-04-2020 20:21:18 17.5 C 20 %
2134 08-04-2020 20:31:17 17 C 20 %
2135 08-04-2020 20:41:18 16.2 C 20 %
2136 08-04-2020 20:51:17 15.6 C 20 %
2137 08-04-2020 21:01:18 14.6 C 20 %
2138 08-04-2020 21:11:18 13.9 C 20 %
2139 08-04-2020 21:21:17 14.2 C 20 %
2140 08-04-2020 21:31:17 13.7 C 20 %
2141 08-04-2020 21:41:17 13.5 C 20 %
2142 08-04-2020 21:51:17 13.4 C 20 %
2143 08-04-2020 22:01:17 12.9 C 21 %
2144 08-04-2020 22:11:18 12.7 C 21 %
2145 08-04-2020 22:21:17 12.5 C 24 %
2146 08-04-2020 22:31:17 12.2 C 25 %
2147 08-04-2020 22:41:17 11.8 C 26 %
2148 08-04-2020 22:51:18 11.6 C 26 %
2149 08-04-2020 23:01:17 12 C 25 %
2150 08-04-2020 23:11:17 11.5 C 26 %
Sensor: Nr:Datum:Temp:Feuchte:
Aussen-T/F 2151 08-04-2020 23:21:17 10.9 C 28 %
2152 08-04-2020 23:31:17 10.5 C 29 %
2153 08-04-2020 23:41:17 10.7 C 28 %
2154 08-04-2020 23:51:17 11.2 C 28 %
2155 09-04-2020 00:01:18 10.7 C 29 %
2156 09-04-2020 00:11:18 10.7 C 29 %
2157 09-04-2020 00:21:17 10.3 C 30 %
2158 09-04-2020 00:31:18 10 C 30 %
2159 09-04-2020 00:41:18 10.5 C 30 %
2160 09-04-2020 00:51:17 10.5 C 30 %
2161 09-04-2020 01:01:17 10 C 30 %
2162 09-04-2020 01:11:17 9.6 C 31 %
2163 09-04-2020 01:21:17 9.2 C 32 %
2164 09-04-2020 01:31:17 9.9 C 33 %
2165 09-04-2020 01:41:17 9.3 C 33 %
2166 09-04-2020 01:51:17 9.6 C 33 %
2167 09-04-2020 02:01:17 8.8 C 35 %
2168 09-04-2020 02:11:17 9.1 C 34 %
2169 09-04-2020 02:21:18 9 C 34 %
2170 09-04-2020 02:31:18 8.8 C 35 %
2171 09-04-2020 02:41:18 8.7 C 35 %
2172 09-04-2020 02:51:17 8.8 C 35 %
2173 09-04-2020 03:01:17 9.2 C 34 %
2174 09-04-2020 03:11:17 9.7 C 33 %
2175 09-04-2020 03:21:17 9.5 C 33 %
Sensor: Nr:Datum:Temp:Feuchte:
Aussen-T/F 2176 09-04-2020 03:31:17 9.4 C 34 %
2177 09-04-2020 03:41:17 9.5 C 34 %
2178 09-04-2020 03:51:17 10.2 C 32 %
2179 09-04-2020 04:01:17 9.9 C 34 %
2180 09-04-2020 04:11:17 10.1 C 33 %
2181 09-04-2020 04:21:17 10 C 33 %
2182 09-04-2020 04:31:18 9.4 C 34 %
2183 09-04-2020 04:41:18 9.3 C 35 %
2184 09-04-2020 04:51:17 8.9 C 35 %
2185 09-04-2020 05:01:17 8.7 C 36 %
2186 09-04-2020 05:11:17 8.6 C 35 %
2187 09-04-2020 05:21:17 8.5 C 36 %
2188 09-04-2020 05:31:18 8.2 C 36 %
2189 09-04-2020 05:41:18 8.1 C 36 %
2190 09-04-2020 05:51:17 8.1 C 37 %
2191 09-04-2020 06:01:18 8.1 C 37 %
2192 09-04-2020 06:11:18 7.7 C 38 %
2193 09-04-2020 06:21:17 7.1 C 38 %
2194 09-04-2020 06:31:17 7 C 38 %
2195 09-04-2020 06:41:17 6.6 C 39 %
2196 09-04-2020 06:51:17 6.8 C 40 %
2197 09-04-2020 07:01:17 6.9 C 40 %
2198 09-04-2020 07:11:17 7.3 C 39 %
2199 09-04-2020 07:21:17 7.3 C 39 %
2200 09-04-2020 07:31:17 7 C 39 %
Sensor: Nr:Datum:Temp:Feuchte:
Aussen-T/F 2201 09-04-2020 07:41:17 6.9 C 40 %
2202 09-04-2020 07:51:17 7 C 40 %
2203 09-04-2020 08:01:17 7 C 40 %
2204 09-04-2020 08:11:17 7.3 C 40 %
2205 09-04-2020 08:21:18 7.4 C 40 %
2206 09-04-2020 08:31:17 7.6 C 40 %
2207 09-04-2020 08:41:17 8 C 39 %
2208 09-04-2020 08:51:17 8.3 C 39 %
2209 09-04-2020 09:01:17 8.5 C 38 %
2210 09-04-2020 09:11:17 8.7 C 39 %
2211 09-04-2020 09:21:17 9 C 38 %
2212 09-04-2020 09:31:17 9.3 C 38 %
2213 09-04-2020 09:41:17 9.8 C 37 %
2214 09-04-2020 09:51:17 10.4 C 36 %
2215 09-04-2020 10:01:17 10.8 C 36 %
2216 09-04-2020 10:11:17 11.2 C 35 %
2217 09-04-2020 10:21:17 11.8 C 35 %
2218 09-04-2020 10:31:17 12.6 C 34 %
2219 09-04-2020 10:41:17 13.3 C 32 %
2220 09-04-2020 10:51:18 14.6 C 31 %
2221 09-04-2020 11:01:17 15.4 C 30 %
2222 09-04-2020 11:11:18 16.2 C 28 %
2223 09-04-2020 11:21:17 17 C 25 %
2224 09-04-2020 11:31:17 17.9 C 23 %
2225 09-04-2020 11:41:17 18.5 C 21 %
Sensor: Nr:Datum:Temp:Feuchte:
Aussen-T/F 2226 09-04-2020 11:51:18 19 C 20 %
2227 09-04-2020 12:01:17 19.3 C 20 %
2228 09-04-2020 12:11:17 19.8 C 20 %
2229 09-04-2020 12:21:17 20.7 C 20 %
2230 09-04-2020 12:31:17 22 C 20 %
2231 09-04-2020 12:41:17 23 C 20 %
2232 09-04-2020 12:51:18 22.3 C 20 %
2233 09-04-2020 13:01:17 23.2 C 20 %
2234 09-04-2020 13:11:17 23.3 C 20 %
2235 09-04-2020 13:21:17 22.9 C 20 %
2236 09-04-2020 13:31:17 22.4 C 20 %
2237 09-04-2020 13:41:18 22.6 C 20 %
2238 09-04-2020 13:51:17 22.8 C 20 %
2239 09-04-2020 14:01:17 24.1 C 20 %
2240 09-04-2020 14:11:17 23.8 C 20 %
2241 09-04-2020 14:21:17 24.3 C 20 %
2242 09-04-2020 14:31:17 26.8 C 20 %
2243 09-04-2020 14:41:17 28 C 20 %
2244 09-04-2020 14:51:17 29.2 C 20 %
2245 09-04-2020 15:01:17 28.6 C 20 %
2246 09-04-2020 15:11:17 31.7 C 20 %
2247 09-04-2020 15:21:17 28.2 C 20 %
2248 09-04-2020 15:31:18 28.7 C 20 %
2249 09-04-2020 15:41:18 28.4 C 20 %
2250 09-04-2020 15:51:17 30.1 C 20 %
Sensor: Nr:Datum:Temp:Feuchte:
Aussen-T/F 2251 09-04-2020 16:01:18 29.2 C 20 %
2252 09-04-2020 16:11:18 29.3 C 20 %
2253 09-04-2020 16:21:17 31.4 C 20 %
2254 09-04-2020 16:31:17 28.8 C 20 %
2255 09-04-2020 16:41:17 28.8 C 20 %
2256 09-04-2020 16:51:17 29.2 C 20 %
2257 09-04-2020 17:01:17 28.7 C 20 %
2258 09-04-2020 17:11:17 28.4 C 20 %
2259 09-04-2020 17:21:17 29.8 C 20 %
2260 09-04-2020 17:31:17 28 C 20 %
2261 09-04-2020 17:41:17 27.6 C 20 %
2262 09-04-2020 17:51:18 27.1 C 20 %
2263 09-04-2020 18:01:18 25.2 C 20 %
2264 09-04-2020 18:11:18 24 C 20 %
2265 09-04-2020 18:21:17 23.7 C 20 %
2266 09-04-2020 18:31:17 23.4 C 20 %
2267 09-04-2020 18:41:17 23.5 C 20 %
2268 09-04-2020 18:51:17 22.9 C 20 %
2269 09-04-2020 19:01:18 22.7 C 20 %
2270 09-04-2020 19:11:18 22.4 C 20 %
2271 09-04-2020 19:21:17 21.8 C 20 %
2272 09-04-2020 19:31:17 21.1 C 20 %
2273 09-04-2020 19:41:17 20.6 C 20 %
2274 09-04-2020 19:51:17 20.1 C 20 %
2275 09-04-2020 20:01:17 19.7 C 20 %
Sensor: Nr:Datum:Temp:Feuchte:
Aussen-T/F 2276 09-04-2020 20:11:17 17.9 C 20 %
2277 09-04-2020 20:21:17 16.6 C 20 %
2278 09-04-2020 20:31:17 16.6 C 20 %
2279 09-04-2020 20:41:17 16.1 C 21 %
2280 09-04-2020 20:51:17 16.4 C 20 %
2281 09-04-2020 21:01:17 16.2 C 20 %
2282 09-04-2020 21:11:17 16.4 C 20 %
2283 09-04-2020 21:21:17 16.5 C 20 %
2284 09-04-2020 21:31:17 15.9 C 21 %
2285 09-04-2020 21:41:17 15.4 C 22 %
2286 09-04-2020 21:51:17 15.5 C 22 %
2287 09-04-2020 22:01:17 15.5 C 22 %
2288 09-04-2020 22:11:17 15.2 C 22 %
2289 09-04-2020 22:21:17 15.1 C 22 %
2290 09-04-2020 22:31:18 14.8 C 24 %
2291 09-04-2020 22:41:18 14.6 C 25 %
2292 09-04-2020 22:51:17 14.3 C 25 %
2293 09-04-2020 23:01:18 14.2 C 25 %
2294 09-04-2020 23:11:18 14.2 C 25 %
2295 09-04-2020 23:21:17 13.6 C 26 %
2296 09-04-2020 23:31:17 13.8 C 26 %
2297 09-04-2020 23:41:18 13.7 C 26 %
2298 09-04-2020 23:51:17 12.7 C 28 %
2299 10-04-2020 00:01:17 12.7 C 29 %
2300 10-04-2020 00:11:17 11.7 C 31 %
Sensor: Nr:Datum:Temp:Feuchte:
Aussen-T/F 2301 10-04-2020 00:21:18 11.8 C 31 %
2302 10-04-2020 00:31:18 11.1 C 32 %
2303 10-04-2020 00:41:18 10.7 C 34 %
2304 10-04-2020 00:51:17 10.5 C 34 %
2305 10-04-2020 01:01:17 10.1 C 35 %
2306 10-04-2020 01:11:17 10 C 35 %
2307 10-04-2020 01:21:17 9.7 C 36 %
2308 10-04-2020 01:31:17 9.6 C 36 %
2309 10-04-2020 01:41:17 9.5 C 36 %
2310 10-04-2020 01:51:17 9 C 36 %
2311 10-04-2020 02:01:17 9.2 C 36 %
2312 10-04-2020 02:11:17 8.9 C 37 %
2313 10-04-2020 02:21:18 8.7 C 37 %
2314 10-04-2020 02:31:18 8.6 C 37 %
2315 10-04-2020 02:41:18 8.3 C 38 %
2316 10-04-2020 02:51:17 8.2 C 38 %
2317 10-04-2020 03:01:18 8.3 C 38 %
2318 10-04-2020 03:11:18 7.9 C 39 %
2319 10-04-2020 03:21:17 7.6 C 39 %
2320 10-04-2020 03:31:17 7.4 C 40 %
2321 10-04-2020 03:41:17 7.2 C 40 %
2322 10-04-2020 03:51:17 7.1 C 40 %
2323 10-04-2020 04:01:18 7 C 40 %
2324 10-04-2020 04:11:18 6.8 C 41 %
2325 10-04-2020 04:21:17 6.9 C 41 %
Sensor: Nr:Datum:Temp:Feuchte:
Aussen-T/F 2326 10-04-2020 04:31:17 6.6 C 41 %
2327 10-04-2020 04:41:17 6.6 C 41 %
2328 10-04-2020 04:51:18 6.6 C 41 %
2329 10-04-2020 05:01:17 6.3 C 41 %
2330 10-04-2020 05:11:17 6.3 C 42 %
2331 10-04-2020 05:21:18 6.4 C 42 %
2332 10-04-2020 05:31:17 6.2 C 42 %
2333 10-04-2020 05:41:17 5.9 C 43 %
2334 10-04-2020 05:51:17 5.7 C 43 %
2335 10-04-2020 06:01:17 5.8 C 44 %
2336 10-04-2020 06:11:17 5.8 C 44 %
2337 10-04-2020 06:21:17 5.6 C 44 %
2338 10-04-2020 06:31:18 5.4 C 44 %
2339 10-04-2020 06:41:18 5.4 C 44 %
2340 10-04-2020 06:51:17 5.4 C 44 %
2341 10-04-2020 07:01:18 5.3 C 44 %
2342 10-04-2020 07:11:18 5.3 C 45 %
2343 10-04-2020 07:21:17 5.3 C 45 %
2344 10-04-2020 07:31:18 5.3 C 45 %
2345 10-04-2020 07:41:18 5.3 C 45 %
2346 10-04-2020 07:51:17 5.9 C 46 %
2347 10-04-2020 08:01:17 5.8 C 45 %
2348 10-04-2020 08:11:17 5.8 C 45 %
2349 10-04-2020 08:21:17 6 C 44 %
2350 10-04-2020 08:31:17 6.1 C 45 %
Sensor: Nr:Datum:Temp:Feuchte:
Aussen-T/F 2351 10-04-2020 08:41:17 6.2 C 44 %
2352 10-04-2020 08:51:17 6.5 C 45 %
2353 10-04-2020 09:01:17 6.9 C 45 %
2354 10-04-2020 09:11:17 7.8 C 42 %
2355 10-04-2020 09:21:18 8.2 C 41 %
2356 10-04-2020 09:31:18 8.5 C 40 %
2357 10-04-2020 09:41:18 9.1 C 39 %
2358 10-04-2020 09:51:17 9.4 C 39 %
2359 10-04-2020 10:01:17 9.9 C 38 %
2360 10-04-2020 10:11:17 10.2 C 37 %
2361 10-04-2020 10:21:17 10.8 C 37 %
2362 10-04-2020 10:31:17 11.6 C 36 %
2363 10-04-2020 10:41:17 12.3 C 35 %
2364 10-04-2020 10:51:17 13.4 C 33 %
2365 10-04-2020 11:01:17 14 C 31 %
2366 10-04-2020 11:11:17 14.7 C 31 %
2367 10-04-2020 11:21:17 15.9 C 28 %
2368 10-04-2020 11:31:17 16.3 C 27 %
2369 10-04-2020 11:41:17 16.8 C 26 %
2370 10-04-2020 11:51:17 17.5 C 25 %
2371 10-04-2020 12:01:17 17.9 C 24 %
2372 10-04-2020 12:11:17 18.4 C 21 %
2373 10-04-2020 12:21:17 19.2 C 20 %
2374 10-04-2020 12:31:17 19.7 C 20 %
2375 10-04-2020 12:41:17 20.6 C 20 %
Sensor: Nr:Datum:Temp:Feuchte:
Aussen-T/F 2376 10-04-2020 12:51:17 20.4 C 20 %
2377 10-04-2020 13:01:17 20.8 C 20 %
2378 10-04-2020 13:11:17 20.2 C 20 %
2379 10-04-2020 13:21:17 20.4 C 20 %
2380 10-04-2020 13:31:17 20.2 C 20 %
2381 10-04-2020 13:41:17 20.4 C 20 %
2382 10-04-2020 13:51:17 20.7 C 20 %
2383 10-04-2020 14:01:17 21.7 C 20 %
2384 10-04-2020 14:11:17 21.6 C 20 %
2385 10-04-2020 14:21:18 22 C 20 %
2386 10-04-2020 14:31:18 25.1 C 20 %
2387 10-04-2020 14:41:18 29.1 C 20 %
2388 10-04-2020 14:51:17 27.6 C 20 %
2389 10-04-2020 15:01:17 27.9 C 20 %
2390 10-04-2020 15:11:17 31.6 C 20 %
2391 10-04-2020 15:21:17 30.1 C 20 %
2392 10-04-2020 15:31:17 30.5 C 20 %
2393 10-04-2020 15:41:17 30.2 C 20 %
2394 10-04-2020 15:51:17 29.1 C 20 %
2395 10-04-2020 16:01:17 29.8 C 20 %
2396 10-04-2020 16:11:17 30.3 C 20 %
2397 10-04-2020 16:21:17 28.8 C 20 %
2398 10-04-2020 16:31:17 29.1 C 20 %
2399 10-04-2020 16:41:17 28.3 C 20 %
2400 10-04-2020 16:51:17 30.8 C 20 %
Sensor: Nr:Datum:Temp:Feuchte:
Aussen-T/F 2401 10-04-2020 17:01:17 29.6 C 20 %
2402 10-04-2020 17:11:17 28.8 C 20 %
2403 10-04-2020 17:21:17 26.8 C 20 %
2404 10-04-2020 17:31:17 28.5 C 20 %
2405 10-04-2020 17:41:17 27.6 C 20 %
2406 10-04-2020 17:51:18 26.4 C 20 %
2407 10-04-2020 18:01:17 23.6 C 20 %
2408 10-04-2020 18:11:17 23 C 20 %
2409 10-04-2020 18:21:18 22.5 C 20 %
2410 10-04-2020 18:31:18 22.2 C 20 %
2411 10-04-2020 18:41:18 22.3 C 20 %
2412 10-04-2020 18:51:17 22 C 20 %
2413 10-04-2020 19:01:17 21.6 C 20 %
2414 10-04-2020 19:11:17 21.4 C 20 %
2415 10-04-2020 19:21:17 21.1 C 20 %
2416 10-04-2020 19:31:17 20.9 C 20 %
2417 10-04-2020 19:41:17 20.7 C 20 %
2418 10-04-2020 19:51:18 20.2 C 20 %
2419 10-04-2020 20:01:17 19.6 C 20 %
2420 10-04-2020 20:11:17 18.5 C 20 %
2421 10-04-2020 20:21:18 16 C 20 %
2422 10-04-2020 20:31:17 15.9 C 20 %
2423 10-04-2020 20:41:17 15.3 C 20 %
2424 10-04-2020 20:51:17 15 C 20 %
2425 10-04-2020 21:01:17 15.3 C 20 %
Sensor: Nr:Datum:Temp:Feuchte:
Aussen-T/F 2426 10-04-2020 21:11:17 14.7 C 20 %
2427 10-04-2020 21:21:17 14.3 C 21 %
2428 10-04-2020 21:31:17 13.8 C 21 %
2429 10-04-2020 21:41:17 14.2 C 21 %
2430 10-04-2020 21:51:17 14.3 C 21 %
2431 10-04-2020 22:01:18 14.5 C 21 %
2432 10-04-2020 22:11:18 14.9 C 20 %
2433 10-04-2020 22:21:18 14.5 C 22 %
2434 10-04-2020 22:31:17 14.5 C 22 %
2435 10-04-2020 22:41:17 13.9 C 24 %
2436 10-04-2020 22:51:17 13.1 C 25 %
2437 10-04-2020 23:01:17 12.7 C 25 %
2438 10-04-2020 23:11:17 12.8 C 25 %
2439 10-04-2020 23:21:17 12 C 26 %
2440 10-04-2020 23:31:17 12.2 C 26 %
2441 10-04-2020 23:41:17 11.2 C 28 %
2442 10-04-2020 23:51:17 11.1 C 29 %
2443 11-04-2020 00:01:18 10.5 C 30 %
2444 11-04-2020 00:11:18 10.8 C 30 %
2445 11-04-2020 00:21:17 10.8 C 30 %
2446 11-04-2020 00:31:17 10.1 C 31 %
2447 11-04-2020 00:41:18 9.9 C 32 %
2448 11-04-2020 00:51:18 10 C 31 %
2449 11-04-2020 01:01:17 9.6 C 31 %
2450 11-04-2020 01:11:17 9.6 C 32 %
Sensor: Nr:Datum:Temp:Feuchte:
Aussen-T/F 2451 11-04-2020 01:21:17 9.1 C 32 %
2452 11-04-2020 01:31:18 9.2 C 32 %
2453 11-04-2020 01:41:18 9 C 32 %
2454 11-04-2020 01:51:18 8.7 C 32 %
2455 11-04-2020 02:01:17 8.4 C 32 %
2456 11-04-2020 02:11:17 8.2 C 32 %
2457 11-04-2020 02:21:18 8.1 C 32 %
2458 11-04-2020 02:31:17 8.3 C 32 %
2459 11-04-2020 02:41:17 8.1 C 32 %
2460 11-04-2020 02:51:17 7.9 C 33 %
2461 11-04-2020 03:01:17 8.5 C 31 %
2462 11-04-2020 03:11:17 8.7 C 31 %
2463 11-04-2020 03:21:17 8.8 C 30 %
2464 11-04-2020 03:31:18 8.8 C 30 %
2465 11-04-2020 03:41:18 8.2 C 30 %
2466 11-04-2020 03:51:17 8.6 C 30 %
2467 11-04-2020 04:01:17 8.3 C 30 %
2468 11-04-2020 04:11:17 8.3 C 30 %
2469 11-04-2020 04:21:17 7.7 C 30 %
2470 11-04-2020 04:31:17 7.4 C 30 %
2471 11-04-2020 04:41:17 7.5 C 30 %
2472 11-04-2020 04:51:17 7.6 C 29 %
2473 11-04-2020 05:01:17 7.4 C 29 %
2474 11-04-2020 05:11:17 6.9 C 30 %
2475 11-04-2020 05:21:17 6.8 C 30 %
Sensor: Nr:Datum:Temp:Feuchte:
Aussen-T/F 2476 11-04-2020 05:31:18 6.1 C 31 %
2477 11-04-2020 05:41:18 5.8 C 32 %
2478 11-04-2020 05:51:17 5.7 C 32 %
2479 11-04-2020 06:01:17 5.6 C 32 %
2480 11-04-2020 06:11:17 5 C 33 %
2481 11-04-2020 06:21:17 4.9 C 35 %
2482 11-04-2020 06:31:18 5 C 33 %
2483 11-04-2020 06:41:18 4.6 C 35 %
2484 11-04-2020 06:51:17 4.6 C 35 %
2485 11-04-2020 07:01:18 4.4 C 35 %
2486 11-04-2020 07:11:18 4.5 C 35 %
2487 11-04-2020 07:21:17 4.4 C 35 %
2488 11-04-2020 07:31:18 4.4 C 36 %
2489 11-04-2020 07:41:18 4.7 C 35 %
2490 11-04-2020 07:51:17 5 C 34 %
2491 11-04-2020 08:01:18 5 C 34 %
2492 11-04-2020 08:11:18 5 C 35 %
2493 11-04-2020 08:21:18 5.1 C 35 %
2494 11-04-2020 08:31:18 5.5 C 34 %
2495 11-04-2020 08:41:18 6 C 33 %
2496 11-04-2020 08:51:18 6.4 C 32 %
2497 11-04-2020 09:01:17 6.5 C 33 %
2498 11-04-2020 09:11:18 7.1 C 31 %
2499 11-04-2020 09:21:17 7.3 C 31 %
2500 11-04-2020 09:31:18 7.8 C 31 %
Sensor: Nr:Datum:Temp:Feuchte:
Aussen-T/F 2501 11-04-2020 09:41:18 8.2 C 30 %
2502 11-04-2020 09:51:17 8.6 C 30 %
2503 11-04-2020 10:01:17 9.1 C 29 %
2504 11-04-2020 10:11:17 9.5 C 29 %
2505 11-04-2020 10:21:17 10.2 C 26 %
2506 11-04-2020 10:31:17 10.7 C 27 %
2507 11-04-2020 10:41:17 11.5 C 25 %
2508 11-04-2020 10:51:17 12.3 C 21 %
2509 11-04-2020 11:01:18 12.9 C 20 %
2510 11-04-2020 11:11:18 13.7 C 20 %
2511 11-04-2020 11:21:17 14.5 C 20 %
2512 11-04-2020 11:31:17 15.3 C 20 %
2513 11-04-2020 11:41:18 16 C 20 %
2514 11-04-2020 11:51:17 16.5 C 20 %
2515 11-04-2020 12:01:17 17.2 C 20 %
2516 11-04-2020 12:11:17 17.5 C 20 %
2517 11-04-2020 12:21:18 18.1 C 20 %
2518 11-04-2020 12:31:17 19.1 C 20 %
2519 11-04-2020 12:41:17 19.4 C 20 %
2520 11-04-2020 12:51:17 19.5 C 20 %
2521 11-04-2020 13:01:17 19.6 C 20 %
2522 11-04-2020 13:11:17 19.5 C 20 %
2523 11-04-2020 13:21:17 19.5 C 20 %
2524 11-04-2020 13:31:17 19.6 C 20 %
2525 11-04-2020 13:41:17 19.9 C 20 %
Sensor: Nr:Datum:Temp:Feuchte:
Aussen-T/F 2526 11-04-2020 13:51:17 20.2 C 20 %
2527 11-04-2020 14:01:18 20.9 C 20 %
2528 11-04-2020 14:11:18 21.3 C 20 %
2529 11-04-2020 14:21:17 21.5 C 20 %
2530 11-04-2020 14:31:17 24.4 C 20 %
2531 11-04-2020 14:41:17 27.5 C 20 %
2532 11-04-2020 14:51:18 27.4 C 20 %
2533 11-04-2020 15:01:18 28.6 C 20 %
2534 11-04-2020 15:11:18 30.4 C 20 %
2535 11-04-2020 15:21:17 29.9 C 20 %
2536 11-04-2020 15:31:17 30.4 C 20 %
2537 11-04-2020 15:41:17 31.2 C 20 %
2538 11-04-2020 15:51:18 31.8 C 20 %
2539 11-04-2020 16:01:17 28.5 C 20 %
2540 11-04-2020 16:11:17 31.4 C 20 %
2541 11-04-2020 16:21:18 30.7 C 20 %
2542 11-04-2020 16:31:17 31.5 C 20 %
2543 11-04-2020 16:41:17 31.3 C 20 %
2544 11-04-2020 16:51:17 32.1 C 20 %
2545 11-04-2020 17:01:17 31.8 C 20 %
2546 11-04-2020 17:11:17 29.5 C 20 %
2547 11-04-2020 17:21:17 29.8 C 20 %
2548 11-04-2020 17:31:17 28.7 C 20 %
2549 11-04-2020 17:41:17 26.5 C 20 %
2550 11-04-2020 17:51:17 27.5 C 20 %
Sensor: Nr:Datum:Temp:Feuchte:
Aussen-T/F 2551 11-04-2020 18:01:17 24.2 C 20 %
2552 11-04-2020 18:11:17 23.4 C 20 %
2553 11-04-2020 18:21:17 23.6 C 20 %
2554 11-04-2020 18:31:17 23.6 C 20 %
2555 11-04-2020 18:41:17 23.3 C 20 %
2556 11-04-2020 18:51:17 22.9 C 20 %
2557 11-04-2020 19:01:17 22.9 C 20 %
2558 11-04-2020 19:11:17 22.7 C 20 %
2559 11-04-2020 19:21:18 22 C 20 %
2560 11-04-2020 19:31:17 21.7 C 20 %
2561 11-04-2020 19:41:17 21.2 C 20 %
2562 11-04-2020 19:51:17 18.9 C 20 %
2563 11-04-2020 20:01:17 18 C 20 %
2564 11-04-2020 20:11:17 17.1 C 20 %
2565 11-04-2020 20:21:17 16.6 C 20 %
2566 11-04-2020 20:31:17 16.5 C 20 %
2567 11-04-2020 20:41:17 16.5 C 20 %
2568 11-04-2020 20:51:17 16.2 C 20 %
2569 11-04-2020 21:01:18 16 C 20 %
2570 11-04-2020 21:11:18 15.5 C 20 %
2571 11-04-2020 21:21:18 15.4 C 20 %
2572 11-04-2020 21:31:17 15.1 C 20 %
2573 11-04-2020 21:41:17 14.8 C 20 %
2574 11-04-2020 21:51:17 14.5 C 20 %
2575 11-04-2020 22:01:17 14.3 C 20 %
Sensor: Nr:Datum:Temp:Feuchte:
Aussen-T/F 2576 11-04-2020 22:11:17 14.4 C 20 %
2577 11-04-2020 22:21:17 14 C 20 %
2578 11-04-2020 22:31:18 14 C 21 %
2579 11-04-2020 22:41:18 14.4 C 21 %
2580 11-04-2020 22:51:17 14.4 C 22 %
2581 11-04-2020 23:01:17 13.7 C 23 %
2582 11-04-2020 23:11:17 13 C 24 %
2583 11-04-2020 23:21:18 12.3 C 26 %
2584 11-04-2020 23:31:18 12.1 C 26 %
2585 11-04-2020 23:41:18 11.8 C 27 %
2586 11-04-2020 23:51:17 11.7 C 28 %
2587 12-04-2020 00:01:17 11.6 C 29 %
2588 12-04-2020 00:11:17 11.3 C 28 %
2589 12-04-2020 00:21:17 11.3 C 29 %
2590 12-04-2020 00:31:17 11.5 C 29 %
2591 12-04-2020 00:41:17 11.6 C 29 %
2592 12-04-2020 00:51:17 11.4 C 28 %
2593 12-04-2020 01:01:17 11.3 C 28 %
2594 12-04-2020 01:11:17 11 C 28 %
2595 12-04-2020 01:21:17 10.6 C 29 %
2596 12-04-2020 01:31:18 10.3 C 29 %
2597 12-04-2020 01:41:18 10.2 C 30 %
2598 12-04-2020 01:51:17 10.6 C 29 %
2599 12-04-2020 02:01:18 10.8 C 30 %
2600 12-04-2020 02:11:18 10.7 C 31 %
Sensor: Nr:Datum:Temp:Feuchte:
Aussen-T/F 2601 12-04-2020 02:21:18 10.3 C 31 %
2602 12-04-2020 02:31:17 10.4 C 30 %
2603 12-04-2020 02:41:17 10.2 C 31 %
2604 12-04-2020 02:51:17 10.1 C 31 %
2605 12-04-2020 03:01:17 10.3 C 31 %
2606 12-04-2020 03:11:17 10.2 C 31 %
2607 12-04-2020 03:21:17 10.1 C 32 %
2608 12-04-2020 03:31:17 10 C 32 %
2609 12-04-2020 03:41:18 9.9 C 33 %
2610 12-04-2020 03:51:17 10 C 32 %
2611 12-04-2020 04:01:17 9.8 C 33 %
2612 12-04-2020 04:11:17 9.7 C 33 %
2613 12-04-2020 04:21:17 8.9 C 35 %
2614 12-04-2020 04:31:17 8.8 C 34 %
2615 12-04-2020 04:41:17 8.9 C 35 %
2616 12-04-2020 04:51:17 8.5 C 35 %
2617 12-04-2020 05:01:18 8.2 C 36 %
2618 12-04-2020 05:11:18 8.4 C 36 %
2619 12-04-2020 05:21:17 8.5 C 36 %
2620 12-04-2020 05:31:17 8.2 C 36 %
2621 12-04-2020 05:41:17 8 C 36 %
2622 12-04-2020 05:51:17 7.6 C 37 %
2623 12-04-2020 06:01:17 7.7 C 37 %
2624 12-04-2020 06:11:17 7.5 C 38 %
2625 12-04-2020 06:21:17 7.2 C 38 %
Sensor: Nr:Datum:Temp:Feuchte:
Aussen-T/F 2626 12-04-2020 06:31:17 7.1 C 39 %
2627 12-04-2020 06:41:17 7.2 C 39 %
2628 12-04-2020 06:51:17 7.3 C 39 %
2629 12-04-2020 07:01:17 6.9 C 39 %
2630 12-04-2020 07:11:17 6.7 C 40 %
2631 12-04-2020 07:21:17 6.5 C 40 %
2632 12-04-2020 07:31:17 6.7 C 40 %
2633 12-04-2020 07:41:17 7.1 C 40 %
2634 12-04-2020 07:51:18 7 C 40 %
2635 12-04-2020 08:01:17 7.3 C 40 %
2636 12-04-2020 08:11:17 7.5 C 40 %
2637 12-04-2020 08:21:17 7.5 C 40 %
2638 12-04-2020 08:31:17 7.6 C 40 %
2639 12-04-2020 08:41:18 7.9 C 40 %
2640 12-04-2020 08:51:17 8.2 C 40 %
2641 12-04-2020 09:01:18 8.8 C 39 %
2642 12-04-2020 09:11:18 9.2 C 38 %
2643 12-04-2020 09:21:17 9.5 C 38 %
2644 12-04-2020 09:31:17 10 C 37 %
2645 12-04-2020 09:41:17 10.1 C 37 %
2646 12-04-2020 09:51:17 11 C 36 %
2647 12-04-2020 10:01:17 11.3 C 36 %
2648 12-04-2020 10:11:17 11.7 C 35 %
2649 12-04-2020 10:21:17 12.2 C 35 %
2650 12-04-2020 10:31:18 13.2 C 33 %
Sensor: Nr:Datum:Temp:Feuchte:
Aussen-T/F 2651 12-04-2020 10:41:18 14.4 C 31 %
2652 12-04-2020 10:51:17 14.9 C 31 %
2653 12-04-2020 11:01:17 15.6 C 30 %
2654 12-04-2020 11:11:17 17 C 27 %
2655 12-04-2020 11:21:17 17.6 C 27 %
2656 12-04-2020 11:31:17 18 C 26 %
2657 12-04-2020 11:41:17 18.5 C 24 %
2658 12-04-2020 11:51:17 19.1 C 20 %
2659 12-04-2020 12:01:17 20.6 C 20 %
2660 12-04-2020 12:11:17 20.8 C 20 %
2661 12-04-2020 12:21:17 21.7 C 20 %
2662 12-04-2020 12:31:17 21.6 C 20 %
2663 12-04-2020 12:41:17 21.8 C 20 %
2664 12-04-2020 12:51:18 21.2 C 20 %
2665 12-04-2020 13:01:17 21.7 C 20 %
2666 12-04-2020 13:11:17 21.7 C 20 %
2667 12-04-2020 13:21:17 22 C 20 %
2668 12-04-2020 13:31:17 21.7 C 20 %
2669 12-04-2020 13:41:17 22 C 20 %
2670 12-04-2020 13:51:17 22.1 C 20 %
2671 12-04-2020 14:01:17 22.4 C 20 %
2672 12-04-2020 14:11:17 22.8 C 20 %
2673 12-04-2020 14:21:17 22.9 C 20 %
2674 12-04-2020 14:31:17 26.2 C 20 %
2675 12-04-2020 14:41:17 28.6 C 20 %
Sensor: Nr:Datum:Temp:Feuchte:
Aussen-T/F 2676 12-04-2020 14:51:17 28.5 C 20 %
2677 12-04-2020 15:01:17 30.3 C 20 %
2678 12-04-2020 15:11:17 27.7 C 20 %
2679 12-04-2020 15:21:17 27.9 C 20 %
2680 12-04-2020 15:31:18 30.7 C 20 %
2681 12-04-2020 15:41:18 30.5 C 20 %
2682 12-04-2020 15:51:18 28.3 C 20 %
2683 12-04-2020 16:01:17 30.5 C 20 %
2684 12-04-2020 16:11:17 33.2 C 20 %
2685 12-04-2020 16:21:17 32.8 C 20 %
2686 12-04-2020 16:31:17 27.8 C 20 %
2687 12-04-2020 16:41:17 26 C 20 %
2688 12-04-2020 16:51:17 24.7 C 20 %
2689 12-04-2020 17:01:17 29.6 C 20 %
2690 12-04-2020 17:11:18 29.6 C 20 %
2691 12-04-2020 17:21:17 29.5 C 20 %
2692 12-04-2020 17:31:17 26.5 C 20 %
2693 12-04-2020 17:41:17 29.3 C 20 %
2694 12-04-2020 17:51:17 29.8 C 20 %
2695 12-04-2020 18:01:18 24.6 C 20 %
2696 12-04-2020 18:11:18 24 C 20 %
2697 12-04-2020 18:21:17 24 C 20 %
2698 12-04-2020 18:31:17 23.6 C 20 %
2699 12-04-2020 18:41:17 22.9 C 20 %
2700 12-04-2020 18:51:17 22.4 C 20 %
Sensor: Nr:Datum:Temp:Feuchte:
Aussen-T/F 2701 12-04-2020 19:01:17 22.5 C 20 %
2702 12-04-2020 19:11:17 22.4 C 20 %
2703 12-04-2020 19:21:17 22 C 20 %
2704 12-04-2020 19:31:17 21.6 C 20 %
2705 12-04-2020 19:41:17 20.3 C 20 %
2706 12-04-2020 19:51:18 19.1 C 20 %
2707 12-04-2020 20:01:18 18.2 C 20 %
2708 12-04-2020 20:11:18 17.9 C 20 %
2709 12-04-2020 20:21:17 17.5 C 20 %
2710 12-04-2020 20:31:18 17 C 20 %
2711 12-04-2020 20:41:18 16.8 C 20 %
2712 12-04-2020 20:51:17 16 C 20 %
2713 12-04-2020 21:01:17 15.5 C 20 %
2714 12-04-2020 21:11:17 14 C 20 %
2715 12-04-2020 21:22:17 13.5 C 20 %
2716 12-04-2020 21:31:17 13.2 C 21 %
2717 12-04-2020 21:41:17 13.2 C 20 %
2718 12-04-2020 21:51:17 13.3 C 21 %
2719 12-04-2020 22:01:17 13.4 C 20 %
2720 12-04-2020 22:11:17 13 C 21 %
2721 12-04-2020 22:22:17 12.9 C 22 %
2722 12-04-2020 22:32:17 12.2 C 23 %
2723 12-04-2020 22:42:17 11.8 C 26 %
2724 12-04-2020 22:51:17 11.7 C 25 %
2725 12-04-2020 23:01:18 11.5 C 25 %
Sensor: Nr:Datum:Temp:Feuchte:
Aussen-T/F 2726 12-04-2020 23:11:18 11.1 C 26 %
2727 12-04-2020 23:21:17 10.9 C 27 %
2728 12-04-2020 23:32:17 10.7 C 28 %
2729 12-04-2020 23:41:17 10.3 C 28 %
2730 12-04-2020 23:52:17 10.5 C 28 %
2731 13-04-2020 00:01:17 10.6 C 28 %
2732 13-04-2020 00:11:17 10.4 C 29 %
2733 13-04-2020 00:21:18 10.4 C 30 %
2734 13-04-2020 00:31:17 10.1 C 30 %
2735 13-04-2020 00:41:17 9.9 C 31 %
2736 13-04-2020 00:51:17 9.7 C 31 %
2737 13-04-2020 01:01:18 9.5 C 31 %
2738 13-04-2020 01:11:18 9.4 C 32 %
2739 13-04-2020 01:21:18 9 C 32 %
2740 13-04-2020 01:31:18 9.3 C 32 %
2741 13-04-2020 01:41:18 9.2 C 32 %
2742 13-04-2020 01:51:18 9.3 C 32 %
2743 13-04-2020 02:02:17 9.2 C 32 %
2744 13-04-2020 02:12:17 9.2 C 32 %
2745 13-04-2020 02:21:17 9.1 C 32 %
2746 13-04-2020 02:31:18 9 C 33 %
2747 13-04-2020 02:41:18 8.6 C 34 %
2748 13-04-2020 02:51:17 8.6 C 34 %
2749 13-04-2020 03:01:18 8.4 C 34 %
2750 13-04-2020 03:11:18 8.2 C 35 %
Sensor: Nr:Datum:Temp:Feuchte:
Aussen-T/F 2751 13-04-2020 03:22:17 7.9 C 35 %
2752 13-04-2020 03:32:17 8.1 C 35 %
2753 13-04-2020 03:42:17 8 C 35 %
2754 13-04-2020 03:51:17 7.8 C 35 %
2755 13-04-2020 04:02:17 7.5 C 36 %
2756 13-04-2020 04:12:17 7.2 C 36 %
2757 13-04-2020 04:21:18 6.8 C 38 %
2758 13-04-2020 04:32:17 6.8 C 38 %
2759 13-04-2020 04:41:17 6.7 C 39 %
2760 13-04-2020 04:52:17 7.7 C 37 %
2761 13-04-2020 05:02:17 7.3 C 37 %
2762 13-04-2020 05:12:17 7.5 C 38 %
2763 13-04-2020 05:22:17 7.8 C 38 %
2764 13-04-2020 05:32:17 7.6 C 37 %
2765 13-04-2020 05:42:17 7.4 C 37 %
2766 13-04-2020 05:52:17 7.2 C 38 %
2767 13-04-2020 06:02:17 7.2 C 38 %
2768 13-04-2020 06:12:17 6.6 C 39 %
2769 13-04-2020 06:22:17 6.2 C 39 %
2770 13-04-2020 06:32:17 6.3 C 40 %
2771 13-04-2020 06:42:17 6.3 C 40 %
2772 13-04-2020 06:52:17 6.4 C 40 %
2773 13-04-2020 07:02:17 6.5 C 40 %
2774 13-04-2020 07:12:17 7.2 C 39 %
2775 13-04-2020 07:22:17 7.6 C 38 %
Sensor: Nr:Datum:Temp:Feuchte:
Aussen-T/F 2776 13-04-2020 07:32:17 8.1 C 37 %
2777 13-04-2020 07:42:17 8.3 C 37 %
2778 13-04-2020 07:52:17 8.5 C 37 %
2779 13-04-2020 08:02:17 8.6 C 36 %
2780 13-04-2020 08:12:18 8.9 C 36 %
2781 13-04-2020 08:22:17 9 C 36 %
2782 13-04-2020 08:32:17 9.4 C 36 %
2783 13-04-2020 08:42:17 10.7 C 37 %
2784 13-04-2020 08:52:17 11.1 C 36 %
2785 13-04-2020 09:02:17 10.7 C 37 %
2786 13-04-2020 09:12:17 10.7 C 37 %
2787 13-04-2020 09:22:17 11 C 36 %
2788 13-04-2020 09:32:17 11.5 C 36 %
2789 13-04-2020 09:42:17 11.9 C 35 %
2790 13-04-2020 09:52:17 11.4 C 35 %
2791 13-04-2020 10:02:17 11.2 C 35 %
2792 13-04-2020 10:12:17 11.1 C 35 %
2793 13-04-2020 10:22:17 11 C 34 %
2794 13-04-2020 10:32:17 11.1 C 34 %
2795 13-04-2020 10:42:17 11.3 C 34 %
2796 13-04-2020 10:52:17 11.6 C 33 %
2797 13-04-2020 11:02:17 11.6 C 33 %
2798 13-04-2020 11:12:17 11.4 C 32 %
2799 13-04-2020 11:22:17 11.8 C 32 %
2800 13-04-2020 11:32:17 11.5 C 31 %
Sensor: Nr:Datum:Temp:Feuchte:
Aussen-T/F 2801 13-04-2020 11:42:17 11.1 C 31 %
2802 13-04-2020 11:52:16 10.8 C 32 %
2803 13-04-2020 12:02:17 10.9 C 32 %
2804 13-04-2020 12:12:17 10.5 C 33 %
2805 13-04-2020 12:22:17 10.4 C 33 %
2806 13-04-2020 12:32:17 10.7 C 32 %
2807 13-04-2020 12:42:17 11.1 C 32 %
2808 13-04-2020 12:52:17 10.6 C 32 %
2809 13-04-2020 13:02:16 10.3 C 32 %
2810 13-04-2020 13:12:16 10.2 C 32 %
2811 13-04-2020 13:22:17 10.2 C 32 %
2812 13-04-2020 13:32:17 9.6 C 33 %
2813 13-04-2020 13:42:17 8.6 C 35 %
2814 13-04-2020 13:52:17 7.6 C 39 %
2815 13-04-2020 14:02:17 7.5 C 40 %
2816 13-04-2020 14:12:17 7.7 C 38 %
2817 13-04-2020 14:22:16 8.7 C 36 %
2818 13-04-2020 14:32:17 9.2 C 35 %
2819 13-04-2020 14:42:17 9.6 C 34 %
2820 13-04-2020 14:52:16 10.9 C 31 %
2821 13-04-2020 15:02:17 12.4 C 26 %
2822 13-04-2020 15:12:17 12.3 C 25 %
2823 13-04-2020 15:22:17 12.7 C 20 %
2824 13-04-2020 15:32:17 11.8 C 20 %
2825 13-04-2020 15:42:17 12.4 C 20 %
Sensor: Nr:Datum:Temp:Feuchte:
Aussen-T/F 2826 13-04-2020 15:52:16 13.2 C 20 %
2827 13-04-2020 16:02:16 12.2 C 20 %
2828 13-04-2020 16:12:16 14.4 C 20 %
2829 13-04-2020 16:22:16 15 C 20 %
2830 13-04-2020 16:32:17 16 C 20 %
2831 13-04-2020 16:42:17 14.9 C 20 %
2832 13-04-2020 16:52:16 16.5 C 20 %
2833 13-04-2020 17:02:17 15.2 C 20 %
2834 13-04-2020 17:12:17 15.6 C 20 %
2835 13-04-2020 17:22:16 15 C 20 %
2836 13-04-2020 17:32:16 15 C 20 %
2837 13-04-2020 17:42:16 14.5 C 20 %
2838 13-04-2020 17:52:16 15.4 C 20 %
2839 13-04-2020 18:02:16 13.2 C 20 %
2840 13-04-2020 18:12:16 12.5 C 20 %
2841 13-04-2020 18:22:17 12.1 C 20 %
2842 13-04-2020 18:32:17 11.9 C 20 %
2843 13-04-2020 18:42:18 11.1 C 20 %
2844 13-04-2020 18:52:16 11.1 C 20 %
2845 13-04-2020 19:02:16 10.8 C 20 %
2846 13-04-2020 19:12:16 10.5 C 20 %
2847 13-04-2020 19:22:16 10.2 C 20 %
2848 13-04-2020 19:32:17 10 C 20 %
2849 13-04-2020 19:42:17 9.8 C 20 %
2850 13-04-2020 19:52:16 9.6 C 20 %
Sensor: Nr:Datum:Temp:Feuchte:
Aussen-T/F 2851 13-04-2020 20:02:16 9 C 20 %
2852 13-04-2020 20:12:16 8.6 C 20 %
2853 13-04-2020 20:22:16 8.5 C 20 %
2854 13-04-2020 20:32:16 8.4 C 20 %
2855 13-04-2020 20:42:16 8.2 C 20 %
2856 13-04-2020 20:52:16 7.5 C 20 %
2857 13-04-2020 21:02:16 7.5 C 20 %
2858 13-04-2020 21:12:16 7.4 C 20 %
2859 13-04-2020 21:22:16 7.3 C 20 %
2860 13-04-2020 21:32:17 7.2 C 20 %
2861 13-04-2020 21:42:17 6.7 C 20 %
2862 13-04-2020 21:52:16 6.5 C 20 %
2863 13-04-2020 22:02:16 6.1 C 20 %
2864 13-04-2020 22:12:16 5.5 C 20 %
2865 13-04-2020 22:22:16 5.1 C 20 %
2866 13-04-2020 22:32:16 4.6 C 23 %
2867 13-04-2020 22:42:16 4.4 C 25 %
2868 13-04-2020 22:52:16 4.1 C 25 %
2869 13-04-2020 23:02:16 3.9 C 26 %
2870 13-04-2020 23:12:16 3.8 C 27 %
2871 13-04-2020 23:22:16 3.5 C 30 %
2872 13-04-2020 23:32:17 3.3 C 29 %
2873 13-04-2020 23:42:17 4 C 26 %
2874 13-04-2020 23:52:16 4 C 25 %
2875 14-04-2020 00:02:16 3.3 C 28 %
Sensor: Nr:Datum:Temp:Feuchte:
Aussen-T/F 2876 14-04-2020 00:12:16 4.1 C 25 %
2877 14-04-2020 00:22:16 3.2 C 27 %
2878 14-04-2020 00:32:16 3.3 C 27 %
2879 14-04-2020 00:42:16 2.8 C 29 %
2880 14-04-2020 00:52:16 2.9 C 29 %
2881 14-04-2020 01:02:16 3.1 C 27 %
2882 14-04-2020 01:12:16 3.4 C 27 %
2883 14-04-2020 01:22:16 2.8 C 28 %
2884 14-04-2020 01:32:16 2.1 C 30 %
2885 14-04-2020 01:42:16 1.9 C 33 %
2886 14-04-2020 01:52:16 1.2 C 35 %
2887 14-04-2020 02:02:16 1.6 C 35 %
2888 14-04-2020 02:12:16 1.3 C 35 %
2889 14-04-2020 02:22:16 0.9 C 36 %
2890 14-04-2020 02:32:16 0.8 C 36 %
2891 14-04-2020 02:42:16 1.1 C 35 %
2892 14-04-2020 02:52:18 1 C 35 %
2893 14-04-2020 03:02:18 1.1 C 35 %
2894 14-04-2020 03:12:18 1.1 C 35 %
2895 14-04-2020 03:22:17 0.7 C 36 %
2896 14-04-2020 03:32:18 1.1 C 36 %
2897 14-04-2020 03:42:18 0.9 C 36 %
2898 14-04-2020 03:52:17 1 C 35 %
2899 14-04-2020 04:02:18 0.9 C 36 %
2900 14-04-2020 04:12:18 0.9 C 36 %
Sensor: Nr:Datum:Temp:Feuchte:
Aussen-T/F 2901 14-04-2020 04:22:17 0.6 C 36 %
2902 14-04-2020 04:32:17 0.7 C 36 %
2903 14-04-2020 04:42:17 0.7 C 36 %
2904 14-04-2020 04:52:18 0.6 C 36 %
2905 14-04-2020 05:02:17 0 C 37 %
2906 14-04-2020 05:12:17 0 C 38 %
2907 14-04-2020 05:22:17 0.6 C 38 %
2908 14-04-2020 05:32:17 0.6 C 39 %
2909 14-04-2020 05:42:17 0.7 C 39 %
2910 14-04-2020 05:52:17 0 C 39 %
2911 14-04-2020 06:02:17 -0.2 C 40 %
2912 14-04-2020 06:12:17 -0.7 C 41 %
2913 14-04-2020 06:22:17 -0.9 C 41 %
2914 14-04-2020 06:32:17 -0.4 C 41 %
2915 14-04-2020 06:42:17 -0.1 C 41 %
2916 14-04-2020 06:52:17 0.5 C 41 %
2917 14-04-2020 07:02:17 0.7 C 41 %
2918 14-04-2020 07:12:17 1.1 C 40 %
2919 14-04-2020 07:22:17 1.3 C 39 %
2920 14-04-2020 07:32:17 1.6 C 39 %
2921 14-04-2020 07:42:17 1.8 C 39 %
2922 14-04-2020 07:52:18 2.1 C 37 %
2923 14-04-2020 08:02:17 2.2 C 38 %
2924 14-04-2020 08:12:17 2.3 C 37 %
2925 14-04-2020 08:22:18 1.7 C 39 %
Sensor: Nr:Datum:Temp:Feuchte:
Aussen-T/F 2926 14-04-2020 08:32:17 1.7 C 40 %
2927 14-04-2020 08:42:17 2.2 C 38 %
2928 14-04-2020 08:52:17 2.4 C 38 %
2929 14-04-2020 09:02:18 3 C 37 %
2930 14-04-2020 09:12:18 3.8 C 36 %
2931 14-04-2020 09:22:17 4.7 C 34 %
2932 14-04-2020 09:32:18 5.7 C 32 %
2933 14-04-2020 09:42:18 5.3 C 31 %
2934 14-04-2020 09:52:17 6 C 31 %
2935 14-04-2020 10:02:17 6.6 C 30 %
2936 14-04-2020 10:12:17 5.8 C 30 %
2937 14-04-2020 10:22:17 5.9 C 30 %
2938 14-04-2020 10:32:17 6.7 C 30 %
2939 14-04-2020 10:42:17 7.4 C 26 %
2940 14-04-2020 10:52:18 8.4 C 23 %
2941 14-04-2020 11:02:17 8.2 C 21 %
2942 14-04-2020 11:12:17 8 C 20 %
2943 14-04-2020 11:22:17 7.9 C 20 %
2944 14-04-2020 11:32:17 8.2 C 20 %
2945 14-04-2020 11:42:17 9.1 C 20 %
2946 14-04-2020 11:52:18 8.4 C 20 %
2947 14-04-2020 12:02:17 8.5 C 20 %
2948 14-04-2020 12:12:17 8.6 C 20 %
2949 14-04-2020 12:22:17 8.9 C 20 %
2950 14-04-2020 12:32:17 8.6 C 20 %
Sensor: Nr:Datum:Temp:Feuchte:
Aussen-T/F 2951 14-04-2020 12:42:17 9.8 C 20 %
2952 14-04-2020 12:52:17 10.6 C 20 %
2953 14-04-2020 13:02:18 10.2 C 20 %
2954 14-04-2020 13:12:18 10 C 20 %
2955 14-04-2020 13:22:17 10.4 C 20 %
2956 14-04-2020 13:32:17 10.7 C 20 %
2957 14-04-2020 13:42:17 10 C 20 %
2958 14-04-2020 13:52:18 9.5 C 20 %
2959 14-04-2020 14:02:17 9.8 C 20 %
2960 14-04-2020 14:12:18 10.3 C 20 %
2961 14-04-2020 14:22:18 11.8 C 20 %
2962 14-04-2020 14:32:18 14.5 C 20 %
2963 14-04-2020 14:42:18 17.4 C 20 %
2964 14-04-2020 14:52:17 16.8 C 20 %
2965 14-04-2020 15:02:17 17.6 C 20 %
2966 14-04-2020 15:12:18 21 C 20 %
2967 14-04-2020 15:22:17 14.7 C 20 %
2968 14-04-2020 15:32:17 16.7 C 20 %
2969 14-04-2020 15:42:17 14 C 20 %
2970 14-04-2020 15:52:17 14 C 20 %
2971 14-04-2020 16:02:17 15 C 20 %
2972 14-04-2020 16:12:17 17.2 C 20 %
2973 14-04-2020 16:22:17 17.7 C 20 %
2974 14-04-2020 16:32:18 16.3 C 20 %
2975 14-04-2020 16:42:18 14 C 20 %
Sensor: Nr:Datum:Temp:Feuchte:
Aussen-T/F 2976 14-04-2020 16:52:17 14.5 C 20 %
2977 14-04-2020 17:02:18 12.2 C 20 %
2978 14-04-2020 17:12:18 14.2 C 20 %
2979 14-04-2020 17:22:17 19.2 C 20 %
2980 14-04-2020 17:32:17 16.8 C 20 %
2981 14-04-2020 17:42:18 15.5 C 20 %
2982 14-04-2020 17:52:17 16 C 20 %
2983 14-04-2020 18:02:18 13.4 C 20 %
2984 14-04-2020 18:12:18 12.4 C 20 %
2985 14-04-2020 18:22:17 12.1 C 20 %
2986 14-04-2020 18:32:18 11.9 C 20 %
2987 14-04-2020 18:42:18 11.7 C 20 %
2988 14-04-2020 18:52:17 11.3 C 20 %
2989 14-04-2020 19:02:17 11.2 C 20 %
2990 14-04-2020 19:12:18 11 C 20 %
2991 14-04-2020 19:22:18 10.6 C 20 %
2992 14-04-2020 19:32:18 10.3 C 20 %
2993 14-04-2020 19:42:18 10.1 C 20 %
2994 14-04-2020 19:52:17 9.7 C 20 %
2995 14-04-2020 20:02:17 9.3 C 20 %
2996 14-04-2020 20:12:17 8.9 C 20 %
2997 14-04-2020 20:22:17 7.7 C 20 %
2998 14-04-2020 20:32:17 7 C 23 %
2999 14-04-2020 20:42:18 6.7 C 25 %
3000 14-04-2020 20:52:17 6.8 C 25 %
Sensor: Nr:Datum:Temp:Feuchte:
Aussen-T/F 3001 14-04-2020 21:02:17 6.5 C 25 %
3002 14-04-2020 21:12:17 6.3 C 25 %
3003 14-04-2020 21:22:17 6 C 26 %
3004 14-04-2020 21:32:17 6.1 C 26 %
3005 14-04-2020 21:42:17 5.8 C 27 %
3006 14-04-2020 21:52:17 5.6 C 27 %
3007 14-04-2020 22:02:18 5.6 C 27 %
3008 14-04-2020 22:12:18 5.1 C 29 %
3009 14-04-2020 22:22:17 5.2 C 28 %
3010 14-04-2020 22:32:18 5 C 29 %
3011 14-04-2020 22:42:18 4.7 C 30 %
3012 14-04-2020 22:52:18 4.7 C 30 %
3013 14-04-2020 23:02:18 4.3 C 32 %
3014 14-04-2020 23:12:18 3.6 C 34 %
3015 14-04-2020 23:22:17 3.2 C 35 %
3016 14-04-2020 23:32:17 3 C 35 %
3017 14-04-2020 23:42:17 2.8 C 36 %
3018 14-04-2020 23:52:17 2.6 C 36 %
3019 15-04-2020 00:02:18 2.4 C 37 %
3020 15-04-2020 00:12:18 2.1 C 37 %
3021 15-04-2020 00:22:17 1.7 C 39 %
3022 15-04-2020 00:32:18 1.6 C 39 %
3023 15-04-2020 00:42:18 1.6 C 40 %
3024 15-04-2020 00:52:17 1.6 C 39 %
3025 15-04-2020 01:02:17 1.5 C 40 %
Sensor: Nr:Datum:Temp:Feuchte:
Aussen-T/F 3026 15-04-2020 01:12:17 1.3 C 40 %
3027 15-04-2020 01:22:17 1.2 C 40 %
3028 15-04-2020 01:32:17 1.3 C 40 %
3029 15-04-2020 01:42:17 1.2 C 40 %
3030 15-04-2020 01:52:17 1 C 40 %
3031 15-04-2020 02:02:17 0.8 C 41 %
3032 15-04-2020 02:12:17 0.8 C 42 %
3033 15-04-2020 02:22:17 0.8 C 42 %
3034 15-04-2020 02:32:17 0.7 C 42 %
3035 15-04-2020 02:42:17 0.6 C 42 %
3036 15-04-2020 02:52:17 0.1 C 42 %
3037 15-04-2020 03:02:17 0.2 C 43 %
3038 15-04-2020 03:12:17 0.3 C 43 %
3039 15-04-2020 03:22:17 0.2 C 43 %
3040 15-04-2020 03:32:18 0.5 C 43 %
3041 15-04-2020 03:42:18 0.1 C 43 %
3042 15-04-2020 03:52:18 0 C 43 %
3043 15-04-2020 04:02:18 0.2 C 43 %
3044 15-04-2020 04:12:18 -0.2 C 43 %
3045 15-04-2020 04:22:17 0 C 44 %
3046 15-04-2020 04:32:18 -0.2 C 43 %
3047 15-04-2020 04:42:18 -0.3 C 44 %
3048 15-04-2020 04:52:17 -0.4 C 44 %
3049 15-04-2020 05:02:18 -0.4 C 44 %
3050 15-04-2020 05:12:18 -0.3 C 44 %
Sensor: Nr:Datum:Temp:Feuchte:
Aussen-T/F 3051 15-04-2020 05:22:17 -0.4 C 45 %
3052 15-04-2020 05:32:17 -0.5 C 45 %
3053 15-04-2020 05:42:17 -0.4 C 45 %
3054 15-04-2020 05:52:17 -0.7 C 45 %
3055 15-04-2020 06:02:17 -0.7 C 45 %
3056 15-04-2020 06:12:17 -0.7 C 45 %
3057 15-04-2020 06:22:17 -0.7 C 45 %
3058 15-04-2020 06:32:17 -0.6 C 45 %
3059 15-04-2020 06:42:17 -0.7 C 45 %
3060 15-04-2020 06:52:17 -0.9 C 45 %
3061 15-04-2020 07:02:17 -0.7 C 45 %
3062 15-04-2020 07:12:17 -0.6 C 45 %
3063 15-04-2020 07:22:17 -0.5 C 45 %
3064 15-04-2020 07:32:17 -0.1 C 46 %
3065 15-04-2020 07:42:17 0.1 C 45 %
3066 15-04-2020 07:52:18 0.4 C 45 %
3067 15-04-2020 08:02:17 0.7 C 45 %
3068 15-04-2020 08:12:17 1 C 43 %
3069 15-04-2020 08:22:18 1.4 C 42 %
3070 15-04-2020 08:32:18 1.6 C 41 %
3071 15-04-2020 08:42:18 1.9 C 41 %
3072 15-04-2020 08:52:18 2.4 C 40 %
3073 15-04-2020 09:02:17 2.8 C 40 %
3074 15-04-2020 09:12:17 3 C 38 %
3075 15-04-2020 09:22:18 3.4 C 38 %
Sensor: Nr:Datum:Temp:Feuchte:
Aussen-T/F 3076 15-04-2020 09:32:18 3.5 C 37 %
3077 15-04-2020 09:42:18 4.2 C 36 %
3078 15-04-2020 09:52:17 4.4 C 36 %
3079 15-04-2020 10:02:18 4.9 C 35 %
3080 15-04-2020 10:12:18 5.4 C 35 %
3081 15-04-2020 10:22:18 6.2 C 34 %
3082 15-04-2020 10:32:18 6.9 C 33 %
3083 15-04-2020 10:42:18 7.4 C 31 %
3084 15-04-2020 10:52:18 8.1 C 30 %
3085 15-04-2020 11:02:17 8.5 C 30 %
3086 15-04-2020 11:12:17 9.2 C 29 %
3087 15-04-2020 11:22:18 9.9 C 28 %
3088 15-04-2020 11:32:17 10.4 C 26 %
3089 15-04-2020 11:42:17 11 C 22 %
3090 15-04-2020 11:52:18 11.6 C 20 %
3091 15-04-2020 12:02:17 12.3 C 20 %
3092 15-04-2020 12:12:17 12.2 C 20 %
3093 15-04-2020 12:22:18 13.3 C 20 %
3094 15-04-2020 12:32:18 13.2 C 20 %
3095 15-04-2020 12:42:18 13.3 C 20 %
3096 15-04-2020 12:52:17 13.2 C 20 %
3097 15-04-2020 13:02:17 13.4 C 20 %
3098 15-04-2020 13:12:17 13.5 C 20 %
3099 15-04-2020 13:22:18 13.4 C 20 %
3100 15-04-2020 13:32:18 14.2 C 20 %
Sensor: Nr:Datum:Temp:Feuchte:
Aussen-T/F 3101 15-04-2020 13:42:18 14.4 C 20 %
3102 15-04-2020 13:52:17 14.7 C 20 %
3103 15-04-2020 14:02:17 15.2 C 20 %
3104 15-04-2020 14:12:17 15.5 C 20 %
3105 15-04-2020 14:22:17 16.9 C 20 %
3106 15-04-2020 14:32:17 21.6 C 20 %
3107 15-04-2020 14:42:17 23.9 C 20 %
3108 15-04-2020 14:52:17 25.2 C 20 %
3109 15-04-2020 15:02:18 24.8 C 20 %
3110 15-04-2020 15:12:18 23.5 C 20 %
3111 15-04-2020 15:22:18 24.4 C 20 %
3112 15-04-2020 15:32:18 23.9 C 20 %
3113 15-04-2020 15:42:18 24.5 C 20 %
3114 15-04-2020 15:52:17 24.4 C 20 %
3115 15-04-2020 16:02:18 24.8 C 20 %
3116 15-04-2020 16:12:18 24.6 C 20 %
3117 15-04-2020 16:22:17 23.3 C 20 %
3118 15-04-2020 16:32:18 23.7 C 20 %
3119 15-04-2020 16:42:18 25.4 C 20 %
3120 15-04-2020 16:52:18 25.9 C 20 %
3121 15-04-2020 17:02:17 25.4 C 20 %
3122 15-04-2020 17:12:17 26.8 C 20 %
3123 15-04-2020 17:22:18 24.8 C 20 %
3124 15-04-2020 17:32:17 24 C 20 %
3125 15-04-2020 17:42:17 22.4 C 20 %
Sensor: Nr:Datum:Temp:Feuchte:
Aussen-T/F 3126 15-04-2020 17:52:18 24.4 C 20 %
3127 15-04-2020 18:02:18 20.6 C 20 %
3128 15-04-2020 18:12:18 20.2 C 20 %
3129 15-04-2020 18:22:18 19.7 C 20 %
3130 15-04-2020 18:32:18 19.1 C 20 %
3131 15-04-2020 18:42:18 19.4 C 20 %
3132 15-04-2020 18:52:17 19.4 C 20 %
3133 15-04-2020 19:02:17 18.8 C 20 %
3134 15-04-2020 19:12:17 18.7 C 20 %
3135 15-04-2020 19:22:17 18.2 C 20 %
3136 15-04-2020 19:32:17 18 C 20 %
3137 15-04-2020 19:42:18 17.3 C 20 %
3138 15-04-2020 19:52:17 15.3 C 20 %
3139 15-04-2020 20:02:18 14 C 20 %
3140 15-04-2020 20:12:18 13.6 C 20 %
3141 15-04-2020 20:22:18 13.4 C 20 %
3142 15-04-2020 20:32:17 13.1 C 20 %
3143 15-04-2020 20:42:18 12.7 C 20 %
3144 15-04-2020 20:52:17 12 C 20 %
3145 15-04-2020 21:02:18 12 C 20 %
3146 15-04-2020 21:12:18 11 C 20 %
3147 15-04-2020 21:22:17 11 C 20 %
3148 15-04-2020 21:32:17 10.5 C 20 %
3149 15-04-2020 21:42:17 9.4 C 25 %
3150 15-04-2020 21:52:17 9 C 26 %
Sensor: Nr:Datum:Temp:Feuchte:
Aussen-T/F 3151 15-04-2020 22:02:17 8.9 C 27 %
3152 15-04-2020 22:12:17 8.6 C 28 %
3153 15-04-2020 22:22:17 8.8 C 28 %
3154 15-04-2020 22:32:18 8.1 C 28 %
3155 15-04-2020 22:42:18 7.7 C 29 %
3156 15-04-2020 22:52:17 7.3 C 30 %
3157 15-04-2020 23:02:17 7.1 C 30 %
3158 15-04-2020 23:12:17 7.2 C 30 %
3159 15-04-2020 23:22:17 7 C 30 %
3160 15-04-2020 23:32:17 6.6 C 31 %
3161 15-04-2020 23:42:18 6.4 C 32 %
3162 15-04-2020 23:52:17 6.2 C 32 %
3163 16-04-2020 00:02:17 6.2 C 32 %
3164 16-04-2020 00:12:17 6 C 33 %
3165 16-04-2020 00:22:17 5.8 C 34 %
3166 16-04-2020 00:32:18 5.5 C 35 %
3167 16-04-2020 00:42:18 5.3 C 35 %
3168 16-04-2020 00:52:17 5.2 C 35 %
3169 16-04-2020 01:02:17 4.8 C 35 %
3170 16-04-2020 01:12:17 4.8 C 35 %
3171 16-04-2020 01:22:17 5.1 C 35 %
3172 16-04-2020 01:32:18 5.1 C 35 %
3173 16-04-2020 01:42:18 4.7 C 36 %
3174 16-04-2020 01:52:17 4.8 C 36 %
3175 16-04-2020 02:02:18 4.6 C 36 %
Sensor: Nr:Datum:Temp:Feuchte:
Aussen-T/F 3176 16-04-2020 02:12:18 4.3 C 36 %
3177 16-04-2020 02:22:18 3.9 C 38 %
3178 16-04-2020 02:32:17 4.1 C 38 %
3179 16-04-2020 02:42:17 4 C 38 %
3180 16-04-2020 02:52:17 3.7 C 39 %
3181 16-04-2020 03:02:17 3.6 C 40 %
3182 16-04-2020 03:12:17 3.6 C 39 %
3183 16-04-2020 03:22:17 3.5 C 39 %
3184 16-04-2020 03:32:17 3.3 C 39 %
3185 16-04-2020 03:42:17 3 C 40 %
3186 16-04-2020 03:52:17 2.9 C 41 %
3187 16-04-2020 04:02:17 3.2 C 40 %
3188 16-04-2020 04:12:17 3.2 C 40 %
3189 16-04-2020 04:22:17 2.7 C 41 %
3190 16-04-2020 04:32:18 2.6 C 41 %
3191 16-04-2020 04:42:18 3 C 41 %
3192 16-04-2020 04:52:17 2.6 C 42 %
3193 16-04-2020 05:02:17 2.7 C 42 %
3194 16-04-2020 05:12:17 2.7 C 42 %
3195 16-04-2020 05:22:17 2.6 C 42 %
3196 16-04-2020 05:32:17 2.3 C 42 %
3197 16-04-2020 05:42:17 2 C 42 %
3198 16-04-2020 05:52:17 2.1 C 43 %
3199 16-04-2020 06:02:18 2.4 C 43 %
3200 16-04-2020 06:12:18 2 C 42 %
Sensor: Nr:Datum:Temp:Feuchte:
Aussen-T/F 3201 16-04-2020 06:22:17 1.6 C 44 %
3202 16-04-2020 06:32:17 1.4 C 44 %
3203 16-04-2020 06:42:17 1.8 C 45 %
3204 16-04-2020 06:52:17 1.8 C 45 %
3205 16-04-2020 07:02:17 1.8 C 45 %
3206 16-04-2020 07:12:17 1.8 C 45 %
3207 16-04-2020 07:22:17 2.2 C 44 %
3208 16-04-2020 07:32:17 2.1 C 44 %
3209 16-04-2020 07:42:17 2.1 C 44 %
3210 16-04-2020 07:52:17 2.5 C 44 %
3211 16-04-2020 08:02:17 2.5 C 44 %
3212 16-04-2020 08:12:17 2.6 C 44 %
3213 16-04-2020 08:22:17 3 C 43 %
3214 16-04-2020 08:32:18 3.2 C 42 %
3215 16-04-2020 08:42:18 3.5 C 42 %
3216 16-04-2020 08:52:17 3.6 C 41 %
3217 16-04-2020 09:02:18 3.9 C 41 %
3218 16-04-2020 09:12:18 4.2 C 41 %
3219 16-04-2020 09:22:17 4.5 C 40 %
3220 16-04-2020 09:32:17 5.1 C 40 %
3221 16-04-2020 09:42:17 5.8 C 39 %
3222 16-04-2020 09:52:17 6.6 C 37 %
3223 16-04-2020 10:02:18 7 C 36 %
3224 16-04-2020 10:12:18 7.5 C 36 %
3225 16-04-2020 10:22:17 8.1 C 35 %
Sensor: Nr:Datum:Temp:Feuchte:
Aussen-T/F 3226 16-04-2020 10:32:17 9.4 C 34 %
3227 16-04-2020 10:42:18 10.4 C 31 %
3228 16-04-2020 10:52:17 11.2 C 30 %
3229 16-04-2020 11:02:18 12.2 C 29 %
3230 16-04-2020 11:12:18 14.2 C 25 %
3231 16-04-2020 11:22:17 15.5 C 20 %
3232 16-04-2020 11:32:17 16.8 C 20 %
3233 16-04-2020 11:42:17 17.6 C 20 %
3234 16-04-2020 11:52:17 18 C 20 %
3235 16-04-2020 12:02:18 18.4 C 20 %
3236 16-04-2020 12:12:18 18.7 C 20 %
3237 16-04-2020 12:22:17 19.1 C 20 %
3238 16-04-2020 12:32:18 19.3 C 20 %
3239 16-04-2020 12:42:18 19.5 C 20 %
3240 16-04-2020 12:52:17 19.6 C 20 %
3241 16-04-2020 13:02:18 20.1 C 20 %
3242 16-04-2020 13:12:18 20.5 C 20 %
3243 16-04-2020 13:22:17 20.8 C 20 %
3244 16-04-2020 13:32:18 21.1 C 20 %
3245 16-04-2020 13:42:18 21.5 C 20 %
3246 16-04-2020 13:52:17 21.7 C 20 %
3247 16-04-2020 14:02:17 22 C 20 %
3248 16-04-2020 14:12:17 22.4 C 20 %
3249 16-04-2020 14:22:17 22.8 C 20 %
3250 16-04-2020 14:32:17 26.2 C 20 %
Sensor: Nr:Datum:Temp:Feuchte:
Aussen-T/F 3251 16-04-2020 14:42:17 28 C 20 %
3252 16-04-2020 14:52:17 29.6 C 20 %
3253 16-04-2020 15:02:17 29.8 C 20 %
3254 16-04-2020 15:12:17 29.5 C 20 %
3255 16-04-2020 15:22:17 28.5 C 20 %
3256 16-04-2020 15:32:18 30.1 C 20 %
3257 16-04-2020 15:42:18 25.8 C 20 %
3258 16-04-2020 15:52:17 27.1 C 20 %
3259 16-04-2020 16:02:17 29.5 C 20 %
3260 16-04-2020 16:12:17 28.4 C 20 %
3261 16-04-2020 16:22:17 26.5 C 20 %
3262 16-04-2020 16:32:17 26.6 C 20 %
3263 16-04-2020 16:42:18 27.2 C 20 %
3264 16-04-2020 16:52:17 24.9 C 20 %
3265 16-04-2020 17:02:17 25 C 20 %
3266 16-04-2020 17:12:17 26.1 C 20 %
3267 16-04-2020 17:22:18 28.3 C 20 %
3268 16-04-2020 17:32:17 27.6 C 20 %
3269 16-04-2020 17:42:17 27.3 C 20 %
3270 16-04-2020 17:52:17 26.5 C 20 %
3271 16-04-2020 18:02:17 25.6 C 20 %
3272 16-04-2020 18:12:17 24.3 C 20 %
3273 16-04-2020 18:22:17 24.4 C 20 %
3274 16-04-2020 18:32:17 24.2 C 20 %
3275 16-04-2020 18:42:17 23.9 C 20 %
Sensor: Nr:Datum:Temp:Feuchte:
Aussen-T/F 3276 16-04-2020 18:52:17 24 C 20 %
3277 16-04-2020 19:02:17 23.2 C 20 %
3278 16-04-2020 19:12:17 22.9 C 20 %
3279 16-04-2020 19:22:17 22.2 C 20 %
3280 16-04-2020 19:32:18 21.9 C 20 %
3281 16-04-2020 19:42:18 21.2 C 20 %
3282 16-04-2020 19:52:17 20.5 C 20 %
3283 16-04-2020 20:02:17 19.5 C 20 %
3284 16-04-2020 20:12:17 19.2 C 20 %
3285 16-04-2020 20:22:17 19.3 C 20 %
3286 16-04-2020 20:32:18 19.1 C 20 %
3287 16-04-2020 20:42:18 18.9 C 20 %
3288 16-04-2020 20:52:18 18.5 C 20 %
3289 16-04-2020 21:02:17 17.9 C 20 %
3290 16-04-2020 21:12:17 16.5 C 20 %
3291 16-04-2020 21:22:17 16.1 C 20 %
3292 16-04-2020 21:32:18 15.5 C 20 %
3293 16-04-2020 21:42:18 14.7 C 21 %
3294 16-04-2020 21:52:17 14.4 C 22 %
3295 16-04-2020 22:02:17 14.5 C 22 %
3296 16-04-2020 22:12:17 13.5 C 25 %
3297 16-04-2020 22:22:17 14.1 C 25 %
3298 16-04-2020 22:32:17 13.8 C 25 %
3299 16-04-2020 22:42:18 13.1 C 26 %
3300 16-04-2020 22:52:17 12.4 C 28 %
Sensor: Nr:Datum:Temp:Feuchte:
Aussen-T/F 3301 16-04-2020 23:02:17 12.5 C 29 %
3302 16-04-2020 23:12:17 12.2 C 30 %
3303 16-04-2020 23:22:17 11.7 C 30 %
3304 16-04-2020 23:32:18 11.6 C 31 %
3305 16-04-2020 23:42:18 11.6 C 31 %
3306 16-04-2020 23:52:17 11.8 C 31 %
3307 17-04-2020 00:02:18 11.4 C 31 %
3308 17-04-2020 00:12:18 11 C 31 %
3309 17-04-2020 00:22:17 11 C 32 %
3310 17-04-2020 00:32:17 11 C 32 %
3311 17-04-2020 00:42:17 11 C 32 %
3312 17-04-2020 00:52:18 10.4 C 33 %
3313 17-04-2020 01:02:17 10.1 C 34 %
3314 17-04-2020 01:12:18 10.1 C 34 %
3315 17-04-2020 01:22:18 9.8 C 35 %
3316 17-04-2020 01:32:18 10 C 35 %
3317 17-04-2020 01:42:18 10 C 35 %
3318 17-04-2020 01:52:17 9.5 C 36 %
3319 17-04-2020 02:02:17 9.7 C 36 %
3320 17-04-2020 02:12:17 9.6 C 36 %
3321 17-04-2020 02:22:17 9.1 C 36 %
3322 17-04-2020 02:32:17 8.9 C 37 %
3323 17-04-2020 02:42:17 8.5 C 38 %
3324 17-04-2020 02:52:17 8.1 C 38 %
3325 17-04-2020 03:02:17 7.9 C 39 %
Sensor: Nr:Datum:Temp:Feuchte:
Aussen-T/F 3326 17-04-2020 03:12:18 7.9 C 40 %
3327 17-04-2020 03:22:18 7.8 C 40 %
3328 17-04-2020 03:32:17 7.8 C 40 %
3329 17-04-2020 03:42:18 7.8 C 40 %
3330 17-04-2020 03:52:18 8.5 C 39 %
3331 17-04-2020 04:02:17 8.4 C 39 %
3332 17-04-2020 04:12:17 8.3 C 39 %
3333 17-04-2020 04:22:17 8 C 39 %
3334 17-04-2020 04:32:17 7.9 C 40 %
3335 17-04-2020 04:42:17 8 C 40 %
3336 17-04-2020 04:52:17 7.8 C 40 %
3337 17-04-2020 05:02:17 7.5 C 40 %
3338 17-04-2020 05:12:18 6.9 C 41 %
3339 17-04-2020 05:22:17 6.7 C 42 %
3340 17-04-2020 05:32:18 6.6 C 42 %
3341 17-04-2020 05:42:18 6.7 C 43 %
3342 17-04-2020 05:52:18 6.5 C 42 %
3343 17-04-2020 06:02:18 6.5 C 43 %
3344 17-04-2020 06:12:18 6.2 C 43 %
3345 17-04-2020 06:22:17 6 C 43 %
3346 17-04-2020 06:32:17 6 C 44 %
3347 17-04-2020 06:42:17 5.8 C 44 %
3348 17-04-2020 06:52:17 5.8 C 44 %
3349 17-04-2020 07:02:18 5.8 C 45 %
3350 17-04-2020 07:12:18 5.9 C 45 %
Sensor: Nr:Datum:Temp:Feuchte:
Aussen-T/F 3351 17-04-2020 07:22:18 6.1 C 45 %
3352 17-04-2020 07:32:17 6.1 C 45 %
3353 17-04-2020 07:42:17 6.3 C 45 %
3354 17-04-2020 07:52:17 6.3 C 45 %
3355 17-04-2020 08:02:17 6.5 C 45 %
3356 17-04-2020 08:12:17 6.7 C 45 %
3357 17-04-2020 08:22:17 6.9 C 45 %
3358 17-04-2020 08:32:18 7 C 44 %
3359 17-04-2020 08:42:18 7.6 C 44 %
3360 17-04-2020 08:52:17 7.9 C 44 %
3361 17-04-2020 09:02:18 8.4 C 42 %
3362 17-04-2020 09:12:18 8.6 C 42 %
3363 17-04-2020 09:22:17 8.8 C 41 %
3364 17-04-2020 09:32:17 9.3 C 41 %
3365 17-04-2020 09:42:17 9.6 C 40 %
3366 17-04-2020 09:52:18 10.3 C 39 %
3367 17-04-2020 10:02:17 10.8 C 38 %
3368 17-04-2020 10:12:17 11 C 37 %
3369 17-04-2020 10:22:18 11.8 C 36 %
3370 17-04-2020 10:32:18 12.4 C 35 %
3371 17-04-2020 10:42:18 13 C 34 %
3372 17-04-2020 10:52:17 13.9 C 34 %
3373 17-04-2020 11:02:17 14.6 C 32 %
3374 17-04-2020 11:12:17 15.8 C 30 %
3375 17-04-2020 11:22:18 16.5 C 28 %
Sensor: Nr:Datum:Temp:Feuchte:
Aussen-T/F 3376 17-04-2020 11:32:17 17.1 C 28 %
3377 17-04-2020 11:42:17 17.7 C 26 %
3378 17-04-2020 11:52:17 17.9 C 25 %
3379 17-04-2020 12:02:18 18.5 C 25 %
3380 17-04-2020 12:12:18 18.7 C 24 %
3381 17-04-2020 12:22:17 19.1 C 22 %
3382 17-04-2020 12:32:17 19.7 C 20 %
3383 17-04-2020 12:42:17 19.7 C 20 %
3384 17-04-2020 12:52:17 19.7 C 20 %
3385 17-04-2020 13:02:18 20 C 20 %
3386 17-04-2020 13:12:18 20.4 C 20 %
3387 17-04-2020 13:22:17 20.6 C 20 %
3388 17-04-2020 13:32:17 20.8 C 20 %
3389 17-04-2020 13:42:17 21.1 C 20 %
3390 17-04-2020 13:52:17 21.6 C 20 %
3391 17-04-2020 14:02:18 21.8 C 20 %
3392 17-04-2020 14:12:18 22.6 C 20 %
3393 17-04-2020 14:22:17 23.2 C 20 %
3394 17-04-2020 14:32:17 25.2 C 20 %
3395 17-04-2020 14:42:17 29 C 20 %
3396 17-04-2020 14:52:17 32.1 C 20 %
3397 17-04-2020 15:02:17 30.9 C 20 %
3398 17-04-2020 15:12:17 31.4 C 20 %
3399 17-04-2020 15:22:17 29.6 C 20 %
3400 17-04-2020 15:32:17 29.2 C 20 %
Sensor: Nr:Datum:Temp:Feuchte:
Aussen-T/F 3401 17-04-2020 15:42:17 29 C 20 %
3402 17-04-2020 15:52:18 25.7 C 20 %
3403 17-04-2020 16:02:17 30.3 C 20 %
3404 17-04-2020 16:12:17 30.2 C 20 %
3405 17-04-2020 16:22:17 27.5 C 20 %
3406 17-04-2020 16:32:17 28.2 C 20 %
3407 17-04-2020 16:42:17 28.2 C 20 %
3408 17-04-2020 16:52:17 27.7 C 20 %
3409 17-04-2020 17:02:18 29.6 C 20 %
3410 17-04-2020 17:12:18 29.4 C 20 %
3411 17-04-2020 17:22:17 29.5 C 20 %
3412 17-04-2020 17:32:17 30.4 C 20 %
3413 17-04-2020 17:42:18 27.7 C 20 %
3414 17-04-2020 17:52:17 28.5 C 20 %
3415 17-04-2020 18:02:17 26.6 C 20 %
3416 17-04-2020 18:12:17 26.2 C 20 %
3417 17-04-2020 18:22:17 25.7 C 20 %
3418 17-04-2020 18:32:17 24.8 C 20 %
3419 17-04-2020 18:42:17 24.7 C 20 %
3420 17-04-2020 18:52:18 24.2 C 20 %
3421 17-04-2020 19:02:17 24.1 C 20 %
3422 17-04-2020 19:12:17 23.7 C 20 %
3423 17-04-2020 19:22:17 23 C 20 %
3424 17-04-2020 19:32:17 22.2 C 20 %
3425 17-04-2020 19:42:17 21.7 C 20 %
Sensor: Nr:Datum:Temp:Feuchte:
Aussen-T/F 3426 17-04-2020 19:52:17 20.7 C 20 %
3427 17-04-2020 20:02:17 20 C 20 %
3428 17-04-2020 20:12:17 19.5 C 20 %
3429 17-04-2020 20:22:17 18.8 C 21 %
3430 17-04-2020 20:32:17 18.4 C 21 %
3431 17-04-2020 20:42:17 18.2 C 21 %
3432 17-04-2020 20:52:17 17.7 C 23 %
3433 17-04-2020 21:02:17 17.5 C 23 %
3434 17-04-2020 21:12:17 17.7 C 24 %
3435 17-04-2020 21:22:17 17.6 C 25 %
3436 17-04-2020 21:32:18 17.8 C 24 %
3437 17-04-2020 21:42:18 17 C 25 %
3438 17-04-2020 21:52:18 16.8 C 25 %
3439 17-04-2020 22:02:17 16 C 26 %
3440 17-04-2020 22:12:17 16 C 26 %
3441 17-04-2020 22:22:17 15.8 C 26 %
3442 17-04-2020 22:32:17 15.7 C 26 %
3443 17-04-2020 22:42:17 15.1 C 27 %
3444 17-04-2020 22:52:17 14.6 C 29 %
3445 17-04-2020 23:02:17 14.7 C 30 %
3446 17-04-2020 23:12:17 14.4 C 29 %
3447 17-04-2020 23:22:18 14.1 C 30 %
3448 17-04-2020 23:32:17 14 C 30 %
3449 17-04-2020 23:42:17 13.6 C 31 %
3450 17-04-2020 23:52:17 13.5 C 31 %
Sensor: Nr:Datum:Temp:Feuchte:
Aussen-T/F 3451 18-04-2020 00:02:17 13.4 C 31 %
3452 18-04-2020 00:12:17 13.1 C 32 %
3453 18-04-2020 00:22:18 12.6 C 33 %
3454 18-04-2020 00:32:17 12.2 C 33 %
3455 18-04-2020 00:42:18 12 C 33 %
3456 18-04-2020 00:52:17 11.8 C 34 %
3457 18-04-2020 01:02:18 11.8 C 34 %
3458 18-04-2020 01:12:18 11.8 C 34 %
3459 18-04-2020 01:22:17 11.4 C 34 %
3460 18-04-2020 01:32:18 11.1 C 35 %
3461 18-04-2020 01:42:18 10.9 C 36 %
3462 18-04-2020 01:52:17 10.9 C 36 %
3463 18-04-2020 02:02:18 10.8 C 36 %
3464 18-04-2020 02:12:18 10.6 C 36 %
3465 18-04-2020 02:22:17 10.7 C 36 %
3466 18-04-2020 02:32:17 10.1 C 37 %
3467 18-04-2020 02:42:17 10 C 38 %
3468 18-04-2020 02:52:18 9.8 C 38 %
3469 18-04-2020 03:02:17 9.7 C 39 %
3470 18-04-2020 03:12:17 9.6 C 39 %
3471 18-04-2020 03:22:18 9.2 C 39 %
3472 18-04-2020 03:32:18 9 C 39 %
3473 18-04-2020 03:42:18 9 C 39 %
3474 18-04-2020 03:52:18 8.9 C 40 %
3475 18-04-2020 04:02:17 9 C 40 %
Sensor: Nr:Datum:Temp:Feuchte:
Aussen-T/F 3476 18-04-2020 04:12:17 9 C 40 %
3477 18-04-2020 04:22:17 9 C 40 %
3478 18-04-2020 04:32:18 8.9 C 41 %
3479 18-04-2020 04:42:18 8.8 C 41 %
3480 18-04-2020 04:52:17 8.6 C 41 %
3481 18-04-2020 05:02:17 8.4 C 41 %
3482 18-04-2020 05:12:17 8.5 C 41 %
3483 18-04-2020 05:22:17 8.7 C 40 %
3484 18-04-2020 05:32:17 8.6 C 41 %
3485 18-04-2020 05:42:17 8.3 C 41 %
3486 18-04-2020 05:52:18 8.6 C 41 %
3487 18-04-2020 06:02:17 8.7 C 41 %
3488 18-04-2020 06:12:17 8.6 C 41 %
3489 18-04-2020 06:22:17 8.7 C 41 %
3490 18-04-2020 06:32:17 8.3 C 41 %
3491 18-04-2020 06:42:17 8.1 C 41 %
3492 18-04-2020 06:52:17 8.2 C 41 %
3493 18-04-2020 07:02:17 8.4 C 42 %
3494 18-04-2020 07:12:17 8.7 C 42 %
3495 18-04-2020 07:22:17 9.4 C 42 %
3496 18-04-2020 07:32:17 9.6 C 41 %
3497 18-04-2020 07:42:17 9.7 C 41 %
3498 18-04-2020 07:52:17 9.7 C 41 %
3499 18-04-2020 08:02:18 9.7 C 41 %
3500 18-04-2020 08:12:18 10 C 40 %
Sensor: Nr:Datum:Temp:Feuchte:
Aussen-T/F 3501 18-04-2020 08:22:17 10.1 C 40 %
3502 18-04-2020 08:32:17 10.2 C 40 %
3503 18-04-2020 08:42:18 10.6 C 40 %
3504 18-04-2020 08:52:18 11.1 C 39 %
3505 18-04-2020 09:02:17 11.7 C 38 %
3506 18-04-2020 09:12:17 12.1 C 37 %
3507 18-04-2020 09:22:17 12.5 C 36 %
3508 18-04-2020 09:32:18 13.4 C 35 %
3509 18-04-2020 09:42:18 13.8 C 34 %
3510 18-04-2020 09:52:18 14.4 C 32 %
3511 18-04-2020 10:02:18 15 C 31 %
3512 18-04-2020 10:12:18 14.9 C 31 %
3513 18-04-2020 10:22:18 16.2 C 30 %
3514 18-04-2020 10:32:18 15.8 C 30 %
3515 18-04-2020 10:42:18 17.2 C 29 %
3516 18-04-2020 10:52:18 17.9 C 29 %
3517 18-04-2020 11:02:18 18.5 C 27 %
3518 18-04-2020 11:12:18 18.3 C 27 %
3519 18-04-2020 11:22:17 18.5 C 26 %
3520 18-04-2020 11:32:18 17.8 C 27 %
3521 18-04-2020 11:42:18 18.6 C 26 %
3522 18-04-2020 11:52:18 18.9 C 27 %
3523 18-04-2020 12:02:17 19.1 C 26 %
3524 18-04-2020 12:12:17 20 C 25 %
3525 18-04-2020 12:22:18 20.2 C 24 %
Sensor: Nr:Datum:Temp:Feuchte:
Aussen-T/F 3526 18-04-2020 12:32:18 20.1 C 24 %
3527 18-04-2020 12:42:18 19.6 C 25 %
3528 18-04-2020 12:52:17 19.3 C 25 %
3529 18-04-2020 13:02:17 20.8 C 24 %
3530 18-04-2020 13:12:17 21.8 C 21 %
3531 18-04-2020 13:22:18 21.5 C 20 %
3532 18-04-2020 13:32:18 21.8 C 20 %
3533 18-04-2020 13:42:18 22.4 C 20 %
3534 18-04-2020 13:52:18 21.6 C 20 %
3535 18-04-2020 14:02:18 21.2 C 20 %
3536 18-04-2020 14:12:18 21.7 C 20 %
3537 18-04-2020 14:22:18 22.4 C 20 %
3538 18-04-2020 14:32:17 22.4 C 20 %
3539 18-04-2020 14:42:17 22.8 C 20 %
3540 18-04-2020 14:52:17 22.6 C 20 %
3541 18-04-2020 15:02:17 25.4 C 20 %
3542 18-04-2020 15:12:18 30.4 C 20 %
3543 18-04-2020 15:22:17 28.2 C 20 %
3544 18-04-2020 15:32:17 23.8 C 20 %
3545 18-04-2020 15:42:17 23.2 C 20 %
3546 18-04-2020 15:52:17 22.2 C 20 %
3547 18-04-2020 16:02:18 21.8 C 20 %
3548 18-04-2020 16:12:18 21.8 C 20 %
3549 18-04-2020 16:22:18 20.6 C 20 %
3550 18-04-2020 16:32:17 19.7 C 25 %
Sensor: Nr:Datum:Temp:Feuchte:
Aussen-T/F 3551 18-04-2020 16:42:17 20 C 25 %
3552 18-04-2020 16:52:17 19.9 C 25 %
3553 18-04-2020 17:02:17 19.1 C 26 %
3554 18-04-2020 17:12:17 18.9 C 27 %
3555 18-04-2020 17:22:17 18.7 C 28 %
3556 18-04-2020 17:32:18 17.6 C 33 %
3557 18-04-2020 17:42:18 17.5 C 33 %
3558 18-04-2020 17:52:18 17.4 C 33 %
3559 18-04-2020 18:02:18 17.3 C 34 %
3560 18-04-2020 18:12:18 17.1 C 34 %
3561 18-04-2020 18:22:17 17.3 C 33 %
3562 18-04-2020 18:32:18 17.7 C 31 %
3563 18-04-2020 18:42:18 17.7 C 31 %
3564 18-04-2020 18:52:17 17.9 C 30 %
3565 18-04-2020 19:02:18 18.1 C 30 %
3566 18-04-2020 19:12:18 17.9 C 30 %
3567 18-04-2020 19:22:17 17.6 C 30 %
3568 18-04-2020 19:32:17 17.8 C 30 %
3569 18-04-2020 19:42:17 18.1 C 29 %
3570 18-04-2020 19:52:18 17.7 C 30 %
3571 18-04-2020 20:02:17 17.3 C 30 %
3572 18-04-2020 20:12:17 16.5 C 30 %
3573 18-04-2020 20:22:17 15.9 C 31 %
3574 18-04-2020 20:32:17 15 C 32 %
3575 18-04-2020 20:42:17 14.8 C 34 %
Sensor: Nr:Datum:Temp:Feuchte:
Aussen-T/F 3576 18-04-2020 20:52:17 14.5 C 34 %
3577 18-04-2020 21:02:18 14.5 C 35 %
3578 18-04-2020 21:12:18 14.9 C 34 %
3579 18-04-2020 21:22:17 15 C 33 %
3580 18-04-2020 21:32:17 15.1 C 33 %
3581 18-04-2020 21:42:17 15 C 33 %
3582 18-04-2020 21:52:18 14.8 C 34 %
3583 18-04-2020 22:02:17 14.4 C 34 %
3584 18-04-2020 22:12:17 14.5 C 35 %
3585 18-04-2020 22:22:17 13.7 C 35 %
3586 18-04-2020 22:32:18 13.4 C 36 %
3587 18-04-2020 22:42:18 12.8 C 37 %
3588 18-04-2020 22:52:17 12.8 C 37 %
3589 18-04-2020 23:02:18 12.7 C 38 %
3590 18-04-2020 23:12:18 12.3 C 38 %
3591 18-04-2020 23:22:17 12.1 C 38 %
3592 18-04-2020 23:32:17 11.7 C 40 %
3593 18-04-2020 23:42:17 11.1 C 40 %
3594 18-04-2020 23:52:17 10.9 C 42 %
3595 19-04-2020 00:02:18 10.6 C 43 %
3596 19-04-2020 00:12:18 10.7 C 43 %
3597 19-04-2020 00:22:17 10.2 C 43 %
3598 19-04-2020 00:32:17 10.2 C 43 %
3599 19-04-2020 00:42:17 10.1 C 44 %
3600 19-04-2020 00:52:17 9.8 C 44 %
Sensor: Nr:Datum:Temp:Feuchte:
Aussen-T/F 3601 19-04-2020 01:02:17 9.8 C 45 %
3602 19-04-2020 01:12:17 9.9 C 45 %
3603 19-04-2020 01:22:17 9.6 C 44 %
3604 19-04-2020 01:32:17 9.6 C 45 %
3605 19-04-2020 01:42:17 9.9 C 45 %
3606 19-04-2020 01:52:17 9.5 C 45 %
3607 19-04-2020 02:02:17 9.5 C 45 %
3608 19-04-2020 02:12:18 9.6 C 45 %
3609 19-04-2020 02:22:17 9.7 C 45 %
3610 19-04-2020 02:32:17 10 C 45 %
3611 19-04-2020 02:42:17 10 C 44 %
3612 19-04-2020 02:52:17 9.8 C 45 %
3613 19-04-2020 03:02:17 9.6 C 45 %
3614 19-04-2020 03:12:17 9.3 C 44 %
3615 19-04-2020 03:22:17 9.1 C 45 %
3616 19-04-2020 03:32:17 8.9 C 45 %
3617 19-04-2020 03:42:17 8.7 C 45 %
3618 19-04-2020 03:52:17 8.7 C 45 %
3619 19-04-2020 04:02:17 8.5 C 45 %
3620 19-04-2020 04:12:17 9.2 C 45 %
3621 19-04-2020 04:22:17 9.2 C 45 %
3622 19-04-2020 04:32:17 9.4 C 45 %
3623 19-04-2020 04:42:17 9.6 C 45 %
3624 19-04-2020 04:52:17 9.6 C 45 %
3625 19-04-2020 05:02:17 9.7 C 45 %
Sensor: Nr:Datum:Temp:Feuchte:
Aussen-T/F 3626 19-04-2020 05:12:17 9.6 C 45 %
3627 19-04-2020 05:22:18 9.6 C 45 %
3628 19-04-2020 05:32:17 9.7 C 45 %
3629 19-04-2020 05:42:17 9.7 C 45 %
3630 19-04-2020 05:52:17 9.8 C 45 %
3631 19-04-2020 06:02:17 9.9 C 45 %
3632 19-04-2020 06:12:17 10.1 C 44 %
3633 19-04-2020 06:22:17 10.1 C 44 %
3634 19-04-2020 06:32:17 10.2 C 44 %
3635 19-04-2020 06:42:17 10.2 C 44 %
3636 19-04-2020 06:52:18 10.3 C 44 %
3637 19-04-2020 07:02:18 10.3 C 44 %
3638 19-04-2020 07:12:18 10.4 C 44 %
3639 19-04-2020 07:22:17 10.6 C 44 %
3640 19-04-2020 07:32:18 10.5 C 43 %
3641 19-04-2020 07:42:18 10.6 C 43 %
3642 19-04-2020 07:52:17 10.6 C 43 %
3643 19-04-2020 08:02:17 10.7 C 43 %
3644 19-04-2020 08:12:17 11.3 C 42 %
3645 19-04-2020 08:22:17 11.5 C 41 %
3646 19-04-2020 08:32:17 12 C 40 %
3647 19-04-2020 08:42:17 12.4 C 39 %
3648 19-04-2020 08:52:17 13.2 C 37 %
3649 19-04-2020 09:02:17 12.5 C 38 %
3650 19-04-2020 09:12:18 13 C 37 %
Sensor: Nr:Datum:Temp:Feuchte:
Aussen-T/F 3651 19-04-2020 09:22:18 13.2 C 36 %
3652 19-04-2020 09:32:17 13.5 C 36 %
3653 19-04-2020 09:42:17 13.8 C 36 %
3654 19-04-2020 09:52:17 13.8 C 35 %
3655 19-04-2020 10:02:17 13.7 C 35 %
3656 19-04-2020 10:12:17 14.2 C 35 %
3657 19-04-2020 10:22:17 14.7 C 34 %
3658 19-04-2020 10:32:17 15.5 C 33 %
3659 19-04-2020 10:42:17 16.4 C 31 %
3660 19-04-2020 10:52:17 16.4 C 31 %
3661 19-04-2020 11:02:17 15.7 C 32 %
3662 19-04-2020 11:12:17 14.7 C 33 %
3663 19-04-2020 11:22:17 14.7 C 33 %
3664 19-04-2020 11:32:17 14.4 C 34 %
3665 19-04-2020 11:42:17 14 C 34 %
3666 19-04-2020 11:52:17 13.8 C 35 %
3667 19-04-2020 12:02:17 14.2 C 34 %
3668 19-04-2020 12:12:17 14.7 C 34 %
3669 19-04-2020 12:22:17 16 C 31 %
3670 19-04-2020 12:32:18 16 C 31 %
3671 19-04-2020 12:42:18 16.3 C 30 %
3672 19-04-2020 12:52:17 16.9 C 30 %
3673 19-04-2020 13:02:17 17.4 C 28 %
3674 19-04-2020 13:12:17 16.9 C 29 %
3675 19-04-2020 13:22:17 17.4 C 27 %
Sensor: Nr:Datum:Temp:Feuchte:
Aussen-T/F 3676 19-04-2020 13:32:17 18.8 C 26 %
3677 19-04-2020 13:42:17 19.1 C 25 %
3678 19-04-2020 13:52:17 19.3 C 25 %
3679 19-04-2020 14:02:18 18.8 C 25 %
3680 19-04-2020 14:12:18 18.6 C 25 %
3681 19-04-2020 14:22:17 18.1 C 25 %
3682 19-04-2020 14:32:17 17.4 C 26 %
3683 19-04-2020 14:42:17 18 C 26 %
3684 19-04-2020 14:52:17 17.1 C 26 %
3685 19-04-2020 15:02:18 16.9 C 26 %
3686 19-04-2020 15:12:18 16.6 C 26 %
3687 19-04-2020 15:22:17 17 C 25 %
3688 19-04-2020 15:32:17 17.2 C 25 %
3689 19-04-2020 15:42:18 17.8 C 25 %
3690 19-04-2020 15:52:18 18.1 C 24 %
3691 19-04-2020 16:02:17 19.2 C 22 %
3692 19-04-2020 16:12:17 22.2 C 20 %
3693 19-04-2020 16:22:17 20.2 C 20 %
3694 19-04-2020 16:32:17 18.6 C 20 %
3695 19-04-2020 16:42:17 20.5 C 20 %
3696 19-04-2020 16:52:17 21.3 C 20 %
3697 19-04-2020 17:02:17 17.5 C 20 %
3698 19-04-2020 17:12:17 18.6 C 20 %
3699 19-04-2020 17:22:17 19.7 C 20 %
3700 19-04-2020 17:32:18 18.9 C 20 %
Sensor: Nr:Datum:Temp:Feuchte:
Aussen-T/F 3701 19-04-2020 17:42:18 19.2 C 20 %
3702 19-04-2020 17:52:17 18.6 C 20 %
3703 19-04-2020 18:02:18 17.4 C 20 %
3704 19-04-2020 18:12:18 17.3 C 20 %
3705 19-04-2020 18:22:17 17.3 C 20 %
3706 19-04-2020 18:32:17 17.3 C 20 %
3707 19-04-2020 18:42:17 16.8 C 20 %
3708 19-04-2020 18:52:17 16.8 C 20 %
3709 19-04-2020 19:02:17 16.8 C 20 %
3710 19-04-2020 19:12:17 16.7 C 20 %
3711 19-04-2020 19:22:17 16.3 C 20 %
3712 19-04-2020 19:32:18 16 C 20 %
3713 19-04-2020 19:42:18 15.6 C 20 %
3714 19-04-2020 19:52:17 15.1 C 20 %
3715 19-04-2020 20:02:18 14.7 C 20 %
3716 19-04-2020 20:12:18 13.7 C 23 %
3717 19-04-2020 20:22:17 13.3 C 24 %
3718 19-04-2020 20:32:17 13 C 25 %
3719 19-04-2020 20:42:17 12.5 C 26 %
3720 19-04-2020 20:52:17 12.3 C 26 %
3721 19-04-2020 21:02:18 12 C 26 %
3722 19-04-2020 21:12:18 12 C 26 %
3723 19-04-2020 21:22:17 11.7 C 27 %
3724 19-04-2020 21:32:17 11.5 C 27 %
3725 19-04-2020 21:42:17 11.4 C 27 %
Sensor: Nr:Datum:Temp:Feuchte:
Aussen-T/F 3726 19-04-2020 21:52:17 11 C 27 %
3727 19-04-2020 22:02:17 11.2 C 26 %
3728 19-04-2020 22:12:17 11 C 26 %
3729 19-04-2020 22:22:17 11.1 C 26 %
3730 19-04-2020 22:32:17 10.9 C 26 %
3731 19-04-2020 22:42:17 10.3 C 26 %
3732 19-04-2020 22:52:17 10.2 C 26 %
3733 19-04-2020 23:02:18 11.1 C 25 %
3734 19-04-2020 23:12:18 10.1 C 25 %
3735 19-04-2020 23:22:18 9.7 C 27 %
3736 19-04-2020 23:32:17 10.3 C 22 %
3737 19-04-2020 23:42:17 10.3 C 25 %
3738 19-04-2020 23:52:17 10.3 C 23 %
3739 20-04-2020 00:02:17 10.1 C 25 %
3740 20-04-2020 00:12:17 9.6 C 25 %
3741 20-04-2020 00:22:17 10.1 C 21 %
3742 20-04-2020 00:32:18 9.9 C 23 %
3743 20-04-2020 00:42:18 9.6 C 25 %
3744 20-04-2020 00:52:18 9.3 C 25 %
3745 20-04-2020 01:02:17 9.8 C 23 %
3746 20-04-2020 01:12:17 9.3 C 23 %
3747 20-04-2020 01:22:17 9.1 C 21 %
3748 20-04-2020 01:32:17 9.6 C 21 %
3749 20-04-2020 01:42:17 9.1 C 21 %
3750 20-04-2020 01:52:17 8.5 C 25 %
Sensor: Nr:Datum:Temp:Feuchte:
Aussen-T/F 3751 20-04-2020 02:02:18 8.1 C 26 %
3752 20-04-2020 02:12:18 7.9 C 26 %
3753 20-04-2020 02:22:17 7.5 C 27 %
3754 20-04-2020 02:32:18 7.3 C 27 %
3755 20-04-2020 02:42:18 7.3 C 27 %
3756 20-04-2020 02:52:17 7.3 C 27 %
3757 20-04-2020 03:02:17 7 C 27 %
3758 20-04-2020 03:12:17 6.9 C 28 %
3759 20-04-2020 03:22:17 6.7 C 29 %
3760 20-04-2020 03:32:17 6.9 C 28 %
3761 20-04-2020 03:42:17 6.9 C 28 %
3762 20-04-2020 03:52:17 6.7 C 29 %
3763 20-04-2020 04:02:17 6.6 C 28 %
3764 20-04-2020 04:12:17 6.5 C 28 %
3765 20-04-2020 04:22:17 6.4 C 29 %
3766 20-04-2020 04:32:18 6.4 C 28 %
3767 20-04-2020 04:42:18 6.4 C 28 %
3768 20-04-2020 04:52:17 6.2 C 29 %
3769 20-04-2020 05:02:18 6.4 C 29 %
3770 20-04-2020 05:12:18 6.3 C 29 %
3771 20-04-2020 05:22:17 6.3 C 29 %
3772 20-04-2020 05:32:17 6.2 C 30 %
3773 20-04-2020 05:42:18 6.3 C 29 %
3774 20-04-2020 05:52:17 6.3 C 29 %
3775 20-04-2020 06:02:18 6 C 30 %
Sensor: Nr:Datum:Temp:Feuchte:
Aussen-T/F 3776 20-04-2020 06:12:18 5.9 C 30 %
3777 20-04-2020 06:22:17 5.9 C 30 %
3778 20-04-2020 06:32:17 6.1 C 30 %
3779 20-04-2020 06:42:17 6.1 C 30 %
3780 20-04-2020 06:52:17 5.9 C 30 %
3781 20-04-2020 07:02:17 6.1 C 30 %
3782 20-04-2020 07:12:17 6.2 C 30 %
3783 20-04-2020 07:22:17 6.2 C 30 %
3784 20-04-2020 07:32:17 6.4 C 30 %
3785 20-04-2020 07:42:17 7.2 C 27 %
3786 20-04-2020 07:52:17 7.4 C 27 %
3787 20-04-2020 08:02:18 7.3 C 27 %
3788 20-04-2020 08:12:18 7.9 C 26 %
3789 20-04-2020 08:22:17 7.8 C 27 %
3790 20-04-2020 08:32:17 7.7 C 28 %
3791 20-04-2020 08:42:18 7.9 C 26 %
3792 20-04-2020 08:52:18 8.1 C 26 %
3793 20-04-2020 09:02:17 8.3 C 26 %
3794 20-04-2020 09:12:17 8.2 C 27 %
3795 20-04-2020 09:22:17 8.4 C 27 %
3796 20-04-2020 09:32:17 9 C 25 %
3797 20-04-2020 09:42:17 9.4 C 25 %
3798 20-04-2020 09:52:18 9.4 C 26 %
3799 20-04-2020 10:02:18 9.9 C 26 %
3800 20-04-2020 10:12:18 10.7 C 22 %
Sensor: Nr:Datum:Temp:Feuchte:
Aussen-T/F 3801 20-04-2020 10:22:17 11.4 C 20 %
3802 20-04-2020 10:32:17 12.1 C 20 %
3803 20-04-2020 10:42:18 12.7 C 20 %
3804 20-04-2020 10:52:17 13.1 C 20 %
3805 20-04-2020 11:02:18 13.7 C 20 %
3806 20-04-2020 11:12:18 14 C 20 %
3807 20-04-2020 11:22:17 14.4 C 20 %
3808 20-04-2020 11:32:17 14.7 C 20 %
3809 20-04-2020 11:42:18 14.8 C 20 %
3810 20-04-2020 11:52:17 15 C 20 %
3811 20-04-2020 12:02:17 15.2 C 20 %
3812 20-04-2020 12:12:17 15 C 20 %
3813 20-04-2020 12:22:17 15 C 20 %
3814 20-04-2020 12:32:17 15.1 C 20 %
3815 20-04-2020 12:42:17 15.1 C 20 %
3816 20-04-2020 12:52:17 15.4 C 20 %
3817 20-04-2020 13:02:17 15.4 C 20 %
3818 20-04-2020 13:12:17 16 C 20 %
3819 20-04-2020 13:22:17 15.8 C 20 %
3820 20-04-2020 13:32:17 16.1 C 20 %
3821 20-04-2020 13:42:17 16.1 C 20 %
3822 20-04-2020 13:52:17 16.8 C 20 %
3823 20-04-2020 14:02:17 16.9 C 20 %
3824 20-04-2020 14:12:17 17.3 C 20 %
3825 20-04-2020 14:22:17 18.3 C 20 %
Sensor: Nr:Datum:Temp:Feuchte:
Aussen-T/F 3826 20-04-2020 14:32:18 21 C 20 %
3827 20-04-2020 14:42:18 23 C 20 %
3828 20-04-2020 14:52:18 23.2 C 20 %
3829 20-04-2020 15:02:17 22.9 C 20 %
3830 20-04-2020 15:12:17 21.8 C 20 %
3831 20-04-2020 15:22:17 22.9 C 20 %
3832 20-04-2020 15:32:17 23.3 C 20 %
3833 20-04-2020 15:42:17 24.7 C 20 %
3834 20-04-2020 15:52:17 22.5 C 20 %
3835 20-04-2020 16:02:17 24.5 C 20 %
3836 20-04-2020 16:12:17 22.7 C 20 %
3837 20-04-2020 16:22:17 23 C 20 %
3838 20-04-2020 16:32:17 23.5 C 20 %
3839 20-04-2020 16:42:17 23.6 C 20 %
3840 20-04-2020 16:52:17 23.4 C 20 %
3841 20-04-2020 17:02:17 23.7 C 20 %
3842 20-04-2020 17:12:17 22.3 C 20 %
3843 20-04-2020 17:22:17 21.6 C 20 %
3844 20-04-2020 17:32:17 20.4 C 20 %
3845 20-04-2020 17:42:17 22.4 C 20 %
3846 20-04-2020 17:52:17 20.9 C 20 %
3847 20-04-2020 18:02:18 19.1 C 20 %
3848 20-04-2020 18:12:18 19 C 20 %
3849 20-04-2020 18:22:18 18.5 C 20 %
3850 20-04-2020 18:32:17 18.4 C 20 %
Sensor: Nr:Datum:Temp:Feuchte:
Aussen-T/F 3851 20-04-2020 18:42:18 18.2 C 20 %
3852 20-04-2020 18:52:18 18.3 C 20 %
3853 20-04-2020 19:02:17 17.8 C 20 %
3854 20-04-2020 19:12:17 17.6 C 20 %
3855 20-04-2020 19:22:17 17.2 C 20 %
3856 20-04-2020 19:32:17 17 C 20 %
3857 20-04-2020 19:42:17 16.6 C 20 %
3858 20-04-2020 19:52:17 16.3 C 20 %
3859 20-04-2020 20:02:17 16 C 20 %
3860 20-04-2020 20:12:17 15.6 C 20 %
3861 20-04-2020 20:22:17 15 C 20 %
3862 20-04-2020 20:32:17 14.4 C 20 %
3863 20-04-2020 20:42:17 14.5 C 20 %
3864 20-04-2020 20:52:17 13.8 C 20 %
3865 20-04-2020 21:02:17 13.7 C 20 %
3866 20-04-2020 21:12:17 12.9 C 20 %
3867 20-04-2020 21:22:17 12.6 C 20 %
3868 20-04-2020 21:32:17 12 C 20 %
3869 20-04-2020 21:42:17 12.2 C 20 %
3870 20-04-2020 21:52:17 12.6 C 20 %
3871 20-04-2020 22:02:17 11.8 C 20 %
3872 20-04-2020 22:12:17 11.9 C 20 %
3873 20-04-2020 22:22:17 12.1 C 20 %
3874 20-04-2020 22:32:17 12.2 C 20 %
3875 20-04-2020 22:42:17 11.9 C 20 %
Sensor: Nr:Datum:Temp:Feuchte:
Aussen-T/F 3876 20-04-2020 22:52:18 11.5 C 20 %
3877 20-04-2020 23:02:17 11.5 C 20 %
3878 20-04-2020 23:12:17 11.6 C 20 %
3879 20-04-2020 23:22:17 11 C 20 %
3880 20-04-2020 23:32:18 11.6 C 20 %
3881 20-04-2020 23:42:18 11 C 20 %
3882 20-04-2020 23:52:17 11 C 20 %
3883 21-04-2020 00:02:17 10.9 C 20 %
3884 21-04-2020 00:12:17 10.3 C 20 %
3885 21-04-2020 00:22:17 10.4 C 20 %
3886 21-04-2020 00:32:17 9.9 C 20 %
3887 21-04-2020 00:42:17 10.5 C 20 %
3888 21-04-2020 00:52:17 10 C 20 %
3889 21-04-2020 01:02:18 9.4 C 20 %
3890 21-04-2020 01:12:18 8.9 C 20 %
3891 21-04-2020 01:22:18 9 C 20 %
3892 21-04-2020 01:32:18 8.9 C 20 %
3893 21-04-2020 01:42:18 9.2 C 20 %
3894 21-04-2020 01:52:17 8.4 C 20 %
3895 21-04-2020 02:02:17 9.2 C 20 %
3896 21-04-2020 02:12:18 9.1 C 20 %
3897 21-04-2020 02:22:17 9.1 C 20 %
3898 21-04-2020 02:32:18 8.9 C 20 %
3899 21-04-2020 02:42:18 9.2 C 20 %
3900 21-04-2020 02:52:17 9 C 20 %
Sensor: Nr:Datum:Temp:Feuchte:
Aussen-T/F 3901 21-04-2020 03:02:17 9.3 C 20 %
3902 21-04-2020 03:12:17 9.1 C 20 %
3903 21-04-2020 03:22:18 9.2 C 20 %
3904 21-04-2020 03:32:17 9.1 C 20 %
3905 21-04-2020 03:42:17 8.3 C 20 %
3906 21-04-2020 03:52:18 8.6 C 20 %
3907 21-04-2020 04:02:18 8.1 C 20 %
3908 21-04-2020 04:12:18 7.4 C 23 %
3909 21-04-2020 04:22:17 7.8 C 20 %
3910 21-04-2020 04:32:17 7.7 C 23 %
3911 21-04-2020 04:42:17 7.5 C 25 %
3912 21-04-2020 04:52:17 7.5 C 25 %
3913 21-04-2020 05:02:17 7.1 C 25 %
3914 21-04-2020 05:12:17 7.7 C 25 %
3915 21-04-2020 05:22:17 7.3 C 25 %
3916 21-04-2020 05:32:18 7 C 25 %
3917 21-04-2020 05:42:18 6.8 C 26 %
3918 21-04-2020 05:52:17 6.5 C 27 %
3919 21-04-2020 06:02:17 6.9 C 27 %
3920 21-04-2020 06:12:17 6.6 C 27 %
3921 21-04-2020 06:22:18 6.6 C 27 %
3922 21-04-2020 06:32:18 6.3 C 28 %
3923 21-04-2020 06:42:18 6.4 C 28 %
3924 21-04-2020 06:52:17 6.3 C 29 %
3925 21-04-2020 07:02:18 6.1 C 30 %
Sensor: Nr:Datum:Temp:Feuchte:
Aussen-T/F 3926 21-04-2020 07:12:18 6.2 C 29 %
3927 21-04-2020 07:22:17 6.3 C 30 %
3928 21-04-2020 07:32:17 6.5 C 30 %
3929 21-04-2020 07:42:17 7.3 C 27 %
3930 21-04-2020 07:52:17 6.9 C 29 %
3931 21-04-2020 08:02:17 7.4 C 27 %
3932 21-04-2020 08:12:17 7.7 C 26 %
3933 21-04-2020 08:22:17 7.6 C 26 %
3934 21-04-2020 08:32:17 7.2 C 28 %
3935 21-04-2020 08:42:18 7.5 C 27 %
3936 21-04-2020 08:52:17 8.3 C 27 %
3937 21-04-2020 09:02:17 8.7 C 25 %
3938 21-04-2020 09:12:17 9.2 C 23 %
3939 21-04-2020 09:22:17 9.7 C 21 %
3940 21-04-2020 09:32:17 10.2 C 20 %
3941 21-04-2020 09:42:17 10.7 C 20 %
3942 21-04-2020 09:52:17 10.9 C 20 %
3943 21-04-2020 10:02:17 10.9 C 20 %
3944 21-04-2020 10:12:17 11.7 C 20 %
3945 21-04-2020 10:22:17 12.2 C 20 %
3946 21-04-2020 10:32:17 12.8 C 20 %
3947 21-04-2020 10:42:17 13.2 C 20 %
3948 21-04-2020 10:52:17 13.5 C 20 %
3949 21-04-2020 11:02:17 13.9 C 20 %
3950 21-04-2020 11:12:17 14.6 C 20 %
Sensor: Nr:Datum:Temp:Feuchte:
Aussen-T/F 3951 21-04-2020 11:22:17 14.6 C 20 %
3952 21-04-2020 11:32:18 14.7 C 20 %
3953 21-04-2020 11:42:18 15.2 C 20 %
3954 21-04-2020 11:52:18 15.7 C 20 %
3955 21-04-2020 12:02:17 16.4 C 20 %
3956 21-04-2020 12:12:18 16.1 C 20 %
3957 21-04-2020 12:22:17 16.1 C 20 %
3958 21-04-2020 12:32:17 16.2 C 20 %
3959 21-04-2020 12:42:17 16.4 C 20 %
3960 21-04-2020 12:52:17 16.6 C 20 %
3961 21-04-2020 13:02:17 16.9 C 20 %
3962 21-04-2020 13:12:17 17.4 C 20 %
3963 21-04-2020 13:22:17 17.2 C 20 %
3964 21-04-2020 13:32:17 17.3 C 20 %
3965 21-04-2020 13:42:17 17.9 C 20 %
3966 21-04-2020 13:52:17 18.1 C 20 %
3967 21-04-2020 14:02:17 18.5 C 20 %
3968 21-04-2020 14:12:17 19 C 20 %
3969 21-04-2020 14:22:17 19.4 C 20 %
3970 21-04-2020 14:32:17 22 C 20 %
3971 21-04-2020 14:42:17 24.4 C 20 %
3972 21-04-2020 14:52:17 24.2 C 20 %
3973 21-04-2020 15:02:17 24.5 C 20 %
3974 21-04-2020 15:12:17 22.2 C 20 %
3975 21-04-2020 15:22:17 23.7 C 20 %
Sensor: Nr:Datum:Temp:Feuchte:
Aussen-T/F 3976 21-04-2020 15:32:18 23.2 C 20 %
3977 21-04-2020 15:42:18 24 C 20 %
3978 21-04-2020 15:52:17 23.4 C 20 %
3979 21-04-2020 16:02:18 22.8 C 20 %
3980 21-04-2020 16:12:18 23.2 C 20 %
3981 21-04-2020 16:22:17 22.9 C 20 %
3982 21-04-2020 16:32:17 23.2 C 20 %
3983 21-04-2020 16:42:17 24.3 C 20 %
3984 21-04-2020 16:52:17 22.8 C 20 %
3985 21-04-2020 17:02:17 23.6 C 20 %
3986 21-04-2020 17:12:17 24.8 C 20 %
3987 21-04-2020 17:22:18 22.8 C 20 %
3988 21-04-2020 17:32:17 21.9 C 20 %
3989 21-04-2020 17:42:17 22.3 C 20 %
3990 21-04-2020 17:52:17 22.9 C 20 %
3991 21-04-2020 18:02:18 21.1 C 20 %
3992 21-04-2020 18:12:18 20.9 C 20 %
3993 21-04-2020 18:22:17 20.5 C 20 %
3994 21-04-2020 18:32:17 20.3 C 20 %
3995 21-04-2020 18:42:17 20 C 20 %
3996 21-04-2020 18:52:18 20 C 20 %
3997 21-04-2020 19:02:17 19.6 C 20 %
3998 21-04-2020 19:12:17 19.4 C 20 %
3999 21-04-2020 19:22:17 19.1 C 20 %
4000 21-04-2020 19:32:18 18.9 C 20 %
Sensor: Nr:Datum:Temp:Feuchte:
Aussen-T/F 4001 21-04-2020 19:42:18 18.7 C 20 %
4002 21-04-2020 19:52:17 18.3 C 20 %
4003 21-04-2020 20:02:17 17.9 C 20 %
4004 21-04-2020 20:12:17 17.4 C 20 %
4005 21-04-2020 20:22:17 16.7 C 20 %
4006 21-04-2020 20:32:17 16.2 C 20 %
4007 21-04-2020 20:42:17 15.5 C 20 %
4008 21-04-2020 20:52:17 14.8 C 20 %
4009 21-04-2020 21:02:18 14.2 C 20 %
4010 21-04-2020 21:12:18 14.5 C 20 %
4011 21-04-2020 21:22:17 14.1 C 20 %
4012 21-04-2020 21:32:17 13.9 C 20 %
4013 21-04-2020 21:42:17 13.2 C 20 %
4014 21-04-2020 21:52:18 12.9 C 20 %
4015 21-04-2020 22:02:17 13.2 C 20 %
4016 21-04-2020 22:12:17 13 C 20 %
4017 21-04-2020 22:22:17 13.4 C 20 %
4018 21-04-2020 22:32:17 12.6 C 20 %
4019 21-04-2020 22:42:17 12 C 20 %
4020 21-04-2020 22:52:18 11.8 C 20 %
4021 21-04-2020 23:02:18 12.1 C 20 %
4022 21-04-2020 23:12:18 11.8 C 20 %
4023 21-04-2020 23:22:17 11.5 C 20 %
4024 21-04-2020 23:32:18 11.3 C 20 %
4025 21-04-2020 23:42:18 11.3 C 20 %
Sensor: Nr:Datum:Temp:Feuchte:
Aussen-T/F 4026 21-04-2020 23:52:18 11.1 C 20 %
4027 22-04-2020 00:02:18 11.1 C 20 %
4028 22-04-2020 00:12:18 10.6 C 20 %
4029 22-04-2020 00:22:17 11.1 C 20 %
4030 22-04-2020 00:32:18 11.4 C 20 %
4031 22-04-2020 00:42:18 10.9 C 20 %
4032 22-04-2020 00:52:17 11 C 20 %
4033 22-04-2020 01:02:17 10.8 C 20 %
4034 22-04-2020 01:12:17 10 C 21 %
4035 22-04-2020 01:22:17 9.9 C 25 %
4036 22-04-2020 01:32:18 9.7 C 25 %
4037 22-04-2020 01:42:18 10.2 C 21 %
4038 22-04-2020 01:52:17 9.9 C 23 %
4039 22-04-2020 02:02:17 9.9 C 23 %
4040 22-04-2020 02:12:17 9.8 C 25 %
4041 22-04-2020 02:22:17 9.5 C 25 %
4042 22-04-2020 02:32:17 9.3 C 25 %
4043 22-04-2020 02:42:17 9.7 C 25 %
4044 22-04-2020 02:52:17 9.3 C 25 %
4045 22-04-2020 03:02:17 9.5 C 25 %
4046 22-04-2020 03:12:17 9 C 25 %
4047 22-04-2020 03:22:18 8.8 C 26 %
4048 22-04-2020 03:32:18 8.5 C 27 %
4049 22-04-2020 03:42:18 8.4 C 27 %
4050 22-04-2020 03:52:17 8.3 C 27 %
Sensor: Nr:Datum:Temp:Feuchte:
Aussen-T/F 4051 22-04-2020 04:02:18 8.4 C 27 %
4052 22-04-2020 04:12:18 8.3 C 27 %
4053 22-04-2020 04:22:17 8 C 27 %
4054 22-04-2020 04:32:18 7.9 C 27 %
4055 22-04-2020 04:42:18 7.9 C 27 %
4056 22-04-2020 04:52:17 7.4 C 28 %
4057 22-04-2020 05:02:18 7.5 C 28 %
4058 22-04-2020 05:12:18 7.3 C 28 %
4059 22-04-2020 05:22:17 7.1 C 29 %
4060 22-04-2020 05:32:17 7.1 C 29 %
4061 22-04-2020 05:42:18 6.9 C 30 %
4062 22-04-2020 05:52:17 6.7 C 30 %
4063 22-04-2020 06:02:18 6.7 C 30 %
4064 22-04-2020 06:12:18 6.1 C 31 %
4065 22-04-2020 06:22:17 5.8 C 32 %
4066 22-04-2020 06:32:17 5.6 C 33 %
4067 22-04-2020 06:42:17 5.3 C 35 %
4068 22-04-2020 06:52:17 5.6 C 35 %
4069 22-04-2020 07:02:17 5.6 C 35 %
4070 22-04-2020 07:12:17 5.4 C 35 %
4071 22-04-2020 07:22:18 5.9 C 35 %
4072 22-04-2020 07:32:17 5.5 C 35 %
4073 22-04-2020 07:42:17 5.7 C 35 %
4074 22-04-2020 07:52:17 5.9 C 35 %
4075 22-04-2020 08:02:17 6.5 C 34 %
Sensor: Nr:Datum:Temp:Feuchte:
Aussen-T/F 4076 22-04-2020 08:12:17 6.6 C 34 %
4077 22-04-2020 08:22:17 7 C 33 %
4078 22-04-2020 08:32:17 7.5 C 32 %
4079 22-04-2020 08:42:17 8 C 31 %
4080 22-04-2020 08:52:18 8.9 C 30 %
4081 22-04-2020 09:02:18 9.1 C 30 %
4082 22-04-2020 09:12:18 9.1 C 30 %
4083 22-04-2020 09:22:17 10.1 C 26 %
4084 22-04-2020 09:32:17 10.7 C 26 %
4085 22-04-2020 09:42:17 10.7 C 26 %
4086 22-04-2020 09:52:17 11.3 C 24 %
4087 22-04-2020 10:02:17 11.5 C 24 %
4088 22-04-2020 10:12:17 12.5 C 20 %
4089 22-04-2020 10:22:17 13 C 20 %
4090 22-04-2020 10:32:17 13.7 C 20 %
4091 22-04-2020 10:42:17 14.2 C 20 %
4092 22-04-2020 10:52:17 14.8 C 20 %
4093 22-04-2020 11:02:17 15.4 C 20 %
4094 22-04-2020 11:12:17 15.7 C 20 %
4095 22-04-2020 11:22:17 16.2 C 20 %
4096 22-04-2020 11:32:17 16.4 C 20 %
4097 22-04-2020 11:42:17 17.1 C 20 %
4098 22-04-2020 11:52:18 17.1 C 20 %
4099 22-04-2020 12:02:18 17.9 C 20 %
4100 22-04-2020 12:12:18 17.6 C 20 %
Sensor: Nr:Datum:Temp:Feuchte:
Aussen-T/F 4101 22-04-2020 12:22:17 17.7 C 20 %
4102 22-04-2020 12:32:17 17.7 C 20 %
4103 22-04-2020 12:42:17 17.7 C 20 %
4104 22-04-2020 12:52:18 18 C 20 %
4105 22-04-2020 13:02:17 18.6 C 20 %
4106 22-04-2020 13:12:17 19.3 C 20 %
4107 22-04-2020 13:22:17 19 C 20 %
4108 22-04-2020 13:32:17 18.9 C 20 %
4109 22-04-2020 13:42:17 19.1 C 20 %
4110 22-04-2020 13:52:17 19.4 C 20 %
4111 22-04-2020 14:02:17 19.8 C 20 %
4112 22-04-2020 14:12:17 20.3 C 20 %
4113 22-04-2020 14:22:17 21.2 C 20 %
4114 22-04-2020 14:32:17 25.4 C 20 %
4115 22-04-2020 14:42:17 27.1 C 20 %
4116 22-04-2020 14:52:17 25.8 C 20 %
4117 22-04-2020 15:02:17 24.9 C 20 %
4118 22-04-2020 15:12:18 26.4 C 20 %
4119 22-04-2020 15:22:17 27.6 C 20 %
4120 22-04-2020 15:32:17 27 C 20 %
4121 22-04-2020 15:42:17 25.4 C 20 %
4122 22-04-2020 15:52:17 25.7 C 20 %
4123 22-04-2020 16:02:17 25.3 C 20 %
4124 22-04-2020 16:12:17 27.2 C 20 %
4125 22-04-2020 16:22:17 26.8 C 20 %
Sensor: Nr:Datum:Temp:Feuchte:
Aussen-T/F 4126 22-04-2020 16:32:18 27.7 C 20 %
4127 22-04-2020 16:42:18 25.2 C 20 %
4128 22-04-2020 16:52:17 26.3 C 20 %
4129 22-04-2020 17:02:17 25.2 C 20 %
4130 22-04-2020 17:12:17 24.6 C 20 %
4131 22-04-2020 17:22:17 25.1 C 20 %
4132 22-04-2020 17:32:17 25.5 C 20 %
4133 22-04-2020 17:42:17 25.6 C 20 %
4134 22-04-2020 17:52:17 25.2 C 20 %
4135 22-04-2020 18:02:17 23.1 C 20 %
4136 22-04-2020 18:12:17 22 C 20 %
4137 22-04-2020 18:22:17 22.1 C 20 %
4138 22-04-2020 18:32:17 21.9 C 20 %
4139 22-04-2020 18:42:17 21.9 C 20 %
4140 22-04-2020 18:52:17 21.6 C 20 %
4141 22-04-2020 19:02:17 21.1 C 20 %
4142 22-04-2020 19:12:17 21.2 C 20 %
4143 22-04-2020 19:22:17 20.8 C 20 %
4144 22-04-2020 19:32:18 20.4 C 20 %
4145 22-04-2020 19:42:18 20.3 C 20 %
4146 22-04-2020 19:52:17 20 C 20 %
4147 22-04-2020 20:02:18 19.4 C 20 %
4148 22-04-2020 20:12:18 18.4 C 20 %
4149 22-04-2020 20:22:17 17 C 20 %
4150 22-04-2020 20:32:17 16.3 C 20 %
Sensor: Nr:Datum:Temp:Feuchte:
Aussen-T/F 4151 22-04-2020 20:42:17 16.2 C 20 %
4152 22-04-2020 20:52:17 15.9 C 20 %
4153 22-04-2020 21:02:17 15.7 C 20 %
4154 22-04-2020 21:12:17 15 C 20 %
4155 22-04-2020 21:22:17 14.6 C 20 %
4156 22-04-2020 21:32:17 14.4 C 20 %
4157 22-04-2020 21:42:17 14.4 C 20 %
4158 22-04-2020 21:52:17 14.1 C 20 %
4159 22-04-2020 22:02:17 13.7 C 20 %
4160 22-04-2020 22:12:17 13.8 C 20 %
4161 22-04-2020 22:22:17 14.2 C 20 %
4162 22-04-2020 22:32:17 13.6 C 20 %
4163 22-04-2020 22:42:17 13.5 C 20 %
4164 22-04-2020 22:52:18 13.5 C 20 %
4165 22-04-2020 23:02:17 13.7 C 20 %
4166 22-04-2020 23:12:17 13.5 C 20 %
4167 22-04-2020 23:22:17 13.2 C 20 %
4168 22-04-2020 23:32:17 12.9 C 20 %
4169 22-04-2020 23:42:17 13.2 C 20 %
4170 22-04-2020 23:52:18 12.8 C 20 %
4171 23-04-2020 00:02:17 12.6 C 20 %
4172 23-04-2020 00:12:17 12.4 C 20 %
4173 23-04-2020 00:22:17 12.4 C 20 %
4174 23-04-2020 00:32:17 12.2 C 20 %
4175 23-04-2020 00:42:17 12.2 C 20 %
Sensor: Nr:Datum:Temp:Feuchte:
Aussen-T/F 4176 23-04-2020 00:52:17 12.3 C 20 %
4177 23-04-2020 01:02:17 12.1 C 20 %
4178 23-04-2020 01:12:17 11.9 C 20 %
4179 23-04-2020 01:22:18 11 C 20 %
4180 23-04-2020 01:32:17 12 C 20 %
4181 23-04-2020 01:42:17 10.9 C 20 %
4182 23-04-2020 01:52:17 10.5 C 22 %
4183 23-04-2020 02:02:17 9.7 C 25 %
4184 23-04-2020 02:12:17 9.7 C 26 %
4185 23-04-2020 02:22:18 9.7 C 25 %
4186 23-04-2020 02:32:17 9.8 C 26 %
4187 23-04-2020 02:42:17 9.6 C 25 %
4188 23-04-2020 02:52:17 9.3 C 26 %
4189 23-04-2020 03:02:18 9.2 C 26 %
4190 23-04-2020 03:12:18 9.2 C 26 %
4191 23-04-2020 03:22:17 9.4 C 26 %
4192 23-04-2020 03:32:17 9.4 C 26 %
4193 23-04-2020 03:42:17 9.3 C 26 %
4194 23-04-2020 03:52:17 9.1 C 26 %
4195 23-04-2020 04:02:17 8.6 C 27 %
4196 23-04-2020 04:12:17 8.1 C 29 %
4197 23-04-2020 04:22:17 7.5 C 30 %
4198 23-04-2020 04:32:17 7.2 C 32 %
4199 23-04-2020 04:42:17 7.2 C 32 %
4200 23-04-2020 04:52:17 6.9 C 33 %
Sensor: Nr:Datum:Temp:Feuchte:
Aussen-T/F 4201 23-04-2020 05:02:17 6.4 C 34 %
4202 23-04-2020 05:12:17 6.2 C 34 %
4203 23-04-2020 05:22:17 5.9 C 35 %
4204 23-04-2020 05:32:17 6 C 35 %
4205 23-04-2020 05:42:17 6 C 35 %
4206 23-04-2020 05:52:17 5.8 C 36 %
4207 23-04-2020 06:02:17 5.8 C 36 %
4208 23-04-2020 06:12:18 5.4 C 36 %
4209 23-04-2020 06:22:17 5.4 C 36 %
4210 23-04-2020 06:32:18 5.3 C 36 %
4211 23-04-2020 06:42:18 5.3 C 36 %
4212 23-04-2020 06:52:17 5.3 C 36 %
4213 23-04-2020 07:02:17 5.3 C 37 %
4214 23-04-2020 07:12:17 5.3 C 37 %
4215 23-04-2020 07:22:17 5.2 C 37 %
4216 23-04-2020 07:32:17 5.2 C 39 %
4217 23-04-2020 07:42:17 5.2 C 39 %
4218 23-04-2020 07:52:17 5.3 C 39 %
4219 23-04-2020 08:02:17 5.4 C 39 %
4220 23-04-2020 08:12:18 5.5 C 39 %
4221 23-04-2020 08:22:18 5.9 C 39 %
4222 23-04-2020 08:32:18 6.2 C 38 %
4223 23-04-2020 08:42:18 6.5 C 38 %
4224 23-04-2020 08:52:17 6.9 C 38 %
4225 23-04-2020 09:02:17 7.7 C 36 %
Sensor: Nr:Datum:Temp:Feuchte:
Aussen-T/F 4226 23-04-2020 09:12:17 8.1 C 36 %
4227 23-04-2020 09:22:17 8.6 C 35 %
4228 23-04-2020 09:32:17 9.2 C 35 %
4229 23-04-2020 09:42:17 9.7 C 34 %
4230 23-04-2020 09:52:17 9.9 C 34 %
4231 23-04-2020 10:02:18 10.5 C 33 %
4232 23-04-2020 10:12:18 11 C 32 %
4233 23-04-2020 10:22:17 11.8 C 30 %
4234 23-04-2020 10:32:17 12.7 C 28 %
4235 23-04-2020 10:42:17 13.2 C 27 %
4236 23-04-2020 10:52:17 14.8 C 22 %
4237 23-04-2020 11:02:18 16 C 20 %
4238 23-04-2020 11:12:18 16.3 C 20 %
4239 23-04-2020 11:22:17 17.2 C 20 %
4240 23-04-2020 11:32:17 17.4 C 20 %
4241 23-04-2020 11:42:17 17.7 C 20 %
4242 23-04-2020 11:52:18 17.9 C 20 %
4243 23-04-2020 12:02:17 18.9 C 20 %
4244 23-04-2020 12:12:17 18.2 C 20 %
4245 23-04-2020 12:22:17 18 C 20 %
4246 23-04-2020 12:32:18 18.5 C 20 %
4247 23-04-2020 12:42:18 18.3 C 20 %
4248 23-04-2020 12:52:17 18.4 C 20 %
4249 23-04-2020 13:02:17 19.2 C 20 %
4250 23-04-2020 13:12:17 19.5 C 20 %
Sensor: Nr:Datum:Temp:Feuchte:
Aussen-T/F 4251 23-04-2020 13:22:17 19.1 C 20 %
4252 23-04-2020 13:32:17 19.2 C 20 %
4253 23-04-2020 13:42:17 19.7 C 20 %
4254 23-04-2020 13:52:17 20.1 C 20 %
4255 23-04-2020 14:02:17 20.4 C 20 %
4256 23-04-2020 14:12:17 20.7 C 20 %
4257 23-04-2020 14:22:17 21.6 C 20 %
4258 23-04-2020 14:32:17 27.4 C 20 %
4259 23-04-2020 14:42:17 29.1 C 20 %
4260 23-04-2020 14:52:17 29 C 20 %
4261 23-04-2020 15:02:17 29.3 C 20 %
4262 23-04-2020 15:12:17 29.5 C 20 %
4263 23-04-2020 15:22:18 28.8 C 20 %
4264 23-04-2020 15:32:17 30.3 C 20 %
4265 23-04-2020 15:42:17 31.4 C 20 %
4266 23-04-2020 15:52:17 28.9 C 20 %
4267 23-04-2020 16:02:18 27.7 C 20 %
4268 23-04-2020 16:12:18 28.1 C 20 %
4269 23-04-2020 16:22:17 28.4 C 20 %
4270 23-04-2020 16:32:18 28.3 C 20 %
4271 23-04-2020 16:42:18 29 C 20 %
4272 23-04-2020 16:52:17 29.2 C 20 %
4273 23-04-2020 17:02:17 31.6 C 20 %
4274 23-04-2020 17:12:18 28.2 C 20 %
4275 23-04-2020 17:22:17 28.6 C 20 %
Sensor: Nr:Datum:Temp:Feuchte:
Aussen-T/F 4276 23-04-2020 17:32:18 28.1 C 20 %
4277 23-04-2020 17:42:18 28 C 20 %
4278 23-04-2020 17:52:18 30.1 C 20 %
4279 23-04-2020 18:02:17 27.1 C 20 %
4280 23-04-2020 18:12:17 24.5 C 20 %
4281 23-04-2020 18:22:17 23.9 C 20 %
4282 23-04-2020 18:32:17 23.6 C 20 %
4283 23-04-2020 18:42:17 23.7 C 20 %
4284 23-04-2020 18:52:17 23.2 C 20 %
4285 23-04-2020 19:02:17 22.5 C 20 %
4286 23-04-2020 19:12:17 22.4 C 20 %
4287 23-04-2020 19:22:17 22 C 20 %
4288 23-04-2020 19:32:18 21.2 C 20 %
4289 23-04-2020 19:42:18 20 C 20 %
4290 23-04-2020 19:52:17 18.6 C 20 %
4291 23-04-2020 20:02:18 18.6 C 20 %
4292 23-04-2020 20:12:18 17.9 C 20 %
4293 23-04-2020 20:22:17 17.2 C 20 %
4294 23-04-2020 20:32:18 16.5 C 20 %
4295 23-04-2020 20:42:18 15.5 C 20 %
4296 23-04-2020 20:52:18 14.3 C 20 %
4297 23-04-2020 21:02:18 14 C 20 %
4298 23-04-2020 21:12:18 14.1 C 20 %
4299 23-04-2020 21:22:17 13.5 C 20 %
4300 23-04-2020 21:32:17 13.1 C 20 %
Sensor: Nr:Datum:Temp:Feuchte:
Aussen-T/F 4301 23-04-2020 21:42:17 12.9 C 20 %
4302 23-04-2020 21:52:17 12.5 C 20 %
4303 23-04-2020 22:02:17 12 C 23 %
4304 23-04-2020 22:12:17 11.6 C 25 %
4305 23-04-2020 22:22:17 11.5 C 25 %
4306 23-04-2020 22:32:18 11 C 26 %
4307 23-04-2020 22:42:18 11.1 C 26 %
4308 23-04-2020 22:52:18 10.8 C 26 %
4309 23-04-2020 23:02:18 10.4 C 27 %
4310 23-04-2020 23:12:18 10.3 C 27 %
4311 23-04-2020 23:22:18 9.6 C 29 %
4312 23-04-2020 23:32:17 9.6 C 29 %
4313 23-04-2020 23:42:17 9.6 C 29 %
4314 23-04-2020 23:52:17 9.2 C 30 %
4315 24-04-2020 00:02:18 9.2 C 30 %
4316 24-04-2020 00:12:18 9.3 C 30 %
4317 24-04-2020 00:22:17 9.2 C 30 %
4318 24-04-2020 00:32:18 8.6 C 31 %
4319 24-04-2020 00:42:18 8.4 C 31 %
4320 24-04-2020 00:52:17 8.3 C 32 %
4321 24-04-2020 01:02:18 8.1 C 32 %
4322 24-04-2020 01:12:18 8.3 C 33 %
4323 24-04-2020 01:22:17 8.1 C 32 %
4324 24-04-2020 01:32:18 8.1 C 33 %
4325 24-04-2020 01:42:18 8.2 C 33 %
Sensor: Nr:Datum:Temp:Feuchte:
Aussen-T/F 4326 24-04-2020 01:52:17 7.8 C 33 %
4327 24-04-2020 02:02:17 7.5 C 34 %
4328 24-04-2020 02:12:17 7.1 C 34 %
4329 24-04-2020 02:22:17 7 C 35 %
4330 24-04-2020 02:32:18 7.2 C 35 %
4331 24-04-2020 02:42:18 6.8 C 36 %
4332 24-04-2020 02:52:18 7 C 35 %
4333 24-04-2020 03:02:17 7 C 35 %
4334 24-04-2020 03:12:18 6.8 C 36 %
4335 24-04-2020 03:22:17 6.2 C 36 %
4336 24-04-2020 03:32:17 6.4 C 37 %
4337 24-04-2020 03:42:17 6.3 C 37 %
4338 24-04-2020 03:52:17 6.2 C 37 %
4339 24-04-2020 04:02:17 6.2 C 37 %
4340 24-04-2020 04:12:17 6.1 C 37 %
4341 24-04-2020 04:22:17 6 C 37 %
4342 24-04-2020 04:32:17 5.9 C 38 %
4343 24-04-2020 04:42:17 6.2 C 38 %
4344 24-04-2020 04:52:17 6.3 C 38 %
4345 24-04-2020 05:02:17 6.2 C 38 %
4346 24-04-2020 05:12:17 6 C 38 %
4347 24-04-2020 05:22:17 5.9 C 39 %
4348 24-04-2020 05:32:18 6.3 C 38 %
4349 24-04-2020 05:42:18 6.2 C 38 %
4350 24-04-2020 05:52:17 6.1 C 38 %
Sensor: Nr:Datum:Temp:Feuchte:
Aussen-T/F 4351 24-04-2020 06:02:17 6.1 C 38 %
4352 24-04-2020 06:12:17 5.9 C 39 %
4353 24-04-2020 06:22:18 6 C 39 %
4354 24-04-2020 06:32:17 6 C 38 %
4355 24-04-2020 06:42:17 6 C 39 %
4356 24-04-2020 06:52:17 6.2 C 39 %
4357 24-04-2020 07:02:17 6.3 C 38 %
4358 24-04-2020 07:12:17 6.3 C 39 %
4359 24-04-2020 07:22:17 6.3 C 39 %
4360 24-04-2020 07:32:18 6.3 C 39 %
4361 24-04-2020 07:42:18 6.5 C 39 %
4362 24-04-2020 07:52:17 6.7 C 39 %
4363 24-04-2020 08:02:18 6.8 C 39 %
4364 24-04-2020 08:12:18 7.3 C 38 %
4365 24-04-2020 08:22:17 8.2 C 36 %
4366 24-04-2020 08:32:17 9 C 35 %
4367 24-04-2020 08:42:17 9.6 C 35 %
4368 24-04-2020 08:52:17 9.9 C 34 %
4369 24-04-2020 09:02:17 10.4 C 33 %
4370 24-04-2020 09:12:18 11 C 32 %
4371 24-04-2020 09:22:17 11.5 C 31 %
4372 24-04-2020 09:32:18 11.9 C 31 %
4373 24-04-2020 09:42:18 12.5 C 30 %
4374 24-04-2020 09:52:17 12.4 C 30 %
4375 24-04-2020 10:02:17 12.8 C 30 %
Sensor: Nr:Datum:Temp:Feuchte:
Aussen-T/F 4376 24-04-2020 10:12:17 13.1 C 29 %
4377 24-04-2020 10:22:17 14 C 28 %
4378 24-04-2020 10:32:17 14.2 C 28 %
4379 24-04-2020 10:42:17 14.6 C 27 %
4380 24-04-2020 10:52:17 15 C 26 %
4381 24-04-2020 11:02:17 15.6 C 26 %
4382 24-04-2020 11:12:18 15.6 C 26 %
4383 24-04-2020 11:22:17 16.5 C 25 %
4384 24-04-2020 11:32:18 16.6 C 24 %
4385 24-04-2020 11:42:18 17 C 24 %
4386 24-04-2020 11:52:17 17 C 23 %
4387 24-04-2020 12:02:17 17.9 C 23 %
4388 24-04-2020 12:12:17 18.1 C 21 %
4389 24-04-2020 12:22:17 18.2 C 21 %
4390 24-04-2020 12:32:18 18.4 C 21 %
4391 24-04-2020 12:42:18 18.9 C 20 %
4392 24-04-2020 12:52:18 19.3 C 20 %
4393 24-04-2020 13:02:17 19.6 C 20 %
4394 24-04-2020 13:12:17 20.2 C 20 %
4395 24-04-2020 13:22:17 20.5 C 20 %
4396 24-04-2020 13:32:18 20.7 C 20 %
4397 24-04-2020 13:42:18 21 C 20 %
4398 24-04-2020 13:52:17 21.3 C 20 %
4399 24-04-2020 14:02:17 21.8 C 20 %
4400 24-04-2020 14:12:17 22.2 C 20 %
Sensor: Nr:Datum:Temp:Feuchte:
Aussen-T/F 4401 24-04-2020 14:22:17 23.5 C 20 %
4402 24-04-2020 14:32:17 26.8 C 20 %
4403 24-04-2020 14:42:17 28.5 C 20 %
4404 24-04-2020 14:52:17 27.1 C 20 %
4405 24-04-2020 15:02:18 28 C 20 %
4406 24-04-2020 15:12:18 31 C 20 %
4407 24-04-2020 15:22:17 27.6 C 20 %
4408 24-04-2020 15:32:17 28.1 C 20 %
4409 24-04-2020 15:42:18 27.5 C 20 %
4410 24-04-2020 15:52:17 28.8 C 20 %
4411 24-04-2020 16:02:18 28.7 C 20 %
4412 24-04-2020 16:12:18 28.7 C 20 %
4413 24-04-2020 16:22:18 27.2 C 20 %
4414 24-04-2020 16:32:18 26.8 C 20 %
4415 24-04-2020 16:42:18 28 C 20 %
4416 24-04-2020 16:52:17 26.3 C 20 %
4417 24-04-2020 17:02:17 26 C 20 %
4418 24-04-2020 17:12:17 26.7 C 20 %
4419 24-04-2020 17:22:18 26.4 C 20 %
4420 24-04-2020 17:32:18 26.3 C 20 %
4421 24-04-2020 17:42:18 24.2 C 20 %
4422 24-04-2020 17:52:17 26 C 20 %
4423 24-04-2020 18:02:18 24.1 C 20 %
4424 24-04-2020 18:12:18 22.3 C 20 %
4425 24-04-2020 18:22:17 22.2 C 20 %
Sensor: Nr:Datum:Temp:Feuchte:
Aussen-T/F 4426 24-04-2020 18:32:17 22 C 20 %
4427 24-04-2020 18:42:17 20.9 C 20 %
4428 24-04-2020 18:52:18 21 C 20 %
4429 24-04-2020 19:02:17 20.5 C 20 %
4430 24-04-2020 19:12:17 20.3 C 20 %
4431 24-04-2020 19:23:17 20 C 20 %
4432 24-04-2020 19:32:17 19.9 C 20 %
4433 24-04-2020 19:42:18 19.6 C 20 %
4434 24-04-2020 19:53:17 19.2 C 20 %
4435 24-04-2020 20:02:18 19 C 20 %
4436 24-04-2020 20:12:18 18.5 C 20 %
4437 24-04-2020 20:22:17 17.7 C 20 %
4438 24-04-2020 20:32:18 17.3 C 20 %
4439 24-04-2020 20:42:18 16.8 C 20 %
4440 24-04-2020 20:52:18 16.1 C 20 %
4441 24-04-2020 21:02:18 15.9 C 20 %
4442 24-04-2020 21:12:18 15.5 C 20 %
4443 24-04-2020 21:23:17 15.4 C 20 %
4444 24-04-2020 21:33:17 15 C 20 %
4445 24-04-2020 21:42:17 15.1 C 20 %
4446 24-04-2020 21:52:17 14.7 C 20 %
4447 24-04-2020 22:03:17 14.4 C 20 %
4448 24-04-2020 22:13:17 14.1 C 20 %
4449 24-04-2020 22:22:18 14.2 C 20 %
4450 24-04-2020 22:32:18 14.4 C 20 %
Sensor: Nr:Datum:Temp:Feuchte:
Aussen-T/F 4451 24-04-2020 22:42:18 13.9 C 20 %
4452 24-04-2020 22:52:18 13.3 C 20 %
4453 24-04-2020 23:02:18 13.2 C 20 %
4454 24-04-2020 23:12:18 13.2 C 20 %
4455 24-04-2020 23:22:17 12.7 C 20 %
4456 24-04-2020 23:33:17 12.5 C 20 %
4457 24-04-2020 23:43:17 13 C 20 %
4458 24-04-2020 23:53:17 12.4 C 20 %
Sensor: Nr:Datum:Temp:Feuchte:
G-T/H 1 25-03-2020 00:00:17 8.2 C 64 %
2 25-03-2020 00:10:17 8.2 C 64 %
3 25-03-2020 00:20:17 8.1 C 64 %
4 25-03-2020 00:30:17 8.1 C 64 %
5 25-03-2020 00:40:18 8.1 C 64 %
6 25-03-2020 00:50:17 8.1 C 64 %
7 25-03-2020 01:00:17 8.1 C 64 %
8 25-03-2020 01:10:18 8.1 C 64 %
9 25-03-2020 01:20:17 8.1 C 64 %
10 25-03-2020 01:30:18 8.1 C 64 %
11 25-03-2020 01:40:18 8.1 C 64 %
12 25-03-2020 01:50:17 8.1 C 64 %
13 25-03-2020 02:00:17 8.1 C 64 %
14 25-03-2020 02:10:18 8 C 64 %
15 25-03-2020 02:20:18 8 C 64 %
16 25-03-2020 02:30:18 8 C 64 %
17 25-03-2020 02:40:18 8 C 64 %
18 25-03-2020 02:50:18 8 C 63 %
19 25-03-2020 03:00:18 8 C 63 %
20 25-03-2020 03:10:18 8 C 63 %
21 25-03-2020 03:20:17 8 C 63 %
22 25-03-2020 03:30:17 7.9 C 64 %
23 25-03-2020 03:40:17 7.9 C 64 %
24 25-03-2020 03:50:17 7.9 C 64 %
25 25-03-2020 04:00:17 7.9 C 64 %
Sensor: Nr:Datum:Temp:Feuchte:
G-T/H 26 25-03-2020 04:10:17 7.9 C 64 %
27 25-03-2020 04:20:17 7.9 C 64 %
28 25-03-2020 04:30:18 7.9 C 64 %
29 25-03-2020 04:40:18 7.8 C 64 %
30 25-03-2020 04:50:17 7.8 C 64 %
31 25-03-2020 05:00:18 7.8 C 64 %
32 25-03-2020 05:10:18 7.8 C 64 %
33 25-03-2020 05:20:17 7.8 C 64 %
34 25-03-2020 05:30:17 7.8 C 64 %
35 25-03-2020 05:40:17 7.7 C 64 %
36 25-03-2020 05:50:17 7.8 C 64 %
37 25-03-2020 06:00:17 7.7 C 64 %
38 25-03-2020 06:10:17 7.7 C 64 %
39 25-03-2020 06:20:17 7.7 C 64 %
40 25-03-2020 06:30:17 7.7 C 64 %
41 25-03-2020 06:40:17 7.7 C 64 %
42 25-03-2020 06:50:17 7.6 C 63 %
43 25-03-2020 07:00:17 7.6 C 63 %
44 25-03-2020 07:10:17 7.6 C 63 %
45 25-03-2020 07:20:17 7.6 C 63 %
46 25-03-2020 07:30:17 7.6 C 63 %
47 25-03-2020 07:40:17 7.6 C 63 %
48 25-03-2020 07:50:17 7.6 C 63 %
49 25-03-2020 08:00:17 7.5 C 63 %
50 25-03-2020 08:10:17 7.6 C 63 %
Sensor: Nr:Datum:Temp:Feuchte:
G-T/H 51 25-03-2020 08:20:17 7.6 C 63 %
52 25-03-2020 08:30:17 7.5 C 63 %
53 25-03-2020 08:40:17 7.5 C 63 %
54 25-03-2020 08:50:17 7.5 C 63 %
55 25-03-2020 09:00:17 7.5 C 63 %
56 25-03-2020 09:10:17 7.5 C 63 %
57 25-03-2020 09:20:17 7.5 C 64 %
58 25-03-2020 09:30:17 7.5 C 64 %
59 25-03-2020 09:40:18 7.5 C 64 %
60 25-03-2020 09:50:17 7.5 C 64 %
61 25-03-2020 10:00:18 7.4 C 64 %
62 25-03-2020 10:10:18 7.4 C 64 %
63 25-03-2020 10:20:17 7.5 C 64 %
64 25-03-2020 10:30:17 7.5 C 64 %
65 25-03-2020 10:40:17 7.4 C 64 %
66 25-03-2020 10:50:17 7.4 C 64 %
67 25-03-2020 11:00:17 7.4 C 64 %
68 25-03-2020 11:10:17 7.4 C 64 %
69 25-03-2020 11:20:17 7.5 C 64 %
70 25-03-2020 11:30:18 7.5 C 64 %
71 25-03-2020 11:40:18 7.4 C 64 %
72 25-03-2020 11:50:17 7.4 C 64 %
73 25-03-2020 12:00:17 7.5 C 64 %
74 25-03-2020 12:10:17 7.4 C 64 %
75 25-03-2020 12:20:17 7.4 C 64 %
Sensor: Nr:Datum:Temp:Feuchte:
G-T/H 76 25-03-2020 12:30:17 7.5 C 64 %
77 25-03-2020 12:40:17 7.5 C 64 %
78 25-03-2020 12:50:17 7.5 C 64 %
79 25-03-2020 13:00:17 7.5 C 64 %
80 25-03-2020 13:10:17 7.5 C 64 %
81 25-03-2020 13:20:18 7.5 C 64 %
82 25-03-2020 13:30:18 7.5 C 64 %
83 25-03-2020 13:40:18 7.5 C 64 %
84 25-03-2020 13:50:18 7.5 C 64 %
85 25-03-2020 14:00:18 7.5 C 64 %
86 25-03-2020 14:10:18 7.6 C 64 %
87 25-03-2020 14:20:17 7.6 C 64 %
88 25-03-2020 14:30:17 7.6 C 64 %
89 25-03-2020 14:40:17 7.6 C 64 %
90 25-03-2020 14:50:17 7.7 C 63 %
91 25-03-2020 15:00:17 7.6 C 62 %
92 25-03-2020 15:10:17 7.7 C 62 %
93 25-03-2020 15:20:18 7.6 C 62 %
94 25-03-2020 15:30:18 7.7 C 62 %
95 25-03-2020 15:40:18 7.7 C 62 %
96 25-03-2020 15:50:17 7.7 C 62 %
97 25-03-2020 16:00:18 7.7 C 62 %
98 25-03-2020 16:10:18 7.8 C 62 %
99 25-03-2020 16:20:17 7.7 C 62 %
100 25-03-2020 16:30:17 7.8 C 62 %
Sensor: Nr:Datum:Temp:Feuchte:
G-T/H 101 25-03-2020 16:40:17 7.8 C 62 %
102 25-03-2020 16:50:18 7.8 C 62 %
103 25-03-2020 17:00:18 7.8 C 62 %
104 25-03-2020 17:10:18 7.8 C 62 %
105 25-03-2020 17:20:17 7.9 C 62 %
106 25-03-2020 17:30:17 7.9 C 62 %
107 25-03-2020 17:40:17 7.9 C 62 %
108 25-03-2020 17:50:17 7.9 C 62 %
109 25-03-2020 18:00:18 7.9 C 62 %
110 25-03-2020 18:10:18 7.9 C 62 %
111 25-03-2020 18:20:17 8 C 62 %
112 25-03-2020 18:30:18 8 C 62 %
113 25-03-2020 18:40:18 8 C 62 %
114 25-03-2020 18:50:18 8 C 62 %
115 25-03-2020 19:00:18 8 C 62 %
116 25-03-2020 19:10:18 8 C 63 %
117 25-03-2020 19:20:17 8 C 63 %
118 25-03-2020 19:30:18 8 C 63 %
119 25-03-2020 19:40:18 8 C 63 %
120 25-03-2020 19:50:17 8 C 63 %
121 25-03-2020 20:00:17 8.1 C 63 %
122 25-03-2020 20:10:17 8.1 C 64 %
123 25-03-2020 20:20:17 8.1 C 64 %
124 25-03-2020 20:30:18 8.1 C 64 %
125 25-03-2020 20:40:18 8.1 C 64 %
Sensor: Nr:Datum:Temp:Feuchte:
G-T/H 126 25-03-2020 20:50:17 8.1 C 64 %
127 25-03-2020 21:00:18 8.1 C 64 %
128 25-03-2020 21:10:18 8.1 C 64 %
129 25-03-2020 21:20:17 8.1 C 64 %
130 25-03-2020 21:30:17 8.1 C 64 %
131 25-03-2020 21:40:17 8.1 C 64 %
132 25-03-2020 21:50:17 8.1 C 64 %
133 25-03-2020 22:00:17 8.1 C 64 %
134 25-03-2020 22:10:17 8.1 C 64 %
135 25-03-2020 22:20:17 8.1 C 64 %
136 25-03-2020 22:30:18 8.1 C 64 %
137 25-03-2020 22:40:18 8.2 C 64 %
138 25-03-2020 22:50:18 8.2 C 64 %
139 25-03-2020 23:00:18 8.2 C 64 %
140 25-03-2020 23:10:18 8.2 C 64 %
141 25-03-2020 23:20:17 8.2 C 64 %
142 25-03-2020 23:30:18 8.2 C 64 %
143 25-03-2020 23:40:18 8.2 C 64 %
144 25-03-2020 23:50:18 8.2 C 64 %
145 26-03-2020 00:00:18 8.2 C 64 %
146 26-03-2020 00:10:18 8.1 C 64 %
147 26-03-2020 00:20:18 8.1 C 64 %
148 26-03-2020 00:30:18 8.1 C 64 %
149 26-03-2020 00:40:18 8.1 C 64 %
150 26-03-2020 00:50:18 8.1 C 64 %
Sensor: Nr:Datum:Temp:Feuchte:
G-T/H 151 26-03-2020 01:00:18 8.1 C 64 %
152 26-03-2020 01:10:18 8.1 C 64 %
153 26-03-2020 01:20:17 8.1 C 64 %
154 26-03-2020 01:30:17 8.1 C 64 %
155 26-03-2020 01:40:17 8.1 C 64 %
156 26-03-2020 01:50:17 8.1 C 64 %
157 26-03-2020 02:00:17 8.1 C 64 %
158 26-03-2020 02:10:17 8.1 C 64 %
159 26-03-2020 02:20:17 8.1 C 64 %
160 26-03-2020 02:30:17 8.1 C 64 %
161 26-03-2020 02:40:18 8.1 C 64 %
162 26-03-2020 02:50:17 8.1 C 63 %
163 26-03-2020 03:00:17 8.1 C 63 %
164 26-03-2020 03:10:18 8 C 63 %
165 26-03-2020 03:20:18 8 C 63 %
166 26-03-2020 03:30:18 8 C 63 %
167 26-03-2020 03:40:18 8 C 63 %
168 26-03-2020 03:50:17 8 C 63 %
169 26-03-2020 04:00:17 8 C 63 %
170 26-03-2020 04:10:17 8 C 63 %
171 26-03-2020 04:20:17 8 C 63 %
172 26-03-2020 04:30:18 8 C 63 %
173 26-03-2020 04:40:18 8 C 63 %
174 26-03-2020 04:50:17 8 C 63 %
175 26-03-2020 05:00:18 7.9 C 64 %
Sensor: Nr:Datum:Temp:Feuchte:
G-T/H 176 26-03-2020 05:10:18 7.9 C 64 %
177 26-03-2020 05:20:17 7.9 C 64 %
178 26-03-2020 05:30:17 7.9 C 64 %
179 26-03-2020 05:40:18 7.9 C 64 %
180 26-03-2020 05:50:17 7.9 C 64 %
181 26-03-2020 06:00:18 7.9 C 64 %
182 26-03-2020 06:10:18 7.8 C 64 %
183 26-03-2020 06:20:18 7.8 C 64 %
184 26-03-2020 06:30:18 7.8 C 64 %
185 26-03-2020 06:40:18 7.8 C 64 %
186 26-03-2020 06:50:18 7.8 C 64 %
187 26-03-2020 07:00:18 7.8 C 64 %
188 26-03-2020 07:10:18 7.8 C 64 %
189 26-03-2020 07:20:18 7.8 C 64 %
190 26-03-2020 07:30:18 7.7 C 64 %
191 26-03-2020 07:40:18 7.7 C 64 %
192 26-03-2020 07:50:17 7.7 C 64 %
193 26-03-2020 08:00:18 7.7 C 64 %
194 26-03-2020 08:10:18 7.7 C 64 %
195 26-03-2020 08:20:18 7.7 C 64 %